<?xml version="1.0" encoding="UTF-8" standalone="no" ?>
<gpx xmlns="http://www.topografix.com/GPX/1/1" xmlns:xsi="http://www.w3.org/2001/XMLSchema-instance" xsi:schemaLocation="http://www.topografix.com/GPX/1/1 http://www.topografix.com/GPX/1/1/gpx.xsd" version="1.1" creator="VisuGPX - https://www.visugpx.com">
  <metadata>
    <name>Blois sur Seille</name>
  </metadata>
  <trk>
    <name><![CDATA[T2022-09-04-17-15]]></name>
    <extensions>
      <line xmlns="http://www.topografix.com/GPX/gpx_style/0/2">
        <color>0000FF</color>
        <width>4</width>
      </line>
    </extensions>
    <trkseg>
      <trkpt lat="46.74828" lon="5.66933">
        <ele>391.2</ele>
        <time>2022-09-04T11:52:31Z</time>
      </trkpt>
      <trkpt lat="46.74834" lon="5.66948">
        <ele>362</ele>
        <time>2022-09-04T11:52:34Z</time>
      </trkpt>
      <trkpt lat="46.74838" lon="5.66952">
        <ele>319.7</ele>
        <time>2022-09-04T11:52:50Z</time>
      </trkpt>
      <trkpt lat="46.74842" lon="5.66955">
        <ele>313.8</ele>
        <time>2022-09-04T11:53:15Z</time>
      </trkpt>
      <trkpt lat="46.74847" lon="5.66957">
        <ele>313.8</ele>
        <time>2022-09-04T11:53:21Z</time>
      </trkpt>
      <trkpt lat="46.74851" lon="5.66961">
        <ele>313.3</ele>
        <time>2022-09-04T11:53:25Z</time>
      </trkpt>
      <trkpt lat="46.74854" lon="5.66968">
        <ele>312.8</ele>
        <time>2022-09-04T11:53:31Z</time>
      </trkpt>
      <trkpt lat="46.74855" lon="5.66974">
        <ele>312.4</ele>
        <time>2022-09-04T11:53:35Z</time>
      </trkpt>
      <trkpt lat="46.74856" lon="5.66982">
        <ele>311.8</ele>
        <time>2022-09-04T11:53:40Z</time>
      </trkpt>
      <trkpt lat="46.74858" lon="5.66988">
        <ele>311.9</ele>
        <time>2022-09-04T11:53:47Z</time>
      </trkpt>
      <trkpt lat="46.74858" lon="5.66995">
        <ele>312</ele>
        <time>2022-09-04T11:53:51Z</time>
      </trkpt>
      <trkpt lat="46.74858" lon="5.67002">
        <ele>312.2</ele>
        <time>2022-09-04T11:53:56Z</time>
      </trkpt>
      <trkpt lat="46.74854" lon="5.67005">
        <ele>313.4</ele>
        <time>2022-09-04T11:54:02Z</time>
      </trkpt>
      <trkpt lat="46.74857" lon="5.6701">
        <ele>311.5</ele>
        <time>2022-09-04T11:54:34Z</time>
      </trkpt>
      <trkpt lat="46.74861" lon="5.67011">
        <ele>310.4</ele>
        <time>2022-09-04T11:54:39Z</time>
      </trkpt>
      <trkpt lat="46.74865" lon="5.67016">
        <ele>311.5</ele>
        <time>2022-09-04T11:54:50Z</time>
      </trkpt>
      <trkpt lat="46.74868" lon="5.67022">
        <ele>311.7</ele>
        <time>2022-09-04T11:54:55Z</time>
      </trkpt>
      <trkpt lat="46.74872" lon="5.67026">
        <ele>311</ele>
        <time>2022-09-04T11:55:03Z</time>
      </trkpt>
      <trkpt lat="46.74873" lon="5.67034">
        <ele>312.3</ele>
        <time>2022-09-04T11:55:11Z</time>
      </trkpt>
      <trkpt lat="46.74874" lon="5.67042">
        <ele>314.5</ele>
        <time>2022-09-04T11:55:16Z</time>
      </trkpt>
      <trkpt lat="46.74878" lon="5.67046">
        <ele>317.3</ele>
        <time>2022-09-04T11:55:23Z</time>
      </trkpt>
      <trkpt lat="46.74878" lon="5.67054">
        <ele>318.6</ele>
        <time>2022-09-04T11:55:27Z</time>
      </trkpt>
      <trkpt lat="46.7488" lon="5.6706">
        <ele>319.5</ele>
        <time>2022-09-04T11:55:32Z</time>
      </trkpt>
      <trkpt lat="46.74883" lon="5.67065">
        <ele>320.3</ele>
        <time>2022-09-04T11:55:38Z</time>
      </trkpt>
      <trkpt lat="46.74887" lon="5.67071">
        <ele>321.2</ele>
        <time>2022-09-04T11:55:45Z</time>
      </trkpt>
      <trkpt lat="46.74889" lon="5.67079">
        <ele>321.1</ele>
        <time>2022-09-04T11:55:49Z</time>
      </trkpt>
      <trkpt lat="46.74893" lon="5.67083">
        <ele>320.7</ele>
        <time>2022-09-04T11:55:52Z</time>
      </trkpt>
      <trkpt lat="46.74897" lon="5.67086">
        <ele>320.1</ele>
        <time>2022-09-04T11:55:56Z</time>
      </trkpt>
      <trkpt lat="46.74902" lon="5.67088">
        <ele>319.6</ele>
        <time>2022-09-04T11:56:01Z</time>
      </trkpt>
      <trkpt lat="46.74905" lon="5.67093">
        <ele>320.4</ele>
        <time>2022-09-04T11:56:10Z</time>
      </trkpt>
      <trkpt lat="46.7491" lon="5.67094">
        <ele>320.6</ele>
        <time>2022-09-04T11:56:15Z</time>
      </trkpt>
      <trkpt lat="46.74915" lon="5.67099">
        <ele>320.2</ele>
        <time>2022-09-04T11:56:20Z</time>
      </trkpt>
      <trkpt lat="46.74917" lon="5.67105">
        <ele>319.5</ele>
        <time>2022-09-04T11:56:25Z</time>
      </trkpt>
      <trkpt lat="46.74914" lon="5.67111">
        <ele>318.7</ele>
        <time>2022-09-04T11:56:30Z</time>
      </trkpt>
      <trkpt lat="46.74911" lon="5.67117">
        <ele>318.3</ele>
        <time>2022-09-04T11:56:33Z</time>
      </trkpt>
      <trkpt lat="46.74907" lon="5.67122">
        <ele>318</ele>
        <time>2022-09-04T11:56:36Z</time>
      </trkpt>
      <trkpt lat="46.74904" lon="5.67126">
        <ele>318.2</ele>
        <time>2022-09-04T11:56:41Z</time>
      </trkpt>
      <trkpt lat="46.749" lon="5.6713">
        <ele>319.1</ele>
        <time>2022-09-04T11:56:47Z</time>
      </trkpt>
      <trkpt lat="46.74897" lon="5.67137">
        <ele>318.8</ele>
        <time>2022-09-04T11:56:52Z</time>
      </trkpt>
      <trkpt lat="46.74895" lon="5.67144">
        <ele>318</ele>
        <time>2022-09-04T11:56:57Z</time>
      </trkpt>
      <trkpt lat="46.74893" lon="5.6715">
        <ele>317.7</ele>
        <time>2022-09-04T11:57:03Z</time>
      </trkpt>
      <trkpt lat="46.74893" lon="5.67157">
        <ele>317.4</ele>
        <time>2022-09-04T11:57:08Z</time>
      </trkpt>
      <trkpt lat="46.74895" lon="5.67163">
        <ele>317.3</ele>
        <time>2022-09-04T11:57:13Z</time>
      </trkpt>
      <trkpt lat="46.74898" lon="5.67168">
        <ele>317.3</ele>
        <time>2022-09-04T11:57:17Z</time>
      </trkpt>
      <trkpt lat="46.74901" lon="5.67174">
        <ele>317.6</ele>
        <time>2022-09-04T11:57:21Z</time>
      </trkpt>
      <trkpt lat="46.74905" lon="5.67181">
        <ele>316.9</ele>
        <time>2022-09-04T11:57:25Z</time>
      </trkpt>
      <trkpt lat="46.74908" lon="5.67187">
        <ele>316.5</ele>
        <time>2022-09-04T11:57:30Z</time>
      </trkpt>
      <trkpt lat="46.7491" lon="5.67193">
        <ele>316.4</ele>
        <time>2022-09-04T11:57:35Z</time>
      </trkpt>
      <trkpt lat="46.74912" lon="5.67199">
        <ele>316.1</ele>
        <time>2022-09-04T11:57:40Z</time>
      </trkpt>
      <trkpt lat="46.74915" lon="5.67205">
        <ele>315.4</ele>
        <time>2022-09-04T11:57:45Z</time>
      </trkpt>
      <trkpt lat="46.74919" lon="5.6721">
        <ele>314.8</ele>
        <time>2022-09-04T11:57:51Z</time>
      </trkpt>
      <trkpt lat="46.74924" lon="5.67213">
        <ele>314.7</ele>
        <time>2022-09-04T11:57:56Z</time>
      </trkpt>
      <trkpt lat="46.74928" lon="5.67218">
        <ele>314.5</ele>
        <time>2022-09-04T11:58:00Z</time>
      </trkpt>
      <trkpt lat="46.74932" lon="5.67222">
        <ele>314.3</ele>
        <time>2022-09-04T11:58:05Z</time>
      </trkpt>
      <trkpt lat="46.74932" lon="5.67229">
        <ele>315.6</ele>
        <time>2022-09-04T11:58:13Z</time>
      </trkpt>
      <trkpt lat="46.74933" lon="5.67237">
        <ele>318.4</ele>
        <time>2022-09-04T11:58:29Z</time>
      </trkpt>
      <trkpt lat="46.74932" lon="5.67243">
        <ele>320.3</ele>
        <time>2022-09-04T11:58:35Z</time>
      </trkpt>
      <trkpt lat="46.74931" lon="5.6725">
        <ele>321.7</ele>
        <time>2022-09-04T11:58:39Z</time>
      </trkpt>
      <trkpt lat="46.74934" lon="5.67256">
        <ele>322.6</ele>
        <time>2022-09-04T11:58:44Z</time>
      </trkpt>
      <trkpt lat="46.74935" lon="5.67263">
        <ele>322.3</ele>
        <time>2022-09-04T11:58:49Z</time>
      </trkpt>
      <trkpt lat="46.74936" lon="5.67269">
        <ele>321.5</ele>
        <time>2022-09-04T11:58:56Z</time>
      </trkpt>
      <trkpt lat="46.74936" lon="5.67277">
        <ele>322.1</ele>
        <time>2022-09-04T11:59:02Z</time>
      </trkpt>
      <trkpt lat="46.74935" lon="5.67283">
        <ele>322.9</ele>
        <time>2022-09-04T11:59:08Z</time>
      </trkpt>
      <trkpt lat="46.74934" lon="5.6729">
        <ele>322.7</ele>
        <time>2022-09-04T11:59:14Z</time>
      </trkpt>
      <trkpt lat="46.74934" lon="5.67298">
        <ele>322.6</ele>
        <time>2022-09-04T11:59:20Z</time>
      </trkpt>
      <trkpt lat="46.74935" lon="5.67305">
        <ele>321.9</ele>
        <time>2022-09-04T11:59:24Z</time>
      </trkpt>
      <trkpt lat="46.74935" lon="5.67312">
        <ele>321.3</ele>
        <time>2022-09-04T11:59:29Z</time>
      </trkpt>
      <trkpt lat="46.74935" lon="5.6732">
        <ele>320.1</ele>
        <time>2022-09-04T11:59:35Z</time>
      </trkpt>
      <trkpt lat="46.74934" lon="5.67328">
        <ele>318.7</ele>
        <time>2022-09-04T11:59:40Z</time>
      </trkpt>
      <trkpt lat="46.74934" lon="5.67335">
        <ele>317.4</ele>
        <time>2022-09-04T11:59:45Z</time>
      </trkpt>
      <trkpt lat="46.74934" lon="5.67343">
        <ele>315.8</ele>
        <time>2022-09-04T11:59:50Z</time>
      </trkpt>
      <trkpt lat="46.74934" lon="5.6735">
        <ele>314</ele>
        <time>2022-09-04T11:59:55Z</time>
      </trkpt>
      <trkpt lat="46.74934" lon="5.67357">
        <ele>313.3</ele>
        <time>2022-09-04T12:00:00Z</time>
      </trkpt>
      <trkpt lat="46.74935" lon="5.67364">
        <ele>313.6</ele>
        <time>2022-09-04T12:00:06Z</time>
      </trkpt>
      <trkpt lat="46.74935" lon="5.67371">
        <ele>315.4</ele>
        <time>2022-09-04T12:00:15Z</time>
      </trkpt>
      <trkpt lat="46.74934" lon="5.67379">
        <ele>316.8</ele>
        <time>2022-09-04T12:00:21Z</time>
      </trkpt>
      <trkpt lat="46.74933" lon="5.67386">
        <ele>317.8</ele>
        <time>2022-09-04T12:00:26Z</time>
      </trkpt>
      <trkpt lat="46.74937" lon="5.67391">
        <ele>319.4</ele>
        <time>2022-09-04T12:00:31Z</time>
      </trkpt>
      <trkpt lat="46.74938" lon="5.67398">
        <ele>320.6</ele>
        <time>2022-09-04T12:00:36Z</time>
      </trkpt>
      <trkpt lat="46.74936" lon="5.67406">
        <ele>321</ele>
        <time>2022-09-04T12:00:41Z</time>
      </trkpt>
      <trkpt lat="46.74935" lon="5.67413">
        <ele>321</ele>
        <time>2022-09-04T12:00:46Z</time>
      </trkpt>
      <trkpt lat="46.74935" lon="5.6742">
        <ele>321.1</ele>
        <time>2022-09-04T12:00:50Z</time>
      </trkpt>
      <trkpt lat="46.74934" lon="5.67427">
        <ele>320.9</ele>
        <time>2022-09-04T12:00:55Z</time>
      </trkpt>
      <trkpt lat="46.74936" lon="5.67435">
        <ele>320.5</ele>
        <time>2022-09-04T12:01:00Z</time>
      </trkpt>
      <trkpt lat="46.74939" lon="5.67442">
        <ele>320.3</ele>
        <time>2022-09-04T12:01:04Z</time>
      </trkpt>
      <trkpt lat="46.74943" lon="5.67446">
        <ele>320.1</ele>
        <time>2022-09-04T12:01:09Z</time>
      </trkpt>
      <trkpt lat="46.74947" lon="5.67444">
        <ele>320.7</ele>
        <time>2022-09-04T12:01:14Z</time>
      </trkpt>
      <trkpt lat="46.74951" lon="5.6744">
        <ele>321.6</ele>
        <time>2022-09-04T12:01:19Z</time>
      </trkpt>
      <trkpt lat="46.74953" lon="5.67434">
        <ele>321.8</ele>
        <time>2022-09-04T12:01:26Z</time>
      </trkpt>
      <trkpt lat="46.74955" lon="5.67427">
        <ele>320.9</ele>
        <time>2022-09-04T12:01:33Z</time>
      </trkpt>
      <trkpt lat="46.74958" lon="5.6742">
        <ele>320.7</ele>
        <time>2022-09-04T12:01:38Z</time>
      </trkpt>
      <trkpt lat="46.7496" lon="5.67414">
        <ele>321.3</ele>
        <time>2022-09-04T12:01:43Z</time>
      </trkpt>
      <trkpt lat="46.74963" lon="5.67407">
        <ele>321.9</ele>
        <time>2022-09-04T12:01:48Z</time>
      </trkpt>
      <trkpt lat="46.74966" lon="5.67401">
        <ele>322.7</ele>
        <time>2022-09-04T12:01:53Z</time>
      </trkpt>
      <trkpt lat="46.7497" lon="5.67397">
        <ele>323</ele>
        <time>2022-09-04T12:01:59Z</time>
      </trkpt>
      <trkpt lat="46.74974" lon="5.67392">
        <ele>322.8</ele>
        <time>2022-09-04T12:02:05Z</time>
      </trkpt>
      <trkpt lat="46.74979" lon="5.6739">
        <ele>322.6</ele>
        <time>2022-09-04T12:02:11Z</time>
      </trkpt>
      <trkpt lat="46.74983" lon="5.67387">
        <ele>322.4</ele>
        <time>2022-09-04T12:02:16Z</time>
      </trkpt>
      <trkpt lat="46.74987" lon="5.67383">
        <ele>322.8</ele>
        <time>2022-09-04T12:02:21Z</time>
      </trkpt>
      <trkpt lat="46.74991" lon="5.67381">
        <ele>323.9</ele>
        <time>2022-09-04T12:02:26Z</time>
      </trkpt>
      <trkpt lat="46.74995" lon="5.67376">
        <ele>325.2</ele>
        <time>2022-09-04T12:02:31Z</time>
      </trkpt>
      <trkpt lat="46.74999" lon="5.67373">
        <ele>326.1</ele>
        <time>2022-09-04T12:02:35Z</time>
      </trkpt>
      <trkpt lat="46.75004" lon="5.6737">
        <ele>327.6</ele>
        <time>2022-09-04T12:02:41Z</time>
      </trkpt>
      <trkpt lat="46.75008" lon="5.67366">
        <ele>328.6</ele>
        <time>2022-09-04T12:02:46Z</time>
      </trkpt>
      <trkpt lat="46.75013" lon="5.67365">
        <ele>328.9</ele>
        <time>2022-09-04T12:02:51Z</time>
      </trkpt>
      <trkpt lat="46.75018" lon="5.67364">
        <ele>328.6</ele>
        <time>2022-09-04T12:02:56Z</time>
      </trkpt>
      <trkpt lat="46.75022" lon="5.67361">
        <ele>329.5</ele>
        <time>2022-09-04T12:03:03Z</time>
      </trkpt>
      <trkpt lat="46.75027" lon="5.67361">
        <ele>330.6</ele>
        <time>2022-09-04T12:03:08Z</time>
      </trkpt>
      <trkpt lat="46.75029" lon="5.67354">
        <ele>333.6</ele>
        <time>2022-09-04T12:04:13Z</time>
      </trkpt>
      <trkpt lat="46.75033" lon="5.67358">
        <ele>333.7</ele>
        <time>2022-09-04T12:04:37Z</time>
      </trkpt>
      <trkpt lat="46.75036" lon="5.67363">
        <ele>333.3</ele>
        <time>2022-09-04T12:04:46Z</time>
      </trkpt>
      <trkpt lat="46.75038" lon="5.67369">
        <ele>333.5</ele>
        <time>2022-09-04T12:04:55Z</time>
      </trkpt>
      <trkpt lat="46.75041" lon="5.67376">
        <ele>333.9</ele>
        <time>2022-09-04T12:04:58Z</time>
      </trkpt>
      <trkpt lat="46.75044" lon="5.67381">
        <ele>334.9</ele>
        <time>2022-09-04T12:05:04Z</time>
      </trkpt>
      <trkpt lat="46.75046" lon="5.67388">
        <ele>335.9</ele>
        <time>2022-09-04T12:05:11Z</time>
      </trkpt>
      <trkpt lat="46.7505" lon="5.67398">
        <ele>337.3</ele>
        <time>2022-09-04T12:05:28Z</time>
      </trkpt>
      <trkpt lat="46.75052" lon="5.67404">
        <ele>337</ele>
        <time>2022-09-04T12:05:32Z</time>
      </trkpt>
      <trkpt lat="46.75056" lon="5.67409">
        <ele>337</ele>
        <time>2022-09-04T12:05:38Z</time>
      </trkpt>
      <trkpt lat="46.75057" lon="5.67416">
        <ele>341.7</ele>
        <time>2022-09-04T12:06:02Z</time>
      </trkpt>
      <trkpt lat="46.75058" lon="5.67422">
        <ele>343.7</ele>
        <time>2022-09-04T12:06:08Z</time>
      </trkpt>
      <trkpt lat="46.75058" lon="5.67429">
        <ele>345</ele>
        <time>2022-09-04T12:06:12Z</time>
      </trkpt>
      <trkpt lat="46.75057" lon="5.67437">
        <ele>346.1</ele>
        <time>2022-09-04T12:06:17Z</time>
      </trkpt>
      <trkpt lat="46.75057" lon="5.67444">
        <ele>347.6</ele>
        <time>2022-09-04T12:06:24Z</time>
      </trkpt>
      <trkpt lat="46.75059" lon="5.67451">
        <ele>349</ele>
        <time>2022-09-04T12:06:32Z</time>
      </trkpt>
      <trkpt lat="46.7506" lon="5.67458">
        <ele>356.8</ele>
        <time>2022-09-04T12:07:21Z</time>
      </trkpt>
      <trkpt lat="46.75062" lon="5.67464">
        <ele>356.6</ele>
        <time>2022-09-04T12:07:28Z</time>
      </trkpt>
      <trkpt lat="46.75065" lon="5.67469">
        <ele>354.9</ele>
        <time>2022-09-04T12:07:44Z</time>
      </trkpt>
      <trkpt lat="46.75068" lon="5.67476">
        <ele>353.6</ele>
        <time>2022-09-04T12:07:51Z</time>
      </trkpt>
      <trkpt lat="46.75069" lon="5.67483">
        <ele>352.6</ele>
        <time>2022-09-04T12:07:57Z</time>
      </trkpt>
      <trkpt lat="46.7507" lon="5.67489">
        <ele>352.2</ele>
        <time>2022-09-04T12:08:01Z</time>
      </trkpt>
      <trkpt lat="46.75071" lon="5.67498">
        <ele>352</ele>
        <time>2022-09-04T12:08:05Z</time>
      </trkpt>
      <trkpt lat="46.75069" lon="5.67504">
        <ele>351.3</ele>
        <time>2022-09-04T12:08:09Z</time>
      </trkpt>
      <trkpt lat="46.75066" lon="5.6751">
        <ele>350.5</ele>
        <time>2022-09-04T12:08:14Z</time>
      </trkpt>
      <trkpt lat="46.75061" lon="5.67511">
        <ele>351.3</ele>
        <time>2022-09-04T12:08:25Z</time>
      </trkpt>
      <trkpt lat="46.75057" lon="5.67515">
        <ele>354.7</ele>
        <time>2022-09-04T12:08:36Z</time>
      </trkpt>
      <trkpt lat="46.75062" lon="5.67519">
        <ele>360.3</ele>
        <time>2022-09-04T12:09:06Z</time>
      </trkpt>
      <trkpt lat="46.75057" lon="5.67518">
        <ele>364.5</ele>
        <time>2022-09-04T12:09:22Z</time>
      </trkpt>
      <trkpt lat="46.75052" lon="5.67518">
        <ele>365.6</ele>
        <time>2022-09-04T12:09:29Z</time>
      </trkpt>
      <trkpt lat="46.75052" lon="5.67525">
        <ele>369.7</ele>
        <time>2022-09-04T12:10:24Z</time>
      </trkpt>
      <trkpt lat="46.75053" lon="5.67532">
        <ele>370</ele>
        <time>2022-09-04T12:10:32Z</time>
      </trkpt>
      <trkpt lat="46.75056" lon="5.67537">
        <ele>370.1</ele>
        <time>2022-09-04T12:10:36Z</time>
      </trkpt>
      <trkpt lat="46.7506" lon="5.6754">
        <ele>370</ele>
        <time>2022-09-04T12:10:44Z</time>
      </trkpt>
      <trkpt lat="46.75065" lon="5.67541">
        <ele>369.4</ele>
        <time>2022-09-04T12:10:50Z</time>
      </trkpt>
      <trkpt lat="46.7507" lon="5.6754">
        <ele>368</ele>
        <time>2022-09-04T12:10:59Z</time>
      </trkpt>
      <trkpt lat="46.75074" lon="5.67536">
        <ele>368.5</ele>
        <time>2022-09-04T12:11:08Z</time>
      </trkpt>
      <trkpt lat="46.75077" lon="5.67531">
        <ele>370.7</ele>
        <time>2022-09-04T12:11:18Z</time>
      </trkpt>
      <trkpt lat="46.75081" lon="5.67536">
        <ele>372.5</ele>
        <time>2022-09-04T12:11:28Z</time>
      </trkpt>
      <trkpt lat="46.75083" lon="5.67542">
        <ele>373.3</ele>
        <time>2022-09-04T12:11:35Z</time>
      </trkpt>
      <trkpt lat="46.75081" lon="5.67547">
        <ele>383.6</ele>
        <time>2022-09-04T12:12:26Z</time>
      </trkpt>
      <trkpt lat="46.75082" lon="5.67554">
        <ele>393.2</ele>
        <time>2022-09-04T12:13:24Z</time>
      </trkpt>
      <trkpt lat="46.75081" lon="5.67561">
        <ele>392.7</ele>
        <time>2022-09-04T12:13:28Z</time>
      </trkpt>
      <trkpt lat="46.75078" lon="5.67566">
        <ele>391.8</ele>
        <time>2022-09-04T12:13:33Z</time>
      </trkpt>
      <trkpt lat="46.75076" lon="5.67574">
        <ele>391.2</ele>
        <time>2022-09-04T12:13:41Z</time>
      </trkpt>
      <trkpt lat="46.75075" lon="5.6758">
        <ele>390.6</ele>
        <time>2022-09-04T12:13:47Z</time>
      </trkpt>
      <trkpt lat="46.75076" lon="5.67588">
        <ele>389.2</ele>
        <time>2022-09-04T12:13:55Z</time>
      </trkpt>
      <trkpt lat="46.75078" lon="5.67595">
        <ele>388.9</ele>
        <time>2022-09-04T12:14:00Z</time>
      </trkpt>
      <trkpt lat="46.75077" lon="5.67602">
        <ele>388.8</ele>
        <time>2022-09-04T12:14:13Z</time>
      </trkpt>
      <trkpt lat="46.75075" lon="5.67608">
        <ele>388.8</ele>
        <time>2022-09-04T12:14:19Z</time>
      </trkpt>
      <trkpt lat="46.75074" lon="5.67616">
        <ele>388.5</ele>
        <time>2022-09-04T12:14:25Z</time>
      </trkpt>
      <trkpt lat="46.75075" lon="5.67623">
        <ele>389.4</ele>
        <time>2022-09-04T12:14:34Z</time>
      </trkpt>
      <trkpt lat="46.75076" lon="5.67629">
        <ele>390.6</ele>
        <time>2022-09-04T12:14:42Z</time>
      </trkpt>
      <trkpt lat="46.75071" lon="5.67626">
        <ele>396.1</ele>
        <time>2022-09-04T12:15:42Z</time>
      </trkpt>
      <trkpt lat="46.75068" lon="5.67632">
        <ele>402.4</ele>
        <time>2022-09-04T12:15:53Z</time>
      </trkpt>
      <trkpt lat="46.75068" lon="5.6764">
        <ele>403.5</ele>
        <time>2022-09-04T12:16:01Z</time>
      </trkpt>
      <trkpt lat="46.75067" lon="5.67647">
        <ele>402.4</ele>
        <time>2022-09-04T12:16:09Z</time>
      </trkpt>
      <trkpt lat="46.75066" lon="5.67654">
        <ele>400.7</ele>
        <time>2022-09-04T12:16:18Z</time>
      </trkpt>
      <trkpt lat="46.75068" lon="5.6766">
        <ele>400.3</ele>
        <time>2022-09-04T12:16:25Z</time>
      </trkpt>
      <trkpt lat="46.75071" lon="5.67665">
        <ele>400.8</ele>
        <time>2022-09-04T12:16:35Z</time>
      </trkpt>
      <trkpt lat="46.75073" lon="5.67672">
        <ele>400.9</ele>
        <time>2022-09-04T12:16:42Z</time>
      </trkpt>
      <trkpt lat="46.75076" lon="5.67679">
        <ele>400.7</ele>
        <time>2022-09-04T12:16:48Z</time>
      </trkpt>
      <trkpt lat="46.75078" lon="5.67684">
        <ele>399.8</ele>
        <time>2022-09-04T12:16:54Z</time>
      </trkpt>
      <trkpt lat="46.75082" lon="5.6769">
        <ele>398.6</ele>
        <time>2022-09-04T12:17:04Z</time>
      </trkpt>
      <trkpt lat="46.75086" lon="5.67693">
        <ele>397.4</ele>
        <time>2022-09-04T12:17:12Z</time>
      </trkpt>
      <trkpt lat="46.75091" lon="5.6769">
        <ele>397.2</ele>
        <time>2022-09-04T12:17:21Z</time>
      </trkpt>
      <trkpt lat="46.75095" lon="5.67693">
        <ele>398.8</ele>
        <time>2022-09-04T12:17:31Z</time>
      </trkpt>
      <trkpt lat="46.75093" lon="5.677">
        <ele>402.7</ele>
        <time>2022-09-04T12:17:40Z</time>
      </trkpt>
      <trkpt lat="46.75089" lon="5.67696">
        <ele>410</ele>
        <time>2022-09-04T12:18:46Z</time>
      </trkpt>
      <trkpt lat="46.75086" lon="5.67701">
        <ele>410.7</ele>
        <time>2022-09-04T12:18:53Z</time>
      </trkpt>
      <trkpt lat="46.75083" lon="5.67707">
        <ele>411.2</ele>
        <time>2022-09-04T12:19:00Z</time>
      </trkpt>
      <trkpt lat="46.7508" lon="5.67712">
        <ele>411.6</ele>
        <time>2022-09-04T12:19:07Z</time>
      </trkpt>
      <trkpt lat="46.75076" lon="5.67716">
        <ele>412</ele>
        <time>2022-09-04T12:19:14Z</time>
      </trkpt>
      <trkpt lat="46.75072" lon="5.67719">
        <ele>413</ele>
        <time>2022-09-04T12:19:25Z</time>
      </trkpt>
      <trkpt lat="46.75068" lon="5.67724">
        <ele>414.9</ele>
        <time>2022-09-04T12:19:39Z</time>
      </trkpt>
      <trkpt lat="46.75067" lon="5.67732">
        <ele>416.3</ele>
        <time>2022-09-04T12:19:44Z</time>
      </trkpt>
      <trkpt lat="46.75066" lon="5.67739">
        <ele>417.4</ele>
        <time>2022-09-04T12:19:48Z</time>
      </trkpt>
      <trkpt lat="46.75065" lon="5.67745">
        <ele>418.8</ele>
        <time>2022-09-04T12:19:53Z</time>
      </trkpt>
      <trkpt lat="46.75064" lon="5.67752">
        <ele>420.3</ele>
        <time>2022-09-04T12:20:01Z</time>
      </trkpt>
      <trkpt lat="46.75065" lon="5.67759">
        <ele>422.2</ele>
        <time>2022-09-04T12:20:12Z</time>
      </trkpt>
      <trkpt lat="46.75063" lon="5.67753">
        <ele>426.7</ele>
        <time>2022-09-04T12:20:32Z</time>
      </trkpt>
      <trkpt lat="46.75059" lon="5.67753">
        <ele>428.3</ele>
        <time>2022-09-04T12:25:36Z</time>
      </trkpt>
      <trkpt lat="46.7506" lon="5.67759">
        <ele>428.2</ele>
        <time>2022-09-04T12:26:35Z</time>
      </trkpt>
      <trkpt lat="46.75059" lon="5.67766">
        <ele>427.7</ele>
        <time>2022-09-04T12:26:44Z</time>
      </trkpt>
      <trkpt lat="46.75058" lon="5.67773">
        <ele>427.8</ele>
        <time>2022-09-04T12:26:52Z</time>
      </trkpt>
      <trkpt lat="46.75056" lon="5.67779">
        <ele>427.8</ele>
        <time>2022-09-04T12:27:01Z</time>
      </trkpt>
      <trkpt lat="46.75053" lon="5.67785">
        <ele>427.5</ele>
        <time>2022-09-04T12:27:07Z</time>
      </trkpt>
      <trkpt lat="46.75053" lon="5.67792">
        <ele>428</ele>
        <time>2022-09-04T12:27:19Z</time>
      </trkpt>
      <trkpt lat="46.75051" lon="5.67799">
        <ele>428.6</ele>
        <time>2022-09-04T12:27:25Z</time>
      </trkpt>
      <trkpt lat="46.75048" lon="5.67805">
        <ele>429.9</ele>
        <time>2022-09-04T12:27:31Z</time>
      </trkpt>
      <trkpt lat="46.75045" lon="5.67811">
        <ele>431.3</ele>
        <time>2022-09-04T12:27:38Z</time>
      </trkpt>
      <trkpt lat="46.75042" lon="5.67817">
        <ele>435.9</ele>
        <time>2022-09-04T12:27:52Z</time>
      </trkpt>
      <trkpt lat="46.75039" lon="5.67821">
        <ele>438.1</ele>
        <time>2022-09-04T12:27:59Z</time>
      </trkpt>
      <trkpt lat="46.75036" lon="5.67826">
        <ele>439.9</ele>
        <time>2022-09-04T12:28:07Z</time>
      </trkpt>
      <trkpt lat="46.75035" lon="5.67833">
        <ele>441.1</ele>
        <time>2022-09-04T12:28:15Z</time>
      </trkpt>
      <trkpt lat="46.75028" lon="5.67833">
        <ele>443.3</ele>
        <time>2022-09-04T12:28:41Z</time>
      </trkpt>
      <trkpt lat="46.75024" lon="5.6783">
        <ele>446.3</ele>
        <time>2022-09-04T12:28:46Z</time>
      </trkpt>
      <trkpt lat="46.75029" lon="5.67836">
        <ele>451.6</ele>
        <time>2022-09-04T12:29:33Z</time>
      </trkpt>
      <trkpt lat="46.75024" lon="5.67836">
        <ele>455.5</ele>
        <time>2022-09-04T12:30:19Z</time>
      </trkpt>
      <trkpt lat="46.75026" lon="5.67843">
        <ele>450.4</ele>
        <time>2022-09-04T12:30:47Z</time>
      </trkpt>
      <trkpt lat="46.75028" lon="5.67849">
        <ele>449.8</ele>
        <time>2022-09-04T12:30:53Z</time>
      </trkpt>
      <trkpt lat="46.75025" lon="5.67856">
        <ele>449.9</ele>
        <time>2022-09-04T12:31:01Z</time>
      </trkpt>
      <trkpt lat="46.75023" lon="5.67862">
        <ele>450.3</ele>
        <time>2022-09-04T12:31:05Z</time>
      </trkpt>
      <trkpt lat="46.75022" lon="5.67869">
        <ele>451</ele>
        <time>2022-09-04T12:31:11Z</time>
      </trkpt>
      <trkpt lat="46.75023" lon="5.67876">
        <ele>453.1</ele>
        <time>2022-09-04T12:31:22Z</time>
      </trkpt>
      <trkpt lat="46.75024" lon="5.67882">
        <ele>454.1</ele>
        <time>2022-09-04T12:31:28Z</time>
      </trkpt>
      <trkpt lat="46.75026" lon="5.67888">
        <ele>454.4</ele>
        <time>2022-09-04T12:31:34Z</time>
      </trkpt>
      <trkpt lat="46.75026" lon="5.67895">
        <ele>454.6</ele>
        <time>2022-09-04T12:31:44Z</time>
      </trkpt>
      <trkpt lat="46.75023" lon="5.67901">
        <ele>455.2</ele>
        <time>2022-09-04T12:31:50Z</time>
      </trkpt>
      <trkpt lat="46.7502" lon="5.67907">
        <ele>456</ele>
        <time>2022-09-04T12:31:57Z</time>
      </trkpt>
      <trkpt lat="46.75018" lon="5.67913">
        <ele>456.5</ele>
        <time>2022-09-04T12:32:06Z</time>
      </trkpt>
      <trkpt lat="46.75015" lon="5.67918">
        <ele>457.3</ele>
        <time>2022-09-04T12:32:12Z</time>
      </trkpt>
      <trkpt lat="46.75015" lon="5.67929">
        <ele>461</ele>
        <time>2022-09-04T12:32:27Z</time>
      </trkpt>
      <trkpt lat="46.75016" lon="5.67936">
        <ele>462.1</ele>
        <time>2022-09-04T12:32:31Z</time>
      </trkpt>
      <trkpt lat="46.75015" lon="5.67929">
        <ele>469.4</ele>
        <time>2022-09-04T12:33:19Z</time>
      </trkpt>
      <trkpt lat="46.75011" lon="5.67928">
        <ele>473.7</ele>
        <time>2022-09-04T12:34:26Z</time>
      </trkpt>
      <trkpt lat="46.75006" lon="5.67927">
        <ele>472.7</ele>
        <time>2022-09-04T12:34:29Z</time>
      </trkpt>
      <trkpt lat="46.75011" lon="5.67928">
        <ele>470.3</ele>
        <time>2022-09-04T12:34:45Z</time>
      </trkpt>
      <trkpt lat="46.75015" lon="5.67929">
        <ele>472.3</ele>
        <time>2022-09-04T12:35:28Z</time>
      </trkpt>
      <trkpt lat="46.75021" lon="5.67928">
        <ele>473.4</ele>
        <time>2022-09-04T12:35:35Z</time>
      </trkpt>
      <trkpt lat="46.75025" lon="5.67925">
        <ele>473.3</ele>
        <time>2022-09-04T12:35:41Z</time>
      </trkpt>
      <trkpt lat="46.75029" lon="5.67922">
        <ele>472.8</ele>
        <time>2022-09-04T12:35:50Z</time>
      </trkpt>
      <trkpt lat="46.75034" lon="5.6792">
        <ele>471.4</ele>
        <time>2022-09-04T12:36:00Z</time>
      </trkpt>
      <trkpt lat="46.75037" lon="5.67913">
        <ele>471.4</ele>
        <time>2022-09-04T12:36:07Z</time>
      </trkpt>
      <trkpt lat="46.7504" lon="5.67907">
        <ele>472.2</ele>
        <time>2022-09-04T12:36:12Z</time>
      </trkpt>
      <trkpt lat="46.75044" lon="5.67904">
        <ele>473.9</ele>
        <time>2022-09-04T12:36:22Z</time>
      </trkpt>
      <trkpt lat="46.75048" lon="5.67899">
        <ele>475.5</ele>
        <time>2022-09-04T12:36:30Z</time>
      </trkpt>
      <trkpt lat="46.75053" lon="5.67897">
        <ele>477.1</ele>
        <time>2022-09-04T12:36:41Z</time>
      </trkpt>
      <trkpt lat="46.75055" lon="5.67891">
        <ele>477.8</ele>
        <time>2022-09-04T12:36:47Z</time>
      </trkpt>
      <trkpt lat="46.75059" lon="5.67887">
        <ele>478.8</ele>
        <time>2022-09-04T12:36:54Z</time>
      </trkpt>
      <trkpt lat="46.75064" lon="5.67889">
        <ele>479.9</ele>
        <time>2022-09-04T12:37:01Z</time>
      </trkpt>
      <trkpt lat="46.75068" lon="5.67883">
        <ele>482.7</ele>
        <time>2022-09-04T12:38:08Z</time>
      </trkpt>
      <trkpt lat="46.75073" lon="5.67882">
        <ele>484.8</ele>
        <time>2022-09-04T12:38:16Z</time>
      </trkpt>
      <trkpt lat="46.75078" lon="5.67884">
        <ele>485.8</ele>
        <time>2022-09-04T12:38:22Z</time>
      </trkpt>
      <trkpt lat="46.75082" lon="5.67887">
        <ele>486.6</ele>
        <time>2022-09-04T12:38:29Z</time>
      </trkpt>
      <trkpt lat="46.75087" lon="5.67887">
        <ele>487</ele>
        <time>2022-09-04T12:38:36Z</time>
      </trkpt>
      <trkpt lat="46.75092" lon="5.67886">
        <ele>486.6</ele>
        <time>2022-09-04T12:38:46Z</time>
      </trkpt>
      <trkpt lat="46.75097" lon="5.67885">
        <ele>486.6</ele>
        <time>2022-09-04T12:38:54Z</time>
      </trkpt>
      <trkpt lat="46.75101" lon="5.67887">
        <ele>486.8</ele>
        <time>2022-09-04T12:39:00Z</time>
      </trkpt>
      <trkpt lat="46.75106" lon="5.67888">
        <ele>486.8</ele>
        <time>2022-09-04T12:39:07Z</time>
      </trkpt>
      <trkpt lat="46.7511" lon="5.6789">
        <ele>486.5</ele>
        <time>2022-09-04T12:39:14Z</time>
      </trkpt>
      <trkpt lat="46.75115" lon="5.67888">
        <ele>488.6</ele>
        <time>2022-09-04T12:39:35Z</time>
      </trkpt>
      <trkpt lat="46.7512" lon="5.67889">
        <ele>489</ele>
        <time>2022-09-04T12:39:40Z</time>
      </trkpt>
      <trkpt lat="46.75125" lon="5.6789">
        <ele>489.4</ele>
        <time>2022-09-04T12:39:45Z</time>
      </trkpt>
      <trkpt lat="46.7513" lon="5.67888">
        <ele>489.5</ele>
        <time>2022-09-04T12:39:51Z</time>
      </trkpt>
      <trkpt lat="46.75134" lon="5.67886">
        <ele>489.5</ele>
        <time>2022-09-04T12:39:59Z</time>
      </trkpt>
      <trkpt lat="46.75139" lon="5.67887">
        <ele>489.4</ele>
        <time>2022-09-04T12:40:07Z</time>
      </trkpt>
      <trkpt lat="46.75144" lon="5.67888">
        <ele>490.2</ele>
        <time>2022-09-04T12:40:15Z</time>
      </trkpt>
      <trkpt lat="46.75149" lon="5.67885">
        <ele>491.1</ele>
        <time>2022-09-04T12:40:21Z</time>
      </trkpt>
      <trkpt lat="46.75154" lon="5.67886">
        <ele>492</ele>
        <time>2022-09-04T12:40:28Z</time>
      </trkpt>
      <trkpt lat="46.75158" lon="5.67885">
        <ele>492.8</ele>
        <time>2022-09-04T12:40:39Z</time>
      </trkpt>
      <trkpt lat="46.75163" lon="5.67884">
        <ele>494.3</ele>
        <time>2022-09-04T12:40:45Z</time>
      </trkpt>
      <trkpt lat="46.75166" lon="5.67879">
        <ele>496.5</ele>
        <time>2022-09-04T12:40:51Z</time>
      </trkpt>
      <trkpt lat="46.75171" lon="5.67876">
        <ele>499.1</ele>
        <time>2022-09-04T12:41:00Z</time>
      </trkpt>
      <trkpt lat="46.75175" lon="5.67875">
        <ele>501.9</ele>
        <time>2022-09-04T12:41:11Z</time>
      </trkpt>
      <trkpt lat="46.7518" lon="5.67872">
        <ele>504.7</ele>
        <time>2022-09-04T12:41:18Z</time>
      </trkpt>
      <trkpt lat="46.75184" lon="5.67873">
        <ele>507.3</ele>
        <time>2022-09-04T12:41:24Z</time>
      </trkpt>
      <trkpt lat="46.75185" lon="5.67866">
        <ele>511.2</ele>
        <time>2022-09-04T12:41:53Z</time>
      </trkpt>
      <trkpt lat="46.7518" lon="5.67864">
        <ele>512.6</ele>
        <time>2022-09-04T12:43:08Z</time>
      </trkpt>
      <trkpt lat="46.75185" lon="5.67865">
        <ele>514.1</ele>
        <time>2022-09-04T12:43:18Z</time>
      </trkpt>
      <trkpt lat="46.75189" lon="5.67865">
        <ele>515.1</ele>
        <time>2022-09-04T12:43:25Z</time>
      </trkpt>
      <trkpt lat="46.75194" lon="5.67865">
        <ele>514.7</ele>
        <time>2022-09-04T12:43:32Z</time>
      </trkpt>
      <trkpt lat="46.75198" lon="5.67865">
        <ele>514.2</ele>
        <time>2022-09-04T12:43:37Z</time>
      </trkpt>
      <trkpt lat="46.75203" lon="5.67865">
        <ele>513.7</ele>
        <time>2022-09-04T12:43:42Z</time>
      </trkpt>
      <trkpt lat="46.75208" lon="5.67867">
        <ele>513.5</ele>
        <time>2022-09-04T12:43:47Z</time>
      </trkpt>
      <trkpt lat="46.75212" lon="5.67869">
        <ele>513.2</ele>
        <time>2022-09-04T12:43:51Z</time>
      </trkpt>
      <trkpt lat="46.75216" lon="5.67871">
        <ele>512.7</ele>
        <time>2022-09-04T12:44:00Z</time>
      </trkpt>
      <trkpt lat="46.75221" lon="5.67874">
        <ele>512.5</ele>
        <time>2022-09-04T12:44:06Z</time>
      </trkpt>
      <trkpt lat="46.75226" lon="5.67876">
        <ele>511.9</ele>
        <time>2022-09-04T12:44:12Z</time>
      </trkpt>
      <trkpt lat="46.75232" lon="5.67875">
        <ele>511.9</ele>
        <time>2022-09-04T12:44:18Z</time>
      </trkpt>
      <trkpt lat="46.75237" lon="5.67873">
        <ele>512.9</ele>
        <time>2022-09-04T12:44:24Z</time>
      </trkpt>
      <trkpt lat="46.75241" lon="5.67875">
        <ele>514.3</ele>
        <time>2022-09-04T12:44:31Z</time>
      </trkpt>
      <trkpt lat="46.75244" lon="5.6788">
        <ele>515.2</ele>
        <time>2022-09-04T12:44:38Z</time>
      </trkpt>
      <trkpt lat="46.75246" lon="5.67887">
        <ele>516.5</ele>
        <time>2022-09-04T12:44:45Z</time>
      </trkpt>
      <trkpt lat="46.7525" lon="5.67892">
        <ele>517.1</ele>
        <time>2022-09-04T12:44:51Z</time>
      </trkpt>
      <trkpt lat="46.75252" lon="5.67899">
        <ele>517.3</ele>
        <time>2022-09-04T12:44:58Z</time>
      </trkpt>
      <trkpt lat="46.75253" lon="5.67906">
        <ele>518</ele>
        <time>2022-09-04T12:45:05Z</time>
      </trkpt>
      <trkpt lat="46.75256" lon="5.67911">
        <ele>519.4</ele>
        <time>2022-09-04T12:45:12Z</time>
      </trkpt>
      <trkpt lat="46.75252" lon="5.67908">
        <ele>519.8</ele>
        <time>2022-09-04T12:45:29Z</time>
      </trkpt>
      <trkpt lat="46.75256" lon="5.67912">
        <ele>520</ele>
        <time>2022-09-04T12:46:03Z</time>
      </trkpt>
      <trkpt lat="46.75252" lon="5.67916">
        <ele>522.5</ele>
        <time>2022-09-04T12:46:44Z</time>
      </trkpt>
      <trkpt lat="46.75252" lon="5.67923">
        <ele>524.9</ele>
        <time>2022-09-04T12:46:51Z</time>
      </trkpt>
      <trkpt lat="46.75256" lon="5.6792">
        <ele>529.4</ele>
        <time>2022-09-04T12:47:07Z</time>
      </trkpt>
      <trkpt lat="46.75258" lon="5.67913">
        <ele>528.5</ele>
        <time>2022-09-04T12:47:14Z</time>
      </trkpt>
      <trkpt lat="46.75258" lon="5.67906">
        <ele>527.8</ele>
        <time>2022-09-04T12:47:19Z</time>
      </trkpt>
      <trkpt lat="46.75258" lon="5.67898">
        <ele>527.9</ele>
        <time>2022-09-04T12:47:23Z</time>
      </trkpt>
      <trkpt lat="46.75257" lon="5.67891">
        <ele>528.9</ele>
        <time>2022-09-04T12:47:29Z</time>
      </trkpt>
      <trkpt lat="46.75257" lon="5.67884">
        <ele>529.9</ele>
        <time>2022-09-04T12:47:36Z</time>
      </trkpt>
      <trkpt lat="46.75258" lon="5.67877">
        <ele>530.2</ele>
        <time>2022-09-04T12:47:42Z</time>
      </trkpt>
      <trkpt lat="46.7526" lon="5.67871">
        <ele>530.2</ele>
        <time>2022-09-04T12:47:47Z</time>
      </trkpt>
      <trkpt lat="46.75263" lon="5.67865">
        <ele>530.1</ele>
        <time>2022-09-04T12:47:53Z</time>
      </trkpt>
      <trkpt lat="46.75267" lon="5.6786">
        <ele>529.6</ele>
        <time>2022-09-04T12:47:58Z</time>
      </trkpt>
      <trkpt lat="46.75271" lon="5.67856">
        <ele>529.2</ele>
        <time>2022-09-04T12:48:04Z</time>
      </trkpt>
      <trkpt lat="46.75274" lon="5.67851">
        <ele>529.6</ele>
        <time>2022-09-04T12:48:11Z</time>
      </trkpt>
      <trkpt lat="46.75277" lon="5.67846">
        <ele>529.6</ele>
        <time>2022-09-04T12:48:18Z</time>
      </trkpt>
      <trkpt lat="46.7528" lon="5.67839">
        <ele>528.7</ele>
        <time>2022-09-04T12:48:24Z</time>
      </trkpt>
      <trkpt lat="46.75283" lon="5.67834">
        <ele>528.1</ele>
        <time>2022-09-04T12:48:29Z</time>
      </trkpt>
      <trkpt lat="46.75285" lon="5.67828">
        <ele>527.8</ele>
        <time>2022-09-04T12:48:35Z</time>
      </trkpt>
      <trkpt lat="46.75287" lon="5.67821">
        <ele>527</ele>
        <time>2022-09-04T12:48:40Z</time>
      </trkpt>
      <trkpt lat="46.75291" lon="5.67816">
        <ele>526</ele>
        <time>2022-09-04T12:48:45Z</time>
      </trkpt>
      <trkpt lat="46.75294" lon="5.67811">
        <ele>525.3</ele>
        <time>2022-09-04T12:48:50Z</time>
      </trkpt>
      <trkpt lat="46.75298" lon="5.67805">
        <ele>524.4</ele>
        <time>2022-09-04T12:48:57Z</time>
      </trkpt>
      <trkpt lat="46.75301" lon="5.67799">
        <ele>524</ele>
        <time>2022-09-04T12:49:02Z</time>
      </trkpt>
      <trkpt lat="46.75304" lon="5.67793">
        <ele>523.2</ele>
        <time>2022-09-04T12:49:08Z</time>
      </trkpt>
      <trkpt lat="46.75307" lon="5.67788">
        <ele>522.6</ele>
        <time>2022-09-04T12:49:13Z</time>
      </trkpt>
      <trkpt lat="46.75311" lon="5.67785">
        <ele>522.1</ele>
        <time>2022-09-04T12:49:20Z</time>
      </trkpt>
      <trkpt lat="46.75316" lon="5.67782">
        <ele>521.9</ele>
        <time>2022-09-04T12:49:26Z</time>
      </trkpt>
      <trkpt lat="46.75319" lon="5.67778">
        <ele>522</ele>
        <time>2022-09-04T12:49:32Z</time>
      </trkpt>
      <trkpt lat="46.75323" lon="5.67774">
        <ele>522.3</ele>
        <time>2022-09-04T12:49:37Z</time>
      </trkpt>
      <trkpt lat="46.75327" lon="5.6777">
        <ele>523.1</ele>
        <time>2022-09-04T12:49:43Z</time>
      </trkpt>
      <trkpt lat="46.75331" lon="5.67766">
        <ele>523.8</ele>
        <time>2022-09-04T12:49:49Z</time>
      </trkpt>
      <trkpt lat="46.75335" lon="5.67762">
        <ele>524.6</ele>
        <time>2022-09-04T12:49:55Z</time>
      </trkpt>
      <trkpt lat="46.75339" lon="5.67758">
        <ele>524.9</ele>
        <time>2022-09-04T12:50:04Z</time>
      </trkpt>
      <trkpt lat="46.75344" lon="5.67756">
        <ele>524.9</ele>
        <time>2022-09-04T12:50:09Z</time>
      </trkpt>
      <trkpt lat="46.75348" lon="5.67751">
        <ele>525</ele>
        <time>2022-09-04T12:50:13Z</time>
      </trkpt>
      <trkpt lat="46.75352" lon="5.67747">
        <ele>525.8</ele>
        <time>2022-09-04T12:50:20Z</time>
      </trkpt>
      <trkpt lat="46.75357" lon="5.67745">
        <ele>526.2</ele>
        <time>2022-09-04T12:50:27Z</time>
      </trkpt>
      <trkpt lat="46.75361" lon="5.67744">
        <ele>526.5</ele>
        <time>2022-09-04T12:50:32Z</time>
      </trkpt>
      <trkpt lat="46.75365" lon="5.67739">
        <ele>526.5</ele>
        <time>2022-09-04T12:50:41Z</time>
      </trkpt>
      <trkpt lat="46.75369" lon="5.67739">
        <ele>526.8</ele>
        <time>2022-09-04T12:50:50Z</time>
      </trkpt>
      <trkpt lat="46.7537" lon="5.67746">
        <ele>528.1</ele>
        <time>2022-09-04T12:51:38Z</time>
      </trkpt>
      <trkpt lat="46.75369" lon="5.6774">
        <ele>530.2</ele>
        <time>2022-09-04T12:52:10Z</time>
      </trkpt>
      <trkpt lat="46.75373" lon="5.67739">
        <ele>527.4</ele>
        <time>2022-09-04T12:52:48Z</time>
      </trkpt>
      <trkpt lat="46.75373" lon="5.67746">
        <ele>526.4</ele>
        <time>2022-09-04T12:52:57Z</time>
      </trkpt>
      <trkpt lat="46.75369" lon="5.67748">
        <ele>525.1</ele>
        <time>2022-09-04T12:54:42Z</time>
      </trkpt>
      <trkpt lat="46.75365" lon="5.67747">
        <ele>525.9</ele>
        <time>2022-09-04T12:54:49Z</time>
      </trkpt>
      <trkpt lat="46.7536" lon="5.67748">
        <ele>527</ele>
        <time>2022-09-04T12:54:54Z</time>
      </trkpt>
      <trkpt lat="46.75356" lon="5.67749">
        <ele>528</ele>
        <time>2022-09-04T12:55:03Z</time>
      </trkpt>
      <trkpt lat="46.75352" lon="5.67752">
        <ele>527.9</ele>
        <time>2022-09-04T12:55:08Z</time>
      </trkpt>
      <trkpt lat="46.75347" lon="5.67754">
        <ele>527.7</ele>
        <time>2022-09-04T12:55:13Z</time>
      </trkpt>
      <trkpt lat="46.75342" lon="5.67758">
        <ele>527.7</ele>
        <time>2022-09-04T12:55:18Z</time>
      </trkpt>
      <trkpt lat="46.75338" lon="5.67762">
        <ele>527.5</ele>
        <time>2022-09-04T12:55:24Z</time>
      </trkpt>
      <trkpt lat="46.75334" lon="5.67767">
        <ele>527.3</ele>
        <time>2022-09-04T12:55:31Z</time>
      </trkpt>
      <trkpt lat="46.7533" lon="5.67771">
        <ele>527.3</ele>
        <time>2022-09-04T12:55:36Z</time>
      </trkpt>
      <trkpt lat="46.75326" lon="5.67773">
        <ele>527.3</ele>
        <time>2022-09-04T12:55:43Z</time>
      </trkpt>
      <trkpt lat="46.75321" lon="5.67777">
        <ele>527.5</ele>
        <time>2022-09-04T12:55:48Z</time>
      </trkpt>
      <trkpt lat="46.75318" lon="5.67781">
        <ele>527.6</ele>
        <time>2022-09-04T12:55:52Z</time>
      </trkpt>
      <trkpt lat="46.75314" lon="5.67786">
        <ele>527.6</ele>
        <time>2022-09-04T12:55:57Z</time>
      </trkpt>
      <trkpt lat="46.7531" lon="5.67791">
        <ele>527.3</ele>
        <time>2022-09-04T12:56:02Z</time>
      </trkpt>
      <trkpt lat="46.75307" lon="5.67795">
        <ele>526.7</ele>
        <time>2022-09-04T12:56:07Z</time>
      </trkpt>
      <trkpt lat="46.75303" lon="5.67799">
        <ele>526.3</ele>
        <time>2022-09-04T12:56:12Z</time>
      </trkpt>
      <trkpt lat="46.75299" lon="5.67803">
        <ele>526.1</ele>
        <time>2022-09-04T12:56:18Z</time>
      </trkpt>
      <trkpt lat="46.75295" lon="5.67808">
        <ele>526.1</ele>
        <time>2022-09-04T12:56:25Z</time>
      </trkpt>
      <trkpt lat="46.75292" lon="5.67815">
        <ele>526</ele>
        <time>2022-09-04T12:56:30Z</time>
      </trkpt>
      <trkpt lat="46.75288" lon="5.6782">
        <ele>526</ele>
        <time>2022-09-04T12:56:34Z</time>
      </trkpt>
      <trkpt lat="46.75285" lon="5.67826">
        <ele>526.1</ele>
        <time>2022-09-04T12:56:39Z</time>
      </trkpt>
      <trkpt lat="46.75282" lon="5.67832">
        <ele>526.2</ele>
        <time>2022-09-04T12:56:46Z</time>
      </trkpt>
      <trkpt lat="46.75279" lon="5.67837">
        <ele>526.5</ele>
        <time>2022-09-04T12:56:53Z</time>
      </trkpt>
      <trkpt lat="46.75277" lon="5.67845">
        <ele>526.3</ele>
        <time>2022-09-04T12:57:01Z</time>
      </trkpt>
      <trkpt lat="46.75275" lon="5.67851">
        <ele>525.7</ele>
        <time>2022-09-04T12:57:10Z</time>
      </trkpt>
      <trkpt lat="46.75271" lon="5.67855">
        <ele>525.2</ele>
        <time>2022-09-04T12:57:14Z</time>
      </trkpt>
      <trkpt lat="46.75267" lon="5.6786">
        <ele>524.5</ele>
        <time>2022-09-04T12:57:18Z</time>
      </trkpt>
      <trkpt lat="46.75263" lon="5.67865">
        <ele>523.4</ele>
        <time>2022-09-04T12:57:24Z</time>
      </trkpt>
      <trkpt lat="46.75262" lon="5.67872">
        <ele>523.7</ele>
        <time>2022-09-04T12:57:34Z</time>
      </trkpt>
      <trkpt lat="46.75258" lon="5.67877">
        <ele>524.5</ele>
        <time>2022-09-04T12:57:43Z</time>
      </trkpt>
      <trkpt lat="46.75256" lon="5.67883">
        <ele>524.7</ele>
        <time>2022-09-04T12:57:48Z</time>
      </trkpt>
      <trkpt lat="46.75257" lon="5.6789">
        <ele>525</ele>
        <time>2022-09-04T12:57:58Z</time>
      </trkpt>
      <trkpt lat="46.75259" lon="5.67899">
        <ele>523.8</ele>
        <time>2022-09-04T12:58:19Z</time>
      </trkpt>
      <trkpt lat="46.7526" lon="5.67906">
        <ele>524.1</ele>
        <time>2022-09-04T12:58:23Z</time>
      </trkpt>
      <trkpt lat="46.7526" lon="5.67914">
        <ele>524.8</ele>
        <time>2022-09-04T12:58:28Z</time>
      </trkpt>
      <trkpt lat="46.75261" lon="5.67921">
        <ele>525.6</ele>
        <time>2022-09-04T12:58:34Z</time>
      </trkpt>
      <trkpt lat="46.75263" lon="5.67927">
        <ele>527.5</ele>
        <time>2022-09-04T12:58:45Z</time>
      </trkpt>
      <trkpt lat="46.75266" lon="5.67933">
        <ele>528.7</ele>
        <time>2022-09-04T12:58:54Z</time>
      </trkpt>
      <trkpt lat="46.7527" lon="5.67938">
        <ele>528.9</ele>
        <time>2022-09-04T12:59:00Z</time>
      </trkpt>
      <trkpt lat="46.75274" lon="5.67942">
        <ele>529.3</ele>
        <time>2022-09-04T12:59:05Z</time>
      </trkpt>
      <trkpt lat="46.75277" lon="5.67947">
        <ele>529.9</ele>
        <time>2022-09-04T12:59:12Z</time>
      </trkpt>
      <trkpt lat="46.75281" lon="5.6795">
        <ele>529.8</ele>
        <time>2022-09-04T12:59:19Z</time>
      </trkpt>
      <trkpt lat="46.75286" lon="5.67953">
        <ele>529.9</ele>
        <time>2022-09-04T12:59:25Z</time>
      </trkpt>
      <trkpt lat="46.75291" lon="5.67957">
        <ele>529.9</ele>
        <time>2022-09-04T12:59:31Z</time>
      </trkpt>
      <trkpt lat="46.75293" lon="5.67963">
        <ele>529.4</ele>
        <time>2022-09-04T12:59:38Z</time>
      </trkpt>
      <trkpt lat="46.75297" lon="5.67969">
        <ele>529.1</ele>
        <time>2022-09-04T12:59:43Z</time>
      </trkpt>
      <trkpt lat="46.753" lon="5.67975">
        <ele>528.5</ele>
        <time>2022-09-04T12:59:48Z</time>
      </trkpt>
      <trkpt lat="46.75304" lon="5.6798">
        <ele>527.9</ele>
        <time>2022-09-04T12:59:53Z</time>
      </trkpt>
      <trkpt lat="46.75307" lon="5.67984">
        <ele>527.4</ele>
        <time>2022-09-04T12:59:58Z</time>
      </trkpt>
      <trkpt lat="46.75309" lon="5.67991">
        <ele>526.8</ele>
        <time>2022-09-04T13:00:03Z</time>
      </trkpt>
      <trkpt lat="46.7531" lon="5.67998">
        <ele>526.6</ele>
        <time>2022-09-04T13:00:10Z</time>
      </trkpt>
      <trkpt lat="46.7531" lon="5.68006">
        <ele>526.2</ele>
        <time>2022-09-04T13:00:15Z</time>
      </trkpt>
      <trkpt lat="46.75311" lon="5.68013">
        <ele>526.1</ele>
        <time>2022-09-04T13:00:20Z</time>
      </trkpt>
      <trkpt lat="46.75314" lon="5.68019">
        <ele>526.2</ele>
        <time>2022-09-04T13:00:24Z</time>
      </trkpt>
      <trkpt lat="46.75317" lon="5.68024">
        <ele>526.2</ele>
        <time>2022-09-04T13:00:28Z</time>
      </trkpt>
      <trkpt lat="46.7532" lon="5.6803">
        <ele>526.5</ele>
        <time>2022-09-04T13:00:34Z</time>
      </trkpt>
      <trkpt lat="46.75324" lon="5.68033">
        <ele>527.7</ele>
        <time>2022-09-04T13:00:40Z</time>
      </trkpt>
      <trkpt lat="46.75328" lon="5.68038">
        <ele>528.6</ele>
        <time>2022-09-04T13:00:45Z</time>
      </trkpt>
      <trkpt lat="46.7533" lon="5.68045">
        <ele>529.5</ele>
        <time>2022-09-04T13:00:50Z</time>
      </trkpt>
      <trkpt lat="46.75332" lon="5.68051">
        <ele>530</ele>
        <time>2022-09-04T13:00:55Z</time>
      </trkpt>
      <trkpt lat="46.75334" lon="5.68057">
        <ele>531.1</ele>
        <time>2022-09-04T13:01:01Z</time>
      </trkpt>
      <trkpt lat="46.75336" lon="5.68064">
        <ele>532.4</ele>
        <time>2022-09-04T13:01:07Z</time>
      </trkpt>
      <trkpt lat="46.75338" lon="5.68071">
        <ele>532.7</ele>
        <time>2022-09-04T13:01:13Z</time>
      </trkpt>
      <trkpt lat="46.7534" lon="5.68078">
        <ele>532.7</ele>
        <time>2022-09-04T13:01:18Z</time>
      </trkpt>
      <trkpt lat="46.75341" lon="5.68085">
        <ele>532.7</ele>
        <time>2022-09-04T13:01:23Z</time>
      </trkpt>
      <trkpt lat="46.75342" lon="5.68092">
        <ele>532.5</ele>
        <time>2022-09-04T13:01:29Z</time>
      </trkpt>
      <trkpt lat="46.75343" lon="5.68099">
        <ele>532.1</ele>
        <time>2022-09-04T13:01:34Z</time>
      </trkpt>
      <trkpt lat="46.75344" lon="5.68106">
        <ele>531.9</ele>
        <time>2022-09-04T13:01:39Z</time>
      </trkpt>
      <trkpt lat="46.75346" lon="5.68112">
        <ele>531.9</ele>
        <time>2022-09-04T13:01:45Z</time>
      </trkpt>
      <trkpt lat="46.75348" lon="5.68118">
        <ele>532.3</ele>
        <time>2022-09-04T13:01:52Z</time>
      </trkpt>
      <trkpt lat="46.75349" lon="5.68125">
        <ele>532.6</ele>
        <time>2022-09-04T13:01:57Z</time>
      </trkpt>
      <trkpt lat="46.7535" lon="5.68132">
        <ele>533.1</ele>
        <time>2022-09-04T13:02:03Z</time>
      </trkpt>
      <trkpt lat="46.75353" lon="5.68138">
        <ele>533.5</ele>
        <time>2022-09-04T13:02:09Z</time>
      </trkpt>
      <trkpt lat="46.75354" lon="5.68145">
        <ele>533.6</ele>
        <time>2022-09-04T13:02:16Z</time>
      </trkpt>
      <trkpt lat="46.75354" lon="5.68153">
        <ele>534</ele>
        <time>2022-09-04T13:02:22Z</time>
      </trkpt>
      <trkpt lat="46.75355" lon="5.68161">
        <ele>533.9</ele>
        <time>2022-09-04T13:02:28Z</time>
      </trkpt>
      <trkpt lat="46.75356" lon="5.68168">
        <ele>533.1</ele>
        <time>2022-09-04T13:02:33Z</time>
      </trkpt>
      <trkpt lat="46.75356" lon="5.68175">
        <ele>531.8</ele>
        <time>2022-09-04T13:02:39Z</time>
      </trkpt>
      <trkpt lat="46.75356" lon="5.68182">
        <ele>530.7</ele>
        <time>2022-09-04T13:02:44Z</time>
      </trkpt>
      <trkpt lat="46.75356" lon="5.68189">
        <ele>529.6</ele>
        <time>2022-09-04T13:02:49Z</time>
      </trkpt>
      <trkpt lat="46.75355" lon="5.68197">
        <ele>528.4</ele>
        <time>2022-09-04T13:02:54Z</time>
      </trkpt>
      <trkpt lat="46.75354" lon="5.68204">
        <ele>527.4</ele>
        <time>2022-09-04T13:02:59Z</time>
      </trkpt>
      <trkpt lat="46.75353" lon="5.68211">
        <ele>526.9</ele>
        <time>2022-09-04T13:03:05Z</time>
      </trkpt>
      <trkpt lat="46.75353" lon="5.68218">
        <ele>526.2</ele>
        <time>2022-09-04T13:03:11Z</time>
      </trkpt>
      <trkpt lat="46.75352" lon="5.68226">
        <ele>525.3</ele>
        <time>2022-09-04T13:03:16Z</time>
      </trkpt>
      <trkpt lat="46.75351" lon="5.68233">
        <ele>524.9</ele>
        <time>2022-09-04T13:03:20Z</time>
      </trkpt>
      <trkpt lat="46.75351" lon="5.6824">
        <ele>525.1</ele>
        <time>2022-09-04T13:03:24Z</time>
      </trkpt>
      <trkpt lat="46.7535" lon="5.68248">
        <ele>525.2</ele>
        <time>2022-09-04T13:03:29Z</time>
      </trkpt>
      <trkpt lat="46.7535" lon="5.68256">
        <ele>525.7</ele>
        <time>2022-09-04T13:03:34Z</time>
      </trkpt>
      <trkpt lat="46.7535" lon="5.68262">
        <ele>525.8</ele>
        <time>2022-09-04T13:03:39Z</time>
      </trkpt>
      <trkpt lat="46.7535" lon="5.68269">
        <ele>526.3</ele>
        <time>2022-09-04T13:03:44Z</time>
      </trkpt>
      <trkpt lat="46.7535" lon="5.68277">
        <ele>526.2</ele>
        <time>2022-09-04T13:03:49Z</time>
      </trkpt>
      <trkpt lat="46.75349" lon="5.68284">
        <ele>526.5</ele>
        <time>2022-09-04T13:03:53Z</time>
      </trkpt>
      <trkpt lat="46.75349" lon="5.68292">
        <ele>526.7</ele>
        <time>2022-09-04T13:03:59Z</time>
      </trkpt>
      <trkpt lat="46.75347" lon="5.68299">
        <ele>526.5</ele>
        <time>2022-09-04T13:04:04Z</time>
      </trkpt>
      <trkpt lat="46.75346" lon="5.68306">
        <ele>526.3</ele>
        <time>2022-09-04T13:04:09Z</time>
      </trkpt>
      <trkpt lat="46.75345" lon="5.68314">
        <ele>525.8</ele>
        <time>2022-09-04T13:04:14Z</time>
      </trkpt>
      <trkpt lat="46.75344" lon="5.68321">
        <ele>526</ele>
        <time>2022-09-04T13:04:19Z</time>
      </trkpt>
      <trkpt lat="46.75343" lon="5.68329">
        <ele>526.4</ele>
        <time>2022-09-04T13:04:24Z</time>
      </trkpt>
      <trkpt lat="46.75342" lon="5.68336">
        <ele>526.8</ele>
        <time>2022-09-04T13:04:29Z</time>
      </trkpt>
      <trkpt lat="46.7534" lon="5.68343">
        <ele>527.1</ele>
        <time>2022-09-04T13:04:34Z</time>
      </trkpt>
      <trkpt lat="46.75337" lon="5.68348">
        <ele>526.4</ele>
        <time>2022-09-04T13:04:39Z</time>
      </trkpt>
      <trkpt lat="46.75333" lon="5.68354">
        <ele>526.3</ele>
        <time>2022-09-04T13:04:43Z</time>
      </trkpt>
      <trkpt lat="46.75329" lon="5.68359">
        <ele>526.3</ele>
        <time>2022-09-04T13:04:48Z</time>
      </trkpt>
      <trkpt lat="46.75325" lon="5.68363">
        <ele>526</ele>
        <time>2022-09-04T13:04:52Z</time>
      </trkpt>
      <trkpt lat="46.7532" lon="5.68366">
        <ele>525.5</ele>
        <time>2022-09-04T13:04:56Z</time>
      </trkpt>
      <trkpt lat="46.75316" lon="5.6837">
        <ele>525.5</ele>
        <time>2022-09-04T13:05:01Z</time>
      </trkpt>
      <trkpt lat="46.75312" lon="5.68375">
        <ele>526</ele>
        <time>2022-09-04T13:05:06Z</time>
      </trkpt>
      <trkpt lat="46.75307" lon="5.68378">
        <ele>525.9</ele>
        <time>2022-09-04T13:05:11Z</time>
      </trkpt>
      <trkpt lat="46.75303" lon="5.68383">
        <ele>525.8</ele>
        <time>2022-09-04T13:05:16Z</time>
      </trkpt>
      <trkpt lat="46.75299" lon="5.68387">
        <ele>526</ele>
        <time>2022-09-04T13:05:20Z</time>
      </trkpt>
      <trkpt lat="46.75295" lon="5.68391">
        <ele>526.8</ele>
        <time>2022-09-04T13:05:26Z</time>
      </trkpt>
      <trkpt lat="46.7529" lon="5.68395">
        <ele>527.2</ele>
        <time>2022-09-04T13:05:31Z</time>
      </trkpt>
      <trkpt lat="46.75286" lon="5.684">
        <ele>527.3</ele>
        <time>2022-09-04T13:05:36Z</time>
      </trkpt>
      <trkpt lat="46.75282" lon="5.68405">
        <ele>527.2</ele>
        <time>2022-09-04T13:05:41Z</time>
      </trkpt>
      <trkpt lat="46.75278" lon="5.6841">
        <ele>527.3</ele>
        <time>2022-09-04T13:05:45Z</time>
      </trkpt>
      <trkpt lat="46.75275" lon="5.68413">
        <ele>527.4</ele>
        <time>2022-09-04T13:05:50Z</time>
      </trkpt>
      <trkpt lat="46.75271" lon="5.68418">
        <ele>528.5</ele>
        <time>2022-09-04T13:05:56Z</time>
      </trkpt>
      <trkpt lat="46.75266" lon="5.68422">
        <ele>529.7</ele>
        <time>2022-09-04T13:06:02Z</time>
      </trkpt>
      <trkpt lat="46.75262" lon="5.68423">
        <ele>531.5</ele>
        <time>2022-09-04T13:06:08Z</time>
      </trkpt>
      <trkpt lat="46.75257" lon="5.68422">
        <ele>533.1</ele>
        <time>2022-09-04T13:06:14Z</time>
      </trkpt>
      <trkpt lat="46.75252" lon="5.68422">
        <ele>534.1</ele>
        <time>2022-09-04T13:06:20Z</time>
      </trkpt>
      <trkpt lat="46.75247" lon="5.6842">
        <ele>534.6</ele>
        <time>2022-09-04T13:06:25Z</time>
      </trkpt>
      <trkpt lat="46.75243" lon="5.68418">
        <ele>535</ele>
        <time>2022-09-04T13:06:29Z</time>
      </trkpt>
      <trkpt lat="46.75238" lon="5.68415">
        <ele>535.4</ele>
        <time>2022-09-04T13:06:33Z</time>
      </trkpt>
      <trkpt lat="46.75233" lon="5.68412">
        <ele>535.5</ele>
        <time>2022-09-04T13:06:37Z</time>
      </trkpt>
      <trkpt lat="46.75228" lon="5.6841">
        <ele>535.7</ele>
        <time>2022-09-04T13:06:42Z</time>
      </trkpt>
      <trkpt lat="46.75223" lon="5.68409">
        <ele>536.2</ele>
        <time>2022-09-04T13:06:46Z</time>
      </trkpt>
      <trkpt lat="46.75218" lon="5.68407">
        <ele>536.8</ele>
        <time>2022-09-04T13:06:51Z</time>
      </trkpt>
      <trkpt lat="46.75214" lon="5.68406">
        <ele>537.4</ele>
        <time>2022-09-04T13:06:56Z</time>
      </trkpt>
      <trkpt lat="46.75209" lon="5.68405">
        <ele>537.7</ele>
        <time>2022-09-04T13:07:01Z</time>
      </trkpt>
      <trkpt lat="46.75204" lon="5.68403">
        <ele>537</ele>
        <time>2022-09-04T13:07:07Z</time>
      </trkpt>
      <trkpt lat="46.75199" lon="5.68401">
        <ele>535.8</ele>
        <time>2022-09-04T13:07:13Z</time>
      </trkpt>
      <trkpt lat="46.75194" lon="5.684">
        <ele>534.8</ele>
        <time>2022-09-04T13:07:19Z</time>
      </trkpt>
      <trkpt lat="46.75189" lon="5.684">
        <ele>534.6</ele>
        <time>2022-09-04T13:07:24Z</time>
      </trkpt>
      <trkpt lat="46.75184" lon="5.68398">
        <ele>534.2</ele>
        <time>2022-09-04T13:07:29Z</time>
      </trkpt>
      <trkpt lat="46.75179" lon="5.68397">
        <ele>533.7</ele>
        <time>2022-09-04T13:07:35Z</time>
      </trkpt>
      <trkpt lat="46.75174" lon="5.68395">
        <ele>533.6</ele>
        <time>2022-09-04T13:07:41Z</time>
      </trkpt>
      <trkpt lat="46.7517" lon="5.68395">
        <ele>533.4</ele>
        <time>2022-09-04T13:07:50Z</time>
      </trkpt>
      <trkpt lat="46.75165" lon="5.68392">
        <ele>534.8</ele>
        <time>2022-09-04T13:08:38Z</time>
      </trkpt>
      <trkpt lat="46.7516" lon="5.6839">
        <ele>534.3</ele>
        <time>2022-09-04T13:08:42Z</time>
      </trkpt>
      <trkpt lat="46.75155" lon="5.68389">
        <ele>533.6</ele>
        <time>2022-09-04T13:08:46Z</time>
      </trkpt>
      <trkpt lat="46.7515" lon="5.68387">
        <ele>533</ele>
        <time>2022-09-04T13:08:51Z</time>
      </trkpt>
      <trkpt lat="46.75145" lon="5.68384">
        <ele>532.6</ele>
        <time>2022-09-04T13:08:56Z</time>
      </trkpt>
      <trkpt lat="46.7514" lon="5.68381">
        <ele>532.1</ele>
        <time>2022-09-04T13:09:01Z</time>
      </trkpt>
      <trkpt lat="46.75137" lon="5.68376">
        <ele>531.6</ele>
        <time>2022-09-04T13:09:07Z</time>
      </trkpt>
      <trkpt lat="46.75133" lon="5.68373">
        <ele>531</ele>
        <time>2022-09-04T13:09:12Z</time>
      </trkpt>
      <trkpt lat="46.75128" lon="5.6837">
        <ele>530.7</ele>
        <time>2022-09-04T13:09:16Z</time>
      </trkpt>
      <trkpt lat="46.75124" lon="5.68367">
        <ele>530.8</ele>
        <time>2022-09-04T13:09:21Z</time>
      </trkpt>
      <trkpt lat="46.7512" lon="5.68366">
        <ele>531.1</ele>
        <time>2022-09-04T13:09:26Z</time>
      </trkpt>
      <trkpt lat="46.75115" lon="5.68364">
        <ele>532.5</ele>
        <time>2022-09-04T13:09:31Z</time>
      </trkpt>
      <trkpt lat="46.7511" lon="5.68363">
        <ele>534.4</ele>
        <time>2022-09-04T13:09:36Z</time>
      </trkpt>
      <trkpt lat="46.75105" lon="5.68361">
        <ele>536.4</ele>
        <time>2022-09-04T13:09:41Z</time>
      </trkpt>
      <trkpt lat="46.751" lon="5.68358">
        <ele>537.8</ele>
        <time>2022-09-04T13:09:46Z</time>
      </trkpt>
      <trkpt lat="46.75095" lon="5.68357">
        <ele>538.8</ele>
        <time>2022-09-04T13:09:50Z</time>
      </trkpt>
      <trkpt lat="46.7509" lon="5.68356">
        <ele>539.8</ele>
        <time>2022-09-04T13:09:55Z</time>
      </trkpt>
      <trkpt lat="46.75085" lon="5.68354">
        <ele>540.3</ele>
        <time>2022-09-04T13:10:01Z</time>
      </trkpt>
      <trkpt lat="46.75081" lon="5.68352">
        <ele>540.2</ele>
        <time>2022-09-04T13:10:06Z</time>
      </trkpt>
      <trkpt lat="46.75076" lon="5.6835">
        <ele>539.6</ele>
        <time>2022-09-04T13:10:11Z</time>
      </trkpt>
      <trkpt lat="46.75072" lon="5.68347">
        <ele>539</ele>
        <time>2022-09-04T13:10:15Z</time>
      </trkpt>
      <trkpt lat="46.75067" lon="5.68345">
        <ele>538.4</ele>
        <time>2022-09-04T13:10:20Z</time>
      </trkpt>
      <trkpt lat="46.75062" lon="5.68342">
        <ele>538.4</ele>
        <time>2022-09-04T13:10:26Z</time>
      </trkpt>
      <trkpt lat="46.75057" lon="5.68339">
        <ele>538.4</ele>
        <time>2022-09-04T13:10:31Z</time>
      </trkpt>
      <trkpt lat="46.75053" lon="5.68337">
        <ele>538.4</ele>
        <time>2022-09-04T13:10:35Z</time>
      </trkpt>
      <trkpt lat="46.75048" lon="5.68335">
        <ele>538.2</ele>
        <time>2022-09-04T13:10:40Z</time>
      </trkpt>
      <trkpt lat="46.75044" lon="5.68333">
        <ele>538.7</ele>
        <time>2022-09-04T13:10:46Z</time>
      </trkpt>
      <trkpt lat="46.75039" lon="5.68333">
        <ele>539.2</ele>
        <time>2022-09-04T13:10:51Z</time>
      </trkpt>
      <trkpt lat="46.75034" lon="5.68333">
        <ele>539.8</ele>
        <time>2022-09-04T13:10:57Z</time>
      </trkpt>
      <trkpt lat="46.75029" lon="5.68334">
        <ele>539.8</ele>
        <time>2022-09-04T13:11:02Z</time>
      </trkpt>
      <trkpt lat="46.75023" lon="5.68335">
        <ele>539.4</ele>
        <time>2022-09-04T13:11:07Z</time>
      </trkpt>
      <trkpt lat="46.75018" lon="5.68335">
        <ele>539</ele>
        <time>2022-09-04T13:11:12Z</time>
      </trkpt>
      <trkpt lat="46.75013" lon="5.68336">
        <ele>538.7</ele>
        <time>2022-09-04T13:11:15Z</time>
      </trkpt>
      <trkpt lat="46.75008" lon="5.68336">
        <ele>538.4</ele>
        <time>2022-09-04T13:11:19Z</time>
      </trkpt>
      <trkpt lat="46.75003" lon="5.68336">
        <ele>537.4</ele>
        <time>2022-09-04T13:11:25Z</time>
      </trkpt>
      <trkpt lat="46.74998" lon="5.68336">
        <ele>536.5</ele>
        <time>2022-09-04T13:11:29Z</time>
      </trkpt>
      <trkpt lat="46.74993" lon="5.68338">
        <ele>535.5</ele>
        <time>2022-09-04T13:11:33Z</time>
      </trkpt>
      <trkpt lat="46.74989" lon="5.6834">
        <ele>534.3</ele>
        <time>2022-09-04T13:11:38Z</time>
      </trkpt>
      <trkpt lat="46.74984" lon="5.68342">
        <ele>533.1</ele>
        <time>2022-09-04T13:11:42Z</time>
      </trkpt>
      <trkpt lat="46.7498" lon="5.68343">
        <ele>531.7</ele>
        <time>2022-09-04T13:11:47Z</time>
      </trkpt>
      <trkpt lat="46.74975" lon="5.68346">
        <ele>530.4</ele>
        <time>2022-09-04T13:11:52Z</time>
      </trkpt>
      <trkpt lat="46.74971" lon="5.6835">
        <ele>529.7</ele>
        <time>2022-09-04T13:11:56Z</time>
      </trkpt>
      <trkpt lat="46.74967" lon="5.68355">
        <ele>529.5</ele>
        <time>2022-09-04T13:12:00Z</time>
      </trkpt>
      <trkpt lat="46.74964" lon="5.68361">
        <ele>530.1</ele>
        <time>2022-09-04T13:12:07Z</time>
      </trkpt>
      <trkpt lat="46.74961" lon="5.68366">
        <ele>531.3</ele>
        <time>2022-09-04T13:12:12Z</time>
      </trkpt>
      <trkpt lat="46.74957" lon="5.68371">
        <ele>532.7</ele>
        <time>2022-09-04T13:12:17Z</time>
      </trkpt>
      <trkpt lat="46.74953" lon="5.68377">
        <ele>534.2</ele>
        <time>2022-09-04T13:12:23Z</time>
      </trkpt>
      <trkpt lat="46.74949" lon="5.6838">
        <ele>534.7</ele>
        <time>2022-09-04T13:12:28Z</time>
      </trkpt>
      <trkpt lat="46.74945" lon="5.68386">
        <ele>534.9</ele>
        <time>2022-09-04T13:12:34Z</time>
      </trkpt>
      <trkpt lat="46.74941" lon="5.68391">
        <ele>534.9</ele>
        <time>2022-09-04T13:12:39Z</time>
      </trkpt>
      <trkpt lat="46.74937" lon="5.68395">
        <ele>534.4</ele>
        <time>2022-09-04T13:12:43Z</time>
      </trkpt>
      <trkpt lat="46.74934" lon="5.684">
        <ele>534.2</ele>
        <time>2022-09-04T13:12:47Z</time>
      </trkpt>
      <trkpt lat="46.74932" lon="5.68408">
        <ele>534.9</ele>
        <time>2022-09-04T13:12:52Z</time>
      </trkpt>
      <trkpt lat="46.74931" lon="5.68414">
        <ele>536.4</ele>
        <time>2022-09-04T13:12:57Z</time>
      </trkpt>
      <trkpt lat="46.74931" lon="5.68421">
        <ele>538.4</ele>
        <time>2022-09-04T13:13:03Z</time>
      </trkpt>
      <trkpt lat="46.74931" lon="5.68428">
        <ele>540.3</ele>
        <time>2022-09-04T13:13:09Z</time>
      </trkpt>
      <trkpt lat="46.74928" lon="5.68434">
        <ele>542</ele>
        <time>2022-09-04T13:13:15Z</time>
      </trkpt>
      <trkpt lat="46.74923" lon="5.68438">
        <ele>542.3</ele>
        <time>2022-09-04T13:13:20Z</time>
      </trkpt>
      <trkpt lat="46.74919" lon="5.68442">
        <ele>542.5</ele>
        <time>2022-09-04T13:13:23Z</time>
      </trkpt>
      <trkpt lat="46.74915" lon="5.68445">
        <ele>542.8</ele>
        <time>2022-09-04T13:13:27Z</time>
      </trkpt>
      <trkpt lat="46.7491" lon="5.68449">
        <ele>543</ele>
        <time>2022-09-04T13:13:31Z</time>
      </trkpt>
      <trkpt lat="46.74906" lon="5.68452">
        <ele>543.4</ele>
        <time>2022-09-04T13:13:34Z</time>
      </trkpt>
      <trkpt lat="46.74901" lon="5.68452">
        <ele>544</ele>
        <time>2022-09-04T13:13:38Z</time>
      </trkpt>
      <trkpt lat="46.74896" lon="5.6845">
        <ele>544.7</ele>
        <time>2022-09-04T13:13:42Z</time>
      </trkpt>
      <trkpt lat="46.74892" lon="5.68445">
        <ele>545.2</ele>
        <time>2022-09-04T13:13:47Z</time>
      </trkpt>
      <trkpt lat="46.74888" lon="5.68442">
        <ele>545.2</ele>
        <time>2022-09-04T13:13:52Z</time>
      </trkpt>
      <trkpt lat="46.74882" lon="5.68444">
        <ele>545.7</ele>
        <time>2022-09-04T13:13:57Z</time>
      </trkpt>
      <trkpt lat="46.74878" lon="5.68447">
        <ele>546.5</ele>
        <time>2022-09-04T13:14:01Z</time>
      </trkpt>
      <trkpt lat="46.74873" lon="5.6845">
        <ele>548.2</ele>
        <time>2022-09-04T13:14:05Z</time>
      </trkpt>
      <trkpt lat="46.74868" lon="5.68451">
        <ele>549.9</ele>
        <time>2022-09-04T13:14:10Z</time>
      </trkpt>
      <trkpt lat="46.74863" lon="5.68449">
        <ele>551</ele>
        <time>2022-09-04T13:14:17Z</time>
      </trkpt>
      <trkpt lat="46.74858" lon="5.68449">
        <ele>551.1</ele>
        <time>2022-09-04T13:14:25Z</time>
      </trkpt>
      <trkpt lat="46.74854" lon="5.68448">
        <ele>550.6</ele>
        <time>2022-09-04T13:14:30Z</time>
      </trkpt>
      <trkpt lat="46.74849" lon="5.68448">
        <ele>550.1</ele>
        <time>2022-09-04T13:14:34Z</time>
      </trkpt>
      <trkpt lat="46.74844" lon="5.68448">
        <ele>549.4</ele>
        <time>2022-09-04T13:14:38Z</time>
      </trkpt>
      <trkpt lat="46.74839" lon="5.68448">
        <ele>549.1</ele>
        <time>2022-09-04T13:14:42Z</time>
      </trkpt>
      <trkpt lat="46.74834" lon="5.68448">
        <ele>548.8</ele>
        <time>2022-09-04T13:14:47Z</time>
      </trkpt>
      <trkpt lat="46.74829" lon="5.68448">
        <ele>548.5</ele>
        <time>2022-09-04T13:14:53Z</time>
      </trkpt>
      <trkpt lat="46.74824" lon="5.68449">
        <ele>548.4</ele>
        <time>2022-09-04T13:14:58Z</time>
      </trkpt>
      <trkpt lat="46.74819" lon="5.68451">
        <ele>548.1</ele>
        <time>2022-09-04T13:15:04Z</time>
      </trkpt>
      <trkpt lat="46.74814" lon="5.6845">
        <ele>547.9</ele>
        <time>2022-09-04T13:15:09Z</time>
      </trkpt>
      <trkpt lat="46.74809" lon="5.6845">
        <ele>548.2</ele>
        <time>2022-09-04T13:15:14Z</time>
      </trkpt>
      <trkpt lat="46.74804" lon="5.68449">
        <ele>548.6</ele>
        <time>2022-09-04T13:15:18Z</time>
      </trkpt>
      <trkpt lat="46.74799" lon="5.68449">
        <ele>548.8</ele>
        <time>2022-09-04T13:15:22Z</time>
      </trkpt>
      <trkpt lat="46.74793" lon="5.68449">
        <ele>548.8</ele>
        <time>2022-09-04T13:15:27Z</time>
      </trkpt>
      <trkpt lat="46.74789" lon="5.6845">
        <ele>549</ele>
        <time>2022-09-04T13:15:32Z</time>
      </trkpt>
      <trkpt lat="46.74784" lon="5.68451">
        <ele>549.7</ele>
        <time>2022-09-04T13:15:38Z</time>
      </trkpt>
      <trkpt lat="46.74779" lon="5.6845">
        <ele>550.2</ele>
        <time>2022-09-04T13:15:44Z</time>
      </trkpt>
      <trkpt lat="46.74774" lon="5.68449">
        <ele>550.1</ele>
        <time>2022-09-04T13:15:49Z</time>
      </trkpt>
      <trkpt lat="46.74769" lon="5.68449">
        <ele>549.9</ele>
        <time>2022-09-04T13:15:54Z</time>
      </trkpt>
      <trkpt lat="46.74764" lon="5.68447">
        <ele>549.6</ele>
        <time>2022-09-04T13:15:59Z</time>
      </trkpt>
      <trkpt lat="46.74759" lon="5.68445">
        <ele>549.2</ele>
        <time>2022-09-04T13:16:05Z</time>
      </trkpt>
      <trkpt lat="46.74754" lon="5.68443">
        <ele>549.8</ele>
        <time>2022-09-04T13:16:12Z</time>
      </trkpt>
      <trkpt lat="46.74749" lon="5.68441">
        <ele>550.4</ele>
        <time>2022-09-04T13:16:17Z</time>
      </trkpt>
      <trkpt lat="46.74744" lon="5.68441">
        <ele>550.8</ele>
        <time>2022-09-04T13:16:22Z</time>
      </trkpt>
      <trkpt lat="46.74739" lon="5.68439">
        <ele>550.3</ele>
        <time>2022-09-04T13:16:28Z</time>
      </trkpt>
      <trkpt lat="46.74734" lon="5.68436">
        <ele>549.4</ele>
        <time>2022-09-04T13:16:33Z</time>
      </trkpt>
      <trkpt lat="46.74729" lon="5.68434">
        <ele>548.8</ele>
        <time>2022-09-04T13:16:37Z</time>
      </trkpt>
      <trkpt lat="46.74725" lon="5.6843">
        <ele>548.3</ele>
        <time>2022-09-04T13:16:41Z</time>
      </trkpt>
      <trkpt lat="46.74721" lon="5.68427">
        <ele>547.9</ele>
        <time>2022-09-04T13:16:46Z</time>
      </trkpt>
      <trkpt lat="46.74716" lon="5.68423">
        <ele>547.6</ele>
        <time>2022-09-04T13:16:51Z</time>
      </trkpt>
      <trkpt lat="46.74713" lon="5.68418">
        <ele>548.4</ele>
        <time>2022-09-04T13:17:03Z</time>
      </trkpt>
      <trkpt lat="46.74708" lon="5.68418">
        <ele>548.8</ele>
        <time>2022-09-04T13:17:08Z</time>
      </trkpt>
      <trkpt lat="46.74704" lon="5.68421">
        <ele>549</ele>
        <time>2022-09-04T13:17:17Z</time>
      </trkpt>
      <trkpt lat="46.74709" lon="5.68421">
        <ele>546.4</ele>
        <time>2022-09-04T13:18:28Z</time>
      </trkpt>
      <trkpt lat="46.74703" lon="5.6842">
        <ele>544.4</ele>
        <time>2022-09-04T13:19:14Z</time>
      </trkpt>
      <trkpt lat="46.74699" lon="5.68417">
        <ele>545</ele>
        <time>2022-09-04T13:19:19Z</time>
      </trkpt>
      <trkpt lat="46.74694" lon="5.68413">
        <ele>545</ele>
        <time>2022-09-04T13:19:25Z</time>
      </trkpt>
      <trkpt lat="46.7469" lon="5.68412">
        <ele>544.5</ele>
        <time>2022-09-04T13:19:31Z</time>
      </trkpt>
      <trkpt lat="46.74685" lon="5.68409">
        <ele>543.4</ele>
        <time>2022-09-04T13:19:37Z</time>
      </trkpt>
      <trkpt lat="46.74681" lon="5.68406">
        <ele>541.7</ele>
        <time>2022-09-04T13:19:43Z</time>
      </trkpt>
      <trkpt lat="46.74676" lon="5.68404">
        <ele>539.8</ele>
        <time>2022-09-04T13:19:50Z</time>
      </trkpt>
      <trkpt lat="46.74671" lon="5.68404">
        <ele>538.7</ele>
        <time>2022-09-04T13:19:56Z</time>
      </trkpt>
      <trkpt lat="46.74666" lon="5.68402">
        <ele>538.6</ele>
        <time>2022-09-04T13:20:02Z</time>
      </trkpt>
      <trkpt lat="46.74662" lon="5.68401">
        <ele>538.9</ele>
        <time>2022-09-04T13:20:08Z</time>
      </trkpt>
      <trkpt lat="46.74657" lon="5.68399">
        <ele>538.9</ele>
        <time>2022-09-04T13:20:15Z</time>
      </trkpt>
      <trkpt lat="46.74653" lon="5.68395">
        <ele>538.9</ele>
        <time>2022-09-04T13:20:21Z</time>
      </trkpt>
      <trkpt lat="46.74648" lon="5.68395">
        <ele>538.8</ele>
        <time>2022-09-04T13:20:58Z</time>
      </trkpt>
      <trkpt lat="46.74644" lon="5.68398">
        <ele>538.7</ele>
        <time>2022-09-04T13:21:04Z</time>
      </trkpt>
      <trkpt lat="46.74639" lon="5.68396">
        <ele>538.6</ele>
        <time>2022-09-04T13:21:09Z</time>
      </trkpt>
      <trkpt lat="46.74634" lon="5.68395">
        <ele>538</ele>
        <time>2022-09-04T13:21:14Z</time>
      </trkpt>
      <trkpt lat="46.74629" lon="5.68394">
        <ele>537.3</ele>
        <time>2022-09-04T13:21:19Z</time>
      </trkpt>
      <trkpt lat="46.74624" lon="5.68393">
        <ele>536.8</ele>
        <time>2022-09-04T13:21:24Z</time>
      </trkpt>
      <trkpt lat="46.7462" lon="5.68389">
        <ele>536.4</ele>
        <time>2022-09-04T13:21:29Z</time>
      </trkpt>
      <trkpt lat="46.74615" lon="5.68387">
        <ele>536.4</ele>
        <time>2022-09-04T13:21:35Z</time>
      </trkpt>
      <trkpt lat="46.7461" lon="5.68385">
        <ele>536.9</ele>
        <time>2022-09-04T13:21:39Z</time>
      </trkpt>
      <trkpt lat="46.74606" lon="5.68383">
        <ele>537.2</ele>
        <time>2022-09-04T13:21:43Z</time>
      </trkpt>
      <trkpt lat="46.74602" lon="5.68378">
        <ele>537</ele>
        <time>2022-09-04T13:21:48Z</time>
      </trkpt>
      <trkpt lat="46.74597" lon="5.68373">
        <ele>536.7</ele>
        <time>2022-09-04T13:21:53Z</time>
      </trkpt>
      <trkpt lat="46.74594" lon="5.68368">
        <ele>536.3</ele>
        <time>2022-09-04T13:21:57Z</time>
      </trkpt>
      <trkpt lat="46.7459" lon="5.68363">
        <ele>535.9</ele>
        <time>2022-09-04T13:22:02Z</time>
      </trkpt>
      <trkpt lat="46.74586" lon="5.68358">
        <ele>535.3</ele>
        <time>2022-09-04T13:22:07Z</time>
      </trkpt>
      <trkpt lat="46.74582" lon="5.68352">
        <ele>534.1</ele>
        <time>2022-09-04T13:22:12Z</time>
      </trkpt>
      <trkpt lat="46.74578" lon="5.68348">
        <ele>533.5</ele>
        <time>2022-09-04T13:22:17Z</time>
      </trkpt>
      <trkpt lat="46.74575" lon="5.68343">
        <ele>533</ele>
        <time>2022-09-04T13:22:21Z</time>
      </trkpt>
      <trkpt lat="46.74572" lon="5.68338">
        <ele>532.6</ele>
        <time>2022-09-04T13:22:26Z</time>
      </trkpt>
      <trkpt lat="46.74568" lon="5.68333">
        <ele>532.3</ele>
        <time>2022-09-04T13:22:32Z</time>
      </trkpt>
      <trkpt lat="46.74565" lon="5.68327">
        <ele>532.3</ele>
        <time>2022-09-04T13:22:37Z</time>
      </trkpt>
      <trkpt lat="46.74562" lon="5.6832">
        <ele>532.3</ele>
        <time>2022-09-04T13:22:42Z</time>
      </trkpt>
      <trkpt lat="46.7456" lon="5.68314">
        <ele>532.4</ele>
        <time>2022-09-04T13:22:46Z</time>
      </trkpt>
      <trkpt lat="46.74557" lon="5.68309">
        <ele>532.2</ele>
        <time>2022-09-04T13:22:50Z</time>
      </trkpt>
      <trkpt lat="46.74555" lon="5.68302">
        <ele>531.8</ele>
        <time>2022-09-04T13:22:56Z</time>
      </trkpt>
      <trkpt lat="46.74553" lon="5.68295">
        <ele>531</ele>
        <time>2022-09-04T13:23:01Z</time>
      </trkpt>
      <trkpt lat="46.74551" lon="5.68288">
        <ele>530.5</ele>
        <time>2022-09-04T13:23:06Z</time>
      </trkpt>
      <trkpt lat="46.74549" lon="5.68281">
        <ele>530.7</ele>
        <time>2022-09-04T13:23:12Z</time>
      </trkpt>
      <trkpt lat="46.74547" lon="5.68274">
        <ele>530.6</ele>
        <time>2022-09-04T13:23:18Z</time>
      </trkpt>
      <trkpt lat="46.74546" lon="5.68267">
        <ele>530.8</ele>
        <time>2022-09-04T13:23:23Z</time>
      </trkpt>
      <trkpt lat="46.74545" lon="5.68261">
        <ele>530.6</ele>
        <time>2022-09-04T13:23:27Z</time>
      </trkpt>
      <trkpt lat="46.74543" lon="5.68253">
        <ele>531.1</ele>
        <time>2022-09-04T13:23:32Z</time>
      </trkpt>
      <trkpt lat="46.74542" lon="5.68246">
        <ele>531.4</ele>
        <time>2022-09-04T13:23:36Z</time>
      </trkpt>
      <trkpt lat="46.74541" lon="5.68239">
        <ele>532.1</ele>
        <time>2022-09-04T13:23:41Z</time>
      </trkpt>
      <trkpt lat="46.7454" lon="5.68231">
        <ele>532.5</ele>
        <time>2022-09-04T13:23:46Z</time>
      </trkpt>
      <trkpt lat="46.74538" lon="5.68225">
        <ele>532.7</ele>
        <time>2022-09-04T13:23:51Z</time>
      </trkpt>
      <trkpt lat="46.74538" lon="5.68218">
        <ele>532.5</ele>
        <time>2022-09-04T13:23:55Z</time>
      </trkpt>
      <trkpt lat="46.74538" lon="5.68211">
        <ele>532.4</ele>
        <time>2022-09-04T13:24:00Z</time>
      </trkpt>
      <trkpt lat="46.74536" lon="5.68204">
        <ele>532.2</ele>
        <time>2022-09-04T13:24:05Z</time>
      </trkpt>
      <trkpt lat="46.74534" lon="5.68197">
        <ele>532</ele>
        <time>2022-09-04T13:24:10Z</time>
      </trkpt>
      <trkpt lat="46.74533" lon="5.68189">
        <ele>532</ele>
        <time>2022-09-04T13:24:18Z</time>
      </trkpt>
      <trkpt lat="46.7453" lon="5.68184">
        <ele>533.1</ele>
        <time>2022-09-04T13:24:30Z</time>
      </trkpt>
      <trkpt lat="46.74529" lon="5.68177">
        <ele>531.2</ele>
        <time>2022-09-04T13:24:47Z</time>
      </trkpt>
      <trkpt lat="46.74526" lon="5.68172">
        <ele>530.3</ele>
        <time>2022-09-04T13:24:52Z</time>
      </trkpt>
      <trkpt lat="46.74524" lon="5.68165">
        <ele>529.4</ele>
        <time>2022-09-04T13:24:58Z</time>
      </trkpt>
      <trkpt lat="46.74521" lon="5.68159">
        <ele>528.6</ele>
        <time>2022-09-04T13:25:03Z</time>
      </trkpt>
      <trkpt lat="46.74519" lon="5.68152">
        <ele>528</ele>
        <time>2022-09-04T13:25:07Z</time>
      </trkpt>
      <trkpt lat="46.74517" lon="5.68145">
        <ele>527.9</ele>
        <time>2022-09-04T13:25:12Z</time>
      </trkpt>
      <trkpt lat="46.74517" lon="5.68139">
        <ele>527.3</ele>
        <time>2022-09-04T13:25:19Z</time>
      </trkpt>
      <trkpt lat="46.74519" lon="5.68133">
        <ele>525.9</ele>
        <time>2022-09-04T13:25:24Z</time>
      </trkpt>
      <trkpt lat="46.74521" lon="5.68127">
        <ele>524.6</ele>
        <time>2022-09-04T13:25:29Z</time>
      </trkpt>
      <trkpt lat="46.74525" lon="5.68121">
        <ele>524</ele>
        <time>2022-09-04T13:25:35Z</time>
      </trkpt>
      <trkpt lat="46.74529" lon="5.68118">
        <ele>523.9</ele>
        <time>2022-09-04T13:25:40Z</time>
      </trkpt>
      <trkpt lat="46.74533" lon="5.68113">
        <ele>524.1</ele>
        <time>2022-09-04T13:25:45Z</time>
      </trkpt>
      <trkpt lat="46.74536" lon="5.68106">
        <ele>524.5</ele>
        <time>2022-09-04T13:25:50Z</time>
      </trkpt>
      <trkpt lat="46.74539" lon="5.681">
        <ele>524.7</ele>
        <time>2022-09-04T13:25:55Z</time>
      </trkpt>
      <trkpt lat="46.74542" lon="5.68095">
        <ele>524.9</ele>
        <time>2022-09-04T13:26:07Z</time>
      </trkpt>
      <trkpt lat="46.74546" lon="5.6809">
        <ele>530</ele>
        <time>2022-09-04T13:26:47Z</time>
      </trkpt>
      <trkpt lat="46.74542" lon="5.68094">
        <ele>529.6</ele>
        <time>2022-09-04T13:27:38Z</time>
      </trkpt>
      <trkpt lat="46.74546" lon="5.68091">
        <ele>529.2</ele>
        <time>2022-09-04T13:28:32Z</time>
      </trkpt>
      <trkpt lat="46.74542" lon="5.68095">
        <ele>526.1</ele>
        <time>2022-09-04T13:29:22Z</time>
      </trkpt>
      <trkpt lat="46.74538" lon="5.68097">
        <ele>523</ele>
        <time>2022-09-04T13:29:48Z</time>
      </trkpt>
      <trkpt lat="46.74534" lon="5.68093">
        <ele>521.9</ele>
        <time>2022-09-04T13:29:57Z</time>
      </trkpt>
      <trkpt lat="46.74531" lon="5.68086">
        <ele>521.9</ele>
        <time>2022-09-04T13:30:03Z</time>
      </trkpt>
      <trkpt lat="46.74528" lon="5.6808">
        <ele>521.3</ele>
        <time>2022-09-04T13:30:08Z</time>
      </trkpt>
      <trkpt lat="46.74527" lon="5.68073">
        <ele>520.8</ele>
        <time>2022-09-04T13:30:14Z</time>
      </trkpt>
      <trkpt lat="46.74524" lon="5.68067">
        <ele>520.3</ele>
        <time>2022-09-04T13:30:20Z</time>
      </trkpt>
      <trkpt lat="46.7452" lon="5.68063">
        <ele>519.7</ele>
        <time>2022-09-04T13:30:25Z</time>
      </trkpt>
      <trkpt lat="46.74516" lon="5.68059">
        <ele>519.2</ele>
        <time>2022-09-04T13:30:31Z</time>
      </trkpt>
      <trkpt lat="46.74513" lon="5.68053">
        <ele>519.2</ele>
        <time>2022-09-04T13:30:35Z</time>
      </trkpt>
      <trkpt lat="46.74512" lon="5.68046">
        <ele>519.3</ele>
        <time>2022-09-04T13:30:41Z</time>
      </trkpt>
      <trkpt lat="46.74511" lon="5.68039">
        <ele>519.4</ele>
        <time>2022-09-04T13:30:48Z</time>
      </trkpt>
      <trkpt lat="46.7451" lon="5.68031">
        <ele>519.4</ele>
        <time>2022-09-04T13:30:54Z</time>
      </trkpt>
      <trkpt lat="46.7451" lon="5.68025">
        <ele>518.6</ele>
        <time>2022-09-04T13:30:59Z</time>
      </trkpt>
      <trkpt lat="46.74509" lon="5.68018">
        <ele>517.6</ele>
        <time>2022-09-04T13:31:04Z</time>
      </trkpt>
      <trkpt lat="46.74509" lon="5.6801">
        <ele>517.2</ele>
        <time>2022-09-04T13:31:09Z</time>
      </trkpt>
      <trkpt lat="46.74509" lon="5.68002">
        <ele>517.4</ele>
        <time>2022-09-04T13:31:13Z</time>
      </trkpt>
      <trkpt lat="46.74509" lon="5.67995">
        <ele>518.3</ele>
        <time>2022-09-04T13:31:18Z</time>
      </trkpt>
      <trkpt lat="46.7451" lon="5.67988">
        <ele>519.5</ele>
        <time>2022-09-04T13:31:23Z</time>
      </trkpt>
      <trkpt lat="46.74511" lon="5.67981">
        <ele>520.5</ele>
        <time>2022-09-04T13:31:29Z</time>
      </trkpt>
      <trkpt lat="46.74511" lon="5.67974">
        <ele>520.9</ele>
        <time>2022-09-04T13:31:34Z</time>
      </trkpt>
      <trkpt lat="46.74511" lon="5.67967">
        <ele>521.3</ele>
        <time>2022-09-04T13:31:38Z</time>
      </trkpt>
      <trkpt lat="46.7451" lon="5.6796">
        <ele>522.1</ele>
        <time>2022-09-04T13:31:43Z</time>
      </trkpt>
      <trkpt lat="46.74511" lon="5.67953">
        <ele>523.2</ele>
        <time>2022-09-04T13:31:49Z</time>
      </trkpt>
      <trkpt lat="46.74509" lon="5.67946">
        <ele>523.6</ele>
        <time>2022-09-04T13:31:55Z</time>
      </trkpt>
      <trkpt lat="46.74507" lon="5.6794">
        <ele>523.7</ele>
        <time>2022-09-04T13:32:00Z</time>
      </trkpt>
      <trkpt lat="46.74504" lon="5.67934">
        <ele>523.6</ele>
        <time>2022-09-04T13:32:05Z</time>
      </trkpt>
      <trkpt lat="46.74501" lon="5.67928">
        <ele>523.7</ele>
        <time>2022-09-04T13:32:11Z</time>
      </trkpt>
      <trkpt lat="46.74499" lon="5.67922">
        <ele>523.3</ele>
        <time>2022-09-04T13:32:18Z</time>
      </trkpt>
      <trkpt lat="46.74498" lon="5.67916">
        <ele>523.1</ele>
        <time>2022-09-04T13:32:23Z</time>
      </trkpt>
      <trkpt lat="46.74497" lon="5.67909">
        <ele>522.7</ele>
        <time>2022-09-04T13:32:29Z</time>
      </trkpt>
      <trkpt lat="46.74493" lon="5.67906">
        <ele>522.1</ele>
        <time>2022-09-04T13:32:41Z</time>
      </trkpt>
      <trkpt lat="46.74489" lon="5.67904">
        <ele>524</ele>
        <time>2022-09-04T13:32:59Z</time>
      </trkpt>
      <trkpt lat="46.74489" lon="5.67911">
        <ele>527.5</ele>
        <time>2022-09-04T13:33:10Z</time>
      </trkpt>
      <trkpt lat="46.74494" lon="5.67912">
        <ele>528.1</ele>
        <time>2022-09-04T13:33:15Z</time>
      </trkpt>
      <trkpt lat="46.74499" lon="5.6791">
        <ele>528.6</ele>
        <time>2022-09-04T13:33:19Z</time>
      </trkpt>
      <trkpt lat="46.74496" lon="5.67903">
        <ele>529.6</ele>
        <time>2022-09-04T13:33:46Z</time>
      </trkpt>
      <trkpt lat="46.74493" lon="5.67896">
        <ele>528.9</ele>
        <time>2022-09-04T13:33:52Z</time>
      </trkpt>
      <trkpt lat="46.74491" lon="5.6789">
        <ele>527.2</ele>
        <time>2022-09-04T13:33:59Z</time>
      </trkpt>
      <trkpt lat="46.74491" lon="5.67883">
        <ele>525.9</ele>
        <time>2022-09-04T13:34:06Z</time>
      </trkpt>
      <trkpt lat="46.74493" lon="5.67877">
        <ele>524.4</ele>
        <time>2022-09-04T13:34:12Z</time>
      </trkpt>
      <trkpt lat="46.74494" lon="5.6787">
        <ele>523.2</ele>
        <time>2022-09-04T13:34:18Z</time>
      </trkpt>
      <trkpt lat="46.74493" lon="5.67863">
        <ele>522.2</ele>
        <time>2022-09-04T13:34:24Z</time>
      </trkpt>
      <trkpt lat="46.74493" lon="5.67856">
        <ele>521.5</ele>
        <time>2022-09-04T13:34:31Z</time>
      </trkpt>
      <trkpt lat="46.74492" lon="5.67849">
        <ele>521.5</ele>
        <time>2022-09-04T13:34:38Z</time>
      </trkpt>
      <trkpt lat="46.7449" lon="5.67842">
        <ele>521.7</ele>
        <time>2022-09-04T13:34:44Z</time>
      </trkpt>
      <trkpt lat="46.74488" lon="5.67835">
        <ele>521.5</ele>
        <time>2022-09-04T13:34:50Z</time>
      </trkpt>
      <trkpt lat="46.74489" lon="5.67828">
        <ele>521</ele>
        <time>2022-09-04T13:34:55Z</time>
      </trkpt>
      <trkpt lat="46.74488" lon="5.6782">
        <ele>520.7</ele>
        <time>2022-09-04T13:34:59Z</time>
      </trkpt>
      <trkpt lat="46.74486" lon="5.67813">
        <ele>519.9</ele>
        <time>2022-09-04T13:35:04Z</time>
      </trkpt>
      <trkpt lat="46.74482" lon="5.67807">
        <ele>519</ele>
        <time>2022-09-04T13:35:09Z</time>
      </trkpt>
      <trkpt lat="46.74478" lon="5.67803">
        <ele>518.5</ele>
        <time>2022-09-04T13:35:13Z</time>
      </trkpt>
      <trkpt lat="46.74475" lon="5.67797">
        <ele>518</ele>
        <time>2022-09-04T13:35:19Z</time>
      </trkpt>
      <trkpt lat="46.74472" lon="5.67791">
        <ele>517.8</ele>
        <time>2022-09-04T13:35:24Z</time>
      </trkpt>
      <trkpt lat="46.74469" lon="5.67785">
        <ele>517.7</ele>
        <time>2022-09-04T13:35:29Z</time>
      </trkpt>
      <trkpt lat="46.74465" lon="5.67781">
        <ele>517.8</ele>
        <time>2022-09-04T13:35:34Z</time>
      </trkpt>
      <trkpt lat="46.74462" lon="5.67776">
        <ele>518</ele>
        <time>2022-09-04T13:35:39Z</time>
      </trkpt>
      <trkpt lat="46.7446" lon="5.6777">
        <ele>518.7</ele>
        <time>2022-09-04T13:35:45Z</time>
      </trkpt>
      <trkpt lat="46.7446" lon="5.67763">
        <ele>520.2</ele>
        <time>2022-09-04T13:35:52Z</time>
      </trkpt>
      <trkpt lat="46.7446" lon="5.67755">
        <ele>521.6</ele>
        <time>2022-09-04T13:35:59Z</time>
      </trkpt>
      <trkpt lat="46.74458" lon="5.67749">
        <ele>522.3</ele>
        <time>2022-09-04T13:36:05Z</time>
      </trkpt>
      <trkpt lat="46.74457" lon="5.67742">
        <ele>522.7</ele>
        <time>2022-09-04T13:36:10Z</time>
      </trkpt>
      <trkpt lat="46.74457" lon="5.67735">
        <ele>523</ele>
        <time>2022-09-04T13:36:16Z</time>
      </trkpt>
      <trkpt lat="46.74457" lon="5.67728">
        <ele>523.5</ele>
        <time>2022-09-04T13:36:22Z</time>
      </trkpt>
      <trkpt lat="46.74455" lon="5.67721">
        <ele>523.9</ele>
        <time>2022-09-04T13:36:26Z</time>
      </trkpt>
      <trkpt lat="46.74455" lon="5.67714">
        <ele>523.9</ele>
        <time>2022-09-04T13:36:31Z</time>
      </trkpt>
      <trkpt lat="46.74455" lon="5.67707">
        <ele>523.4</ele>
        <time>2022-09-04T13:36:36Z</time>
      </trkpt>
      <trkpt lat="46.74455" lon="5.67699">
        <ele>522.8</ele>
        <time>2022-09-04T13:36:41Z</time>
      </trkpt>
      <trkpt lat="46.74455" lon="5.67692">
        <ele>522.1</ele>
        <time>2022-09-04T13:36:46Z</time>
      </trkpt>
      <trkpt lat="46.74456" lon="5.67684">
        <ele>521.2</ele>
        <time>2022-09-04T13:36:51Z</time>
      </trkpt>
      <trkpt lat="46.74456" lon="5.67678">
        <ele>520.3</ele>
        <time>2022-09-04T13:36:55Z</time>
      </trkpt>
      <trkpt lat="46.74454" lon="5.67671">
        <ele>519.6</ele>
        <time>2022-09-04T13:36:59Z</time>
      </trkpt>
      <trkpt lat="46.74454" lon="5.67663">
        <ele>519.1</ele>
        <time>2022-09-04T13:37:04Z</time>
      </trkpt>
      <trkpt lat="46.74455" lon="5.67656">
        <ele>518.6</ele>
        <time>2022-09-04T13:37:10Z</time>
      </trkpt>
      <trkpt lat="46.74456" lon="5.6765">
        <ele>518.4</ele>
        <time>2022-09-04T13:37:15Z</time>
      </trkpt>
      <trkpt lat="46.74456" lon="5.67642">
        <ele>518.1</ele>
        <time>2022-09-04T13:37:21Z</time>
      </trkpt>
      <trkpt lat="46.74457" lon="5.67634">
        <ele>517.9</ele>
        <time>2022-09-04T13:37:27Z</time>
      </trkpt>
      <trkpt lat="46.74456" lon="5.67627">
        <ele>517.3</ele>
        <time>2022-09-04T13:37:33Z</time>
      </trkpt>
      <trkpt lat="46.74451" lon="5.67623">
        <ele>516.7</ele>
        <time>2022-09-04T13:37:38Z</time>
      </trkpt>
      <trkpt lat="46.74446" lon="5.67622">
        <ele>516.2</ele>
        <time>2022-09-04T13:37:42Z</time>
      </trkpt>
      <trkpt lat="46.74442" lon="5.6762">
        <ele>515.8</ele>
        <time>2022-09-04T13:37:46Z</time>
      </trkpt>
      <trkpt lat="46.74438" lon="5.67617">
        <ele>515.5</ele>
        <time>2022-09-04T13:37:51Z</time>
      </trkpt>
      <trkpt lat="46.74433" lon="5.67615">
        <ele>515.5</ele>
        <time>2022-09-04T13:37:58Z</time>
      </trkpt>
      <trkpt lat="46.74428" lon="5.67612">
        <ele>515.4</ele>
        <time>2022-09-04T13:38:04Z</time>
      </trkpt>
      <trkpt lat="46.74423" lon="5.67609">
        <ele>515.2</ele>
        <time>2022-09-04T13:38:09Z</time>
      </trkpt>
      <trkpt lat="46.74419" lon="5.67605">
        <ele>514.3</ele>
        <time>2022-09-04T13:38:18Z</time>
      </trkpt>
      <trkpt lat="46.74415" lon="5.67601">
        <ele>513.7</ele>
        <time>2022-09-04T13:38:23Z</time>
      </trkpt>
      <trkpt lat="46.74411" lon="5.67596">
        <ele>513.2</ele>
        <time>2022-09-04T13:38:28Z</time>
      </trkpt>
      <trkpt lat="46.74407" lon="5.67591">
        <ele>512.4</ele>
        <time>2022-09-04T13:38:33Z</time>
      </trkpt>
      <trkpt lat="46.74404" lon="5.67585">
        <ele>511.7</ele>
        <time>2022-09-04T13:38:38Z</time>
      </trkpt>
      <trkpt lat="46.74399" lon="5.67581">
        <ele>511.7</ele>
        <time>2022-09-04T13:38:42Z</time>
      </trkpt>
      <trkpt lat="46.74395" lon="5.67576">
        <ele>511.9</ele>
        <time>2022-09-04T13:38:47Z</time>
      </trkpt>
      <trkpt lat="46.74391" lon="5.67571">
        <ele>512.8</ele>
        <time>2022-09-04T13:38:52Z</time>
      </trkpt>
      <trkpt lat="46.74387" lon="5.67566">
        <ele>513.5</ele>
        <time>2022-09-04T13:38:57Z</time>
      </trkpt>
      <trkpt lat="46.74385" lon="5.6756">
        <ele>514.2</ele>
        <time>2022-09-04T13:39:03Z</time>
      </trkpt>
      <trkpt lat="46.74383" lon="5.67554">
        <ele>514.4</ele>
        <time>2022-09-04T13:39:08Z</time>
      </trkpt>
      <trkpt lat="46.74382" lon="5.67548">
        <ele>514.8</ele>
        <time>2022-09-04T13:39:13Z</time>
      </trkpt>
      <trkpt lat="46.74383" lon="5.67539">
        <ele>516</ele>
        <time>2022-09-04T13:39:19Z</time>
      </trkpt>
      <trkpt lat="46.74384" lon="5.67532">
        <ele>517</ele>
        <time>2022-09-04T13:39:23Z</time>
      </trkpt>
      <trkpt lat="46.74386" lon="5.67525">
        <ele>517.7</ele>
        <time>2022-09-04T13:39:27Z</time>
      </trkpt>
      <trkpt lat="46.74386" lon="5.67518">
        <ele>518.1</ele>
        <time>2022-09-04T13:39:31Z</time>
      </trkpt>
      <trkpt lat="46.74385" lon="5.67511">
        <ele>518.7</ele>
        <time>2022-09-04T13:39:35Z</time>
      </trkpt>
      <trkpt lat="46.74386" lon="5.67503">
        <ele>518.9</ele>
        <time>2022-09-04T13:39:40Z</time>
      </trkpt>
      <trkpt lat="46.74388" lon="5.67497">
        <ele>518.9</ele>
        <time>2022-09-04T13:39:44Z</time>
      </trkpt>
      <trkpt lat="46.74391" lon="5.67491">
        <ele>519.1</ele>
        <time>2022-09-04T13:39:50Z</time>
      </trkpt>
      <trkpt lat="46.74391" lon="5.67498">
        <ele>519.7</ele>
        <time>2022-09-04T13:40:02Z</time>
      </trkpt>
      <trkpt lat="46.74389" lon="5.67492">
        <ele>522.2</ele>
        <time>2022-09-04T13:40:38Z</time>
      </trkpt>
      <trkpt lat="46.74392" lon="5.67486">
        <ele>522.6</ele>
        <time>2022-09-04T13:40:43Z</time>
      </trkpt>
      <trkpt lat="46.74396" lon="5.67481">
        <ele>522.5</ele>
        <time>2022-09-04T13:40:47Z</time>
      </trkpt>
      <trkpt lat="46.74401" lon="5.67477">
        <ele>522</ele>
        <time>2022-09-04T13:40:52Z</time>
      </trkpt>
      <trkpt lat="46.74403" lon="5.67471">
        <ele>521.4</ele>
        <time>2022-09-04T13:40:58Z</time>
      </trkpt>
      <trkpt lat="46.74406" lon="5.67464">
        <ele>521.6</ele>
        <time>2022-09-04T13:41:04Z</time>
      </trkpt>
      <trkpt lat="46.74408" lon="5.67458">
        <ele>522.7</ele>
        <time>2022-09-04T13:41:09Z</time>
      </trkpt>
      <trkpt lat="46.74409" lon="5.67451">
        <ele>523.5</ele>
        <time>2022-09-04T13:41:14Z</time>
      </trkpt>
      <trkpt lat="46.7441" lon="5.67444">
        <ele>524.5</ele>
        <time>2022-09-04T13:41:20Z</time>
      </trkpt>
      <trkpt lat="46.7441" lon="5.67437">
        <ele>524.8</ele>
        <time>2022-09-04T13:41:25Z</time>
      </trkpt>
      <trkpt lat="46.7441" lon="5.6743">
        <ele>524.8</ele>
        <time>2022-09-04T13:41:31Z</time>
      </trkpt>
      <trkpt lat="46.7441" lon="5.67423">
        <ele>524.2</ele>
        <time>2022-09-04T13:41:36Z</time>
      </trkpt>
      <trkpt lat="46.74412" lon="5.67416">
        <ele>523.2</ele>
        <time>2022-09-04T13:41:41Z</time>
      </trkpt>
      <trkpt lat="46.74413" lon="5.67409">
        <ele>521.3</ele>
        <time>2022-09-04T13:41:46Z</time>
      </trkpt>
      <trkpt lat="46.74415" lon="5.67403">
        <ele>519.1</ele>
        <time>2022-09-04T13:41:51Z</time>
      </trkpt>
      <trkpt lat="46.74415" lon="5.67396">
        <ele>517.7</ele>
        <time>2022-09-04T13:41:55Z</time>
      </trkpt>
      <trkpt lat="46.74415" lon="5.6739">
        <ele>517.1</ele>
        <time>2022-09-04T13:41:58Z</time>
      </trkpt>
      <trkpt lat="46.74415" lon="5.67383">
        <ele>512.8</ele>
        <time>2022-09-04T13:42:11Z</time>
      </trkpt>
      <trkpt lat="46.74414" lon="5.67377">
        <ele>512.6</ele>
        <time>2022-09-04T13:42:17Z</time>
      </trkpt>
      <trkpt lat="46.74412" lon="5.6737">
        <ele>513</ele>
        <time>2022-09-04T13:42:23Z</time>
      </trkpt>
      <trkpt lat="46.7441" lon="5.67363">
        <ele>513.4</ele>
        <time>2022-09-04T13:42:28Z</time>
      </trkpt>
      <trkpt lat="46.74407" lon="5.67357">
        <ele>513.6</ele>
        <time>2022-09-04T13:42:32Z</time>
      </trkpt>
      <trkpt lat="46.74404" lon="5.67352">
        <ele>514.1</ele>
        <time>2022-09-04T13:42:37Z</time>
      </trkpt>
      <trkpt lat="46.74401" lon="5.67347">
        <ele>515.4</ele>
        <time>2022-09-04T13:42:42Z</time>
      </trkpt>
      <trkpt lat="46.74398" lon="5.67341">
        <ele>515.6</ele>
        <time>2022-09-04T13:42:50Z</time>
      </trkpt>
      <trkpt lat="46.74392" lon="5.67341">
        <ele>514.7</ele>
        <time>2022-09-04T13:42:55Z</time>
      </trkpt>
      <trkpt lat="46.74387" lon="5.67341">
        <ele>513.3</ele>
        <time>2022-09-04T13:43:00Z</time>
      </trkpt>
      <trkpt lat="46.74382" lon="5.6734">
        <ele>511.6</ele>
        <time>2022-09-04T13:43:07Z</time>
      </trkpt>
      <trkpt lat="46.74377" lon="5.67336">
        <ele>509.9</ele>
        <time>2022-09-04T13:43:13Z</time>
      </trkpt>
      <trkpt lat="46.74373" lon="5.67334">
        <ele>508.9</ele>
        <time>2022-09-04T13:43:18Z</time>
      </trkpt>
      <trkpt lat="46.74369" lon="5.67339">
        <ele>508.8</ele>
        <time>2022-09-04T13:43:23Z</time>
      </trkpt>
      <trkpt lat="46.74366" lon="5.67343">
        <ele>509.4</ele>
        <time>2022-09-04T13:43:27Z</time>
      </trkpt>
      <trkpt lat="46.74363" lon="5.67349">
        <ele>510.3</ele>
        <time>2022-09-04T13:43:32Z</time>
      </trkpt>
      <trkpt lat="46.74363" lon="5.67357">
        <ele>510.4</ele>
        <time>2022-09-04T13:43:36Z</time>
      </trkpt>
      <trkpt lat="46.74358" lon="5.67362">
        <ele>510.4</ele>
        <time>2022-09-04T13:43:42Z</time>
      </trkpt>
      <trkpt lat="46.74353" lon="5.67365">
        <ele>510.8</ele>
        <time>2022-09-04T13:43:46Z</time>
      </trkpt>
      <trkpt lat="46.74349" lon="5.67369">
        <ele>511.4</ele>
        <time>2022-09-04T13:43:51Z</time>
      </trkpt>
      <trkpt lat="46.74344" lon="5.67369">
        <ele>514.6</ele>
        <time>2022-09-04T13:44:00Z</time>
      </trkpt>
      <trkpt lat="46.74342" lon="5.67376">
        <ele>516.5</ele>
        <time>2022-09-04T13:44:09Z</time>
      </trkpt>
      <trkpt lat="46.7434" lon="5.67383">
        <ele>517.4</ele>
        <time>2022-09-04T13:44:15Z</time>
      </trkpt>
      <trkpt lat="46.74337" lon="5.67388">
        <ele>517.9</ele>
        <time>2022-09-04T13:44:19Z</time>
      </trkpt>
      <trkpt lat="46.74332" lon="5.67392">
        <ele>517.3</ele>
        <time>2022-09-04T13:44:24Z</time>
      </trkpt>
      <trkpt lat="46.74328" lon="5.67396">
        <ele>516.1</ele>
        <time>2022-09-04T13:44:29Z</time>
      </trkpt>
      <trkpt lat="46.74326" lon="5.67401">
        <ele>515.5</ele>
        <time>2022-09-04T13:44:33Z</time>
      </trkpt>
      <trkpt lat="46.74324" lon="5.67408">
        <ele>514.9</ele>
        <time>2022-09-04T13:44:38Z</time>
      </trkpt>
      <trkpt lat="46.74321" lon="5.67412">
        <ele>514.5</ele>
        <time>2022-09-04T13:44:44Z</time>
      </trkpt>
      <trkpt lat="46.74317" lon="5.67417">
        <ele>514.3</ele>
        <time>2022-09-04T13:44:50Z</time>
      </trkpt>
      <trkpt lat="46.74315" lon="5.67424">
        <ele>514.5</ele>
        <time>2022-09-04T13:44:55Z</time>
      </trkpt>
      <trkpt lat="46.74313" lon="5.67431">
        <ele>515</ele>
        <time>2022-09-04T13:44:59Z</time>
      </trkpt>
      <trkpt lat="46.74311" lon="5.67439">
        <ele>515.5</ele>
        <time>2022-09-04T13:45:03Z</time>
      </trkpt>
      <trkpt lat="46.74309" lon="5.67446">
        <ele>516.1</ele>
        <time>2022-09-04T13:45:07Z</time>
      </trkpt>
      <trkpt lat="46.74307" lon="5.67453">
        <ele>516.9</ele>
        <time>2022-09-04T13:45:12Z</time>
      </trkpt>
      <trkpt lat="46.74303" lon="5.67458">
        <ele>517.3</ele>
        <time>2022-09-04T13:45:16Z</time>
      </trkpt>
      <trkpt lat="46.743" lon="5.67463">
        <ele>517.9</ele>
        <time>2022-09-04T13:45:21Z</time>
      </trkpt>
      <trkpt lat="46.74298" lon="5.6747">
        <ele>518.3</ele>
        <time>2022-09-04T13:45:26Z</time>
      </trkpt>
      <trkpt lat="46.74297" lon="5.67476">
        <ele>518.5</ele>
        <time>2022-09-04T13:45:30Z</time>
      </trkpt>
      <trkpt lat="46.74294" lon="5.67482">
        <ele>518.7</ele>
        <time>2022-09-04T13:45:34Z</time>
      </trkpt>
      <trkpt lat="46.74291" lon="5.67489">
        <ele>518.4</ele>
        <time>2022-09-04T13:45:39Z</time>
      </trkpt>
      <trkpt lat="46.74287" lon="5.67494">
        <ele>518.6</ele>
        <time>2022-09-04T13:45:44Z</time>
      </trkpt>
      <trkpt lat="46.74283" lon="5.67498">
        <ele>519.2</ele>
        <time>2022-09-04T13:45:50Z</time>
      </trkpt>
      <trkpt lat="46.74278" lon="5.67501">
        <ele>519.6</ele>
        <time>2022-09-04T13:45:55Z</time>
      </trkpt>
      <trkpt lat="46.74275" lon="5.67507">
        <ele>519.9</ele>
        <time>2022-09-04T13:46:01Z</time>
      </trkpt>
      <trkpt lat="46.74271" lon="5.67514">
        <ele>520.6</ele>
        <time>2022-09-04T13:46:06Z</time>
      </trkpt>
      <trkpt lat="46.74269" lon="5.6752">
        <ele>521.2</ele>
        <time>2022-09-04T13:46:09Z</time>
      </trkpt>
      <trkpt lat="46.74266" lon="5.67526">
        <ele>522</ele>
        <time>2022-09-04T13:46:12Z</time>
      </trkpt>
      <trkpt lat="46.74263" lon="5.67532">
        <ele>523.3</ele>
        <time>2022-09-04T13:46:16Z</time>
      </trkpt>
      <trkpt lat="46.74258" lon="5.67536">
        <ele>524.5</ele>
        <time>2022-09-04T13:46:22Z</time>
      </trkpt>
      <trkpt lat="46.74254" lon="5.67541">
        <ele>524.7</ele>
        <time>2022-09-04T13:46:27Z</time>
      </trkpt>
      <trkpt lat="46.74249" lon="5.67545">
        <ele>524.4</ele>
        <time>2022-09-04T13:46:31Z</time>
      </trkpt>
      <trkpt lat="46.74245" lon="5.67548">
        <ele>523.5</ele>
        <time>2022-09-04T13:46:37Z</time>
      </trkpt>
      <trkpt lat="46.74241" lon="5.67551">
        <ele>522.7</ele>
        <time>2022-09-04T13:46:42Z</time>
      </trkpt>
      <trkpt lat="46.74236" lon="5.67556">
        <ele>521.5</ele>
        <time>2022-09-04T13:46:47Z</time>
      </trkpt>
      <trkpt lat="46.74231" lon="5.67559">
        <ele>520.2</ele>
        <time>2022-09-04T13:46:51Z</time>
      </trkpt>
      <trkpt lat="46.74227" lon="5.67564">
        <ele>518.5</ele>
        <time>2022-09-04T13:46:56Z</time>
      </trkpt>
      <trkpt lat="46.74223" lon="5.67569">
        <ele>516.8</ele>
        <time>2022-09-04T13:47:02Z</time>
      </trkpt>
      <trkpt lat="46.7422" lon="5.67574">
        <ele>515.9</ele>
        <time>2022-09-04T13:47:07Z</time>
      </trkpt>
      <trkpt lat="46.74215" lon="5.67577">
        <ele>515.3</ele>
        <time>2022-09-04T13:47:12Z</time>
      </trkpt>
      <trkpt lat="46.74212" lon="5.67582">
        <ele>514.8</ele>
        <time>2022-09-04T13:47:17Z</time>
      </trkpt>
      <trkpt lat="46.7421" lon="5.67589">
        <ele>514.6</ele>
        <time>2022-09-04T13:47:22Z</time>
      </trkpt>
      <trkpt lat="46.74207" lon="5.67595">
        <ele>514</ele>
        <time>2022-09-04T13:47:29Z</time>
      </trkpt>
      <trkpt lat="46.74206" lon="5.67602">
        <ele>513.1</ele>
        <time>2022-09-04T13:47:34Z</time>
      </trkpt>
      <trkpt lat="46.74205" lon="5.67609">
        <ele>511.6</ele>
        <time>2022-09-04T13:47:40Z</time>
      </trkpt>
      <trkpt lat="46.74203" lon="5.67616">
        <ele>509.9</ele>
        <time>2022-09-04T13:47:46Z</time>
      </trkpt>
      <trkpt lat="46.74201" lon="5.67623">
        <ele>508.6</ele>
        <time>2022-09-04T13:47:51Z</time>
      </trkpt>
      <trkpt lat="46.74199" lon="5.6763">
        <ele>508</ele>
        <time>2022-09-04T13:47:56Z</time>
      </trkpt>
      <trkpt lat="46.74198" lon="5.67637">
        <ele>508.1</ele>
        <time>2022-09-04T13:48:01Z</time>
      </trkpt>
      <trkpt lat="46.74197" lon="5.67645">
        <ele>508.5</ele>
        <time>2022-09-04T13:48:06Z</time>
      </trkpt>
      <trkpt lat="46.74196" lon="5.67651">
        <ele>509.1</ele>
        <time>2022-09-04T13:48:11Z</time>
      </trkpt>
      <trkpt lat="46.74195" lon="5.67658">
        <ele>509.7</ele>
        <time>2022-09-04T13:48:15Z</time>
      </trkpt>
      <trkpt lat="46.74195" lon="5.67665">
        <ele>510.6</ele>
        <time>2022-09-04T13:48:21Z</time>
      </trkpt>
      <trkpt lat="46.74195" lon="5.67672">
        <ele>513.1</ele>
        <time>2022-09-04T13:48:29Z</time>
      </trkpt>
      <trkpt lat="46.74198" lon="5.67677">
        <ele>515.1</ele>
        <time>2022-09-04T13:48:35Z</time>
      </trkpt>
      <trkpt lat="46.74201" lon="5.67683">
        <ele>517</ele>
        <time>2022-09-04T13:48:42Z</time>
      </trkpt>
      <trkpt lat="46.74203" lon="5.67689">
        <ele>518</ele>
        <time>2022-09-04T13:48:46Z</time>
      </trkpt>
      <trkpt lat="46.74206" lon="5.67694">
        <ele>518.8</ele>
        <time>2022-09-04T13:48:50Z</time>
      </trkpt>
      <trkpt lat="46.74209" lon="5.677">
        <ele>519.8</ele>
        <time>2022-09-04T13:48:54Z</time>
      </trkpt>
      <trkpt lat="46.74212" lon="5.67706">
        <ele>521</ele>
        <time>2022-09-04T13:48:58Z</time>
      </trkpt>
      <trkpt lat="46.74215" lon="5.67712">
        <ele>522.1</ele>
        <time>2022-09-04T13:49:02Z</time>
      </trkpt>
      <trkpt lat="46.74219" lon="5.67717">
        <ele>523</ele>
        <time>2022-09-04T13:49:06Z</time>
      </trkpt>
      <trkpt lat="46.74223" lon="5.6772">
        <ele>523.6</ele>
        <time>2022-09-04T13:49:09Z</time>
      </trkpt>
      <trkpt lat="46.74226" lon="5.67725">
        <ele>524.5</ele>
        <time>2022-09-04T13:49:14Z</time>
      </trkpt>
      <trkpt lat="46.7423" lon="5.67729">
        <ele>524.4</ele>
        <time>2022-09-04T13:49:20Z</time>
      </trkpt>
      <trkpt lat="46.74233" lon="5.67733">
        <ele>523.4</ele>
        <time>2022-09-04T13:49:25Z</time>
      </trkpt>
      <trkpt lat="46.74236" lon="5.67739">
        <ele>522.5</ele>
        <time>2022-09-04T13:49:30Z</time>
      </trkpt>
      <trkpt lat="46.74239" lon="5.67745">
        <ele>521.9</ele>
        <time>2022-09-04T13:49:35Z</time>
      </trkpt>
      <trkpt lat="46.74243" lon="5.6775">
        <ele>521</ele>
        <time>2022-09-04T13:49:40Z</time>
      </trkpt>
      <trkpt lat="46.74246" lon="5.67755">
        <ele>520.4</ele>
        <time>2022-09-04T13:49:44Z</time>
      </trkpt>
      <trkpt lat="46.7425" lon="5.67761">
        <ele>519.5</ele>
        <time>2022-09-04T13:49:48Z</time>
      </trkpt>
      <trkpt lat="46.74252" lon="5.67767">
        <ele>518.7</ele>
        <time>2022-09-04T13:49:52Z</time>
      </trkpt>
      <trkpt lat="46.74255" lon="5.67772">
        <ele>518.2</ele>
        <time>2022-09-04T13:49:56Z</time>
      </trkpt>
      <trkpt lat="46.74257" lon="5.67778">
        <ele>518</ele>
        <time>2022-09-04T13:50:01Z</time>
      </trkpt>
      <trkpt lat="46.74257" lon="5.67785">
        <ele>518.3</ele>
        <time>2022-09-04T13:50:07Z</time>
      </trkpt>
      <trkpt lat="46.74259" lon="5.67792">
        <ele>518.9</ele>
        <time>2022-09-04T13:50:12Z</time>
      </trkpt>
      <trkpt lat="46.74262" lon="5.67797">
        <ele>519.4</ele>
        <time>2022-09-04T13:50:16Z</time>
      </trkpt>
      <trkpt lat="46.74266" lon="5.67804">
        <ele>520.6</ele>
        <time>2022-09-04T13:50:20Z</time>
      </trkpt>
      <trkpt lat="46.74268" lon="5.67811">
        <ele>522.4</ele>
        <time>2022-09-04T13:50:24Z</time>
      </trkpt>
      <trkpt lat="46.7427" lon="5.67818">
        <ele>524.5</ele>
        <time>2022-09-04T13:50:29Z</time>
      </trkpt>
      <trkpt lat="46.74271" lon="5.67825">
        <ele>526.3</ele>
        <time>2022-09-04T13:50:33Z</time>
      </trkpt>
      <trkpt lat="46.74272" lon="5.67833">
        <ele>527.6</ele>
        <time>2022-09-04T13:50:37Z</time>
      </trkpt>
      <trkpt lat="46.74274" lon="5.6784">
        <ele>528.7</ele>
        <time>2022-09-04T13:50:43Z</time>
      </trkpt>
      <trkpt lat="46.74276" lon="5.67847">
        <ele>529.3</ele>
        <time>2022-09-04T13:50:48Z</time>
      </trkpt>
      <trkpt lat="46.74278" lon="5.67853">
        <ele>529.5</ele>
        <time>2022-09-04T13:50:52Z</time>
      </trkpt>
      <trkpt lat="46.7428" lon="5.6786">
        <ele>529.5</ele>
        <time>2022-09-04T13:50:56Z</time>
      </trkpt>
      <trkpt lat="46.74283" lon="5.67867">
        <ele>529.2</ele>
        <time>2022-09-04T13:51:01Z</time>
      </trkpt>
      <trkpt lat="46.74285" lon="5.67873">
        <ele>529</ele>
        <time>2022-09-04T13:51:06Z</time>
      </trkpt>
      <trkpt lat="46.74285" lon="5.67881">
        <ele>528.7</ele>
        <time>2022-09-04T13:51:12Z</time>
      </trkpt>
      <trkpt lat="46.74286" lon="5.67888">
        <ele>528.8</ele>
        <time>2022-09-04T13:51:17Z</time>
      </trkpt>
      <trkpt lat="46.74288" lon="5.67895">
        <ele>528.8</ele>
        <time>2022-09-04T13:51:23Z</time>
      </trkpt>
      <trkpt lat="46.74289" lon="5.67901">
        <ele>528.2</ele>
        <time>2022-09-04T13:51:27Z</time>
      </trkpt>
      <trkpt lat="46.74289" lon="5.67908">
        <ele>527.5</ele>
        <time>2022-09-04T13:51:30Z</time>
      </trkpt>
      <trkpt lat="46.7429" lon="5.67915">
        <ele>526.3</ele>
        <time>2022-09-04T13:51:34Z</time>
      </trkpt>
      <trkpt lat="46.74292" lon="5.67921">
        <ele>524.9</ele>
        <time>2022-09-04T13:51:38Z</time>
      </trkpt>
      <trkpt lat="46.74296" lon="5.67927">
        <ele>523.4</ele>
        <time>2022-09-04T13:51:43Z</time>
      </trkpt>
      <trkpt lat="46.74298" lon="5.67932">
        <ele>522.7</ele>
        <time>2022-09-04T13:51:47Z</time>
      </trkpt>
      <trkpt lat="46.74299" lon="5.6794">
        <ele>522.2</ele>
        <time>2022-09-04T13:51:52Z</time>
      </trkpt>
      <trkpt lat="46.74302" lon="5.67945">
        <ele>521.9</ele>
        <time>2022-09-04T13:51:58Z</time>
      </trkpt>
      <trkpt lat="46.74307" lon="5.67949">
        <ele>521.7</ele>
        <time>2022-09-04T13:52:05Z</time>
      </trkpt>
      <trkpt lat="46.74311" lon="5.67954">
        <ele>521.6</ele>
        <time>2022-09-04T13:52:10Z</time>
      </trkpt>
      <trkpt lat="46.74315" lon="5.67959">
        <ele>521.5</ele>
        <time>2022-09-04T13:52:14Z</time>
      </trkpt>
      <trkpt lat="46.74319" lon="5.67964">
        <ele>521</ele>
        <time>2022-09-04T13:52:19Z</time>
      </trkpt>
      <trkpt lat="46.74323" lon="5.6797">
        <ele>520.2</ele>
        <time>2022-09-04T13:52:24Z</time>
      </trkpt>
      <trkpt lat="46.74327" lon="5.67974">
        <ele>519.6</ele>
        <time>2022-09-04T13:52:29Z</time>
      </trkpt>
      <trkpt lat="46.74331" lon="5.67977">
        <ele>518.8</ele>
        <time>2022-09-04T13:52:34Z</time>
      </trkpt>
      <trkpt lat="46.74335" lon="5.67982">
        <ele>518.3</ele>
        <time>2022-09-04T13:52:38Z</time>
      </trkpt>
      <trkpt lat="46.74338" lon="5.67987">
        <ele>518.3</ele>
        <time>2022-09-04T13:52:42Z</time>
      </trkpt>
      <trkpt lat="46.74342" lon="5.67993">
        <ele>518.4</ele>
        <time>2022-09-04T13:52:46Z</time>
      </trkpt>
      <trkpt lat="46.74345" lon="5.67998">
        <ele>518.8</ele>
        <time>2022-09-04T13:52:50Z</time>
      </trkpt>
      <trkpt lat="46.74349" lon="5.68003">
        <ele>519.3</ele>
        <time>2022-09-04T13:52:55Z</time>
      </trkpt>
      <trkpt lat="46.74353" lon="5.68007">
        <ele>519.6</ele>
        <time>2022-09-04T13:52:59Z</time>
      </trkpt>
      <trkpt lat="46.74358" lon="5.6801">
        <ele>520</ele>
        <time>2022-09-04T13:53:04Z</time>
      </trkpt>
      <trkpt lat="46.74362" lon="5.68015">
        <ele>520.7</ele>
        <time>2022-09-04T13:53:09Z</time>
      </trkpt>
      <trkpt lat="46.74366" lon="5.6802">
        <ele>521.9</ele>
        <time>2022-09-04T13:53:14Z</time>
      </trkpt>
      <trkpt lat="46.7437" lon="5.68024">
        <ele>522.9</ele>
        <time>2022-09-04T13:53:18Z</time>
      </trkpt>
      <trkpt lat="46.74374" lon="5.68029">
        <ele>523.5</ele>
        <time>2022-09-04T13:53:23Z</time>
      </trkpt>
      <trkpt lat="46.74377" lon="5.68035">
        <ele>523.7</ele>
        <time>2022-09-04T13:53:28Z</time>
      </trkpt>
      <trkpt lat="46.74381" lon="5.68039">
        <ele>524</ele>
        <time>2022-09-04T13:53:33Z</time>
      </trkpt>
      <trkpt lat="46.74386" lon="5.68042">
        <ele>524.7</ele>
        <time>2022-09-04T13:53:39Z</time>
      </trkpt>
      <trkpt lat="46.7439" lon="5.68046">
        <ele>525.1</ele>
        <time>2022-09-04T13:53:44Z</time>
      </trkpt>
      <trkpt lat="46.74395" lon="5.68049">
        <ele>525.4</ele>
        <time>2022-09-04T13:53:49Z</time>
      </trkpt>
      <trkpt lat="46.74399" lon="5.68051">
        <ele>525.4</ele>
        <time>2022-09-04T13:53:54Z</time>
      </trkpt>
      <trkpt lat="46.74404" lon="5.68055">
        <ele>525.1</ele>
        <time>2022-09-04T13:54:00Z</time>
      </trkpt>
      <trkpt lat="46.74407" lon="5.6806">
        <ele>524.8</ele>
        <time>2022-09-04T13:54:05Z</time>
      </trkpt>
      <trkpt lat="46.74412" lon="5.68064">
        <ele>524.9</ele>
        <time>2022-09-04T13:54:09Z</time>
      </trkpt>
      <trkpt lat="46.74417" lon="5.68067">
        <ele>525</ele>
        <time>2022-09-04T13:54:13Z</time>
      </trkpt>
      <trkpt lat="46.74422" lon="5.6807">
        <ele>525.1</ele>
        <time>2022-09-04T13:54:19Z</time>
      </trkpt>
      <trkpt lat="46.74426" lon="5.68073">
        <ele>525.2</ele>
        <time>2022-09-04T13:54:23Z</time>
      </trkpt>
      <trkpt lat="46.74431" lon="5.68076">
        <ele>525.3</ele>
        <time>2022-09-04T13:54:26Z</time>
      </trkpt>
      <trkpt lat="46.74435" lon="5.6808">
        <ele>525.3</ele>
        <time>2022-09-04T13:54:30Z</time>
      </trkpt>
      <trkpt lat="46.74439" lon="5.68083">
        <ele>525.4</ele>
        <time>2022-09-04T13:54:34Z</time>
      </trkpt>
      <trkpt lat="46.74444" lon="5.68085">
        <ele>525.2</ele>
        <time>2022-09-04T13:54:38Z</time>
      </trkpt>
      <trkpt lat="46.74448" lon="5.68089">
        <ele>524.1</ele>
        <time>2022-09-04T13:54:48Z</time>
      </trkpt>
      <trkpt lat="46.74452" lon="5.68093">
        <ele>522.7</ele>
        <time>2022-09-04T13:54:56Z</time>
      </trkpt>
      <trkpt lat="46.74457" lon="5.68096">
        <ele>522</ele>
        <time>2022-09-04T13:55:01Z</time>
      </trkpt>
      <trkpt lat="46.74462" lon="5.68098">
        <ele>521.4</ele>
        <time>2022-09-04T13:55:06Z</time>
      </trkpt>
      <trkpt lat="46.74466" lon="5.681">
        <ele>521.1</ele>
        <time>2022-09-04T13:55:10Z</time>
      </trkpt>
      <trkpt lat="46.74472" lon="5.68102">
        <ele>521</ele>
        <time>2022-09-04T13:55:14Z</time>
      </trkpt>
      <trkpt lat="46.74477" lon="5.68105">
        <ele>521.1</ele>
        <time>2022-09-04T13:55:18Z</time>
      </trkpt>
      <trkpt lat="46.74481" lon="5.68108">
        <ele>521.5</ele>
        <time>2022-09-04T13:55:22Z</time>
      </trkpt>
      <trkpt lat="46.74485" lon="5.68113">
        <ele>522.2</ele>
        <time>2022-09-04T13:55:29Z</time>
      </trkpt>
      <trkpt lat="46.74489" lon="5.68118">
        <ele>522.2</ele>
        <time>2022-09-04T13:55:35Z</time>
      </trkpt>
      <trkpt lat="46.74493" lon="5.68122">
        <ele>521.7</ele>
        <time>2022-09-04T13:55:39Z</time>
      </trkpt>
      <trkpt lat="46.74498" lon="5.68126">
        <ele>521.3</ele>
        <time>2022-09-04T13:55:43Z</time>
      </trkpt>
      <trkpt lat="46.74502" lon="5.6813">
        <ele>521.2</ele>
        <time>2022-09-04T13:55:46Z</time>
      </trkpt>
      <trkpt lat="46.74506" lon="5.68135">
        <ele>521.2</ele>
        <time>2022-09-04T13:55:51Z</time>
      </trkpt>
      <trkpt lat="46.7451" lon="5.68139">
        <ele>521.5</ele>
        <time>2022-09-04T13:55:54Z</time>
      </trkpt>
      <trkpt lat="46.74514" lon="5.68142">
        <ele>522.1</ele>
        <time>2022-09-04T13:55:57Z</time>
      </trkpt>
      <trkpt lat="46.74518" lon="5.68147">
        <ele>523</ele>
        <time>2022-09-04T13:56:01Z</time>
      </trkpt>
      <trkpt lat="46.74522" lon="5.68151">
        <ele>524.2</ele>
        <time>2022-09-04T13:56:05Z</time>
      </trkpt>
      <trkpt lat="46.74526" lon="5.68156">
        <ele>525.4</ele>
        <time>2022-09-04T13:56:10Z</time>
      </trkpt>
      <trkpt lat="46.7453" lon="5.6816">
        <ele>525.9</ele>
        <time>2022-09-04T13:56:16Z</time>
      </trkpt>
      <trkpt lat="46.7453" lon="5.68168">
        <ele>525.5</ele>
        <time>2022-09-04T13:56:21Z</time>
      </trkpt>
      <trkpt lat="46.74531" lon="5.68175">
        <ele>525.3</ele>
        <time>2022-09-04T13:56:26Z</time>
      </trkpt>
      <trkpt lat="46.74532" lon="5.68182">
        <ele>525.3</ele>
        <time>2022-09-04T13:56:31Z</time>
      </trkpt>
      <trkpt lat="46.74534" lon="5.68188">
        <ele>525.6</ele>
        <time>2022-09-04T13:56:37Z</time>
      </trkpt>
      <trkpt lat="46.74532" lon="5.68193">
        <ele>526.6</ele>
        <time>2022-09-04T13:56:43Z</time>
      </trkpt>
      <trkpt lat="46.74527" lon="5.68197">
        <ele>527.5</ele>
        <time>2022-09-04T13:56:48Z</time>
      </trkpt>
      <trkpt lat="46.74523" lon="5.68201">
        <ele>528.4</ele>
        <time>2022-09-04T13:56:53Z</time>
      </trkpt>
      <trkpt lat="46.74518" lon="5.68203">
        <ele>529.3</ele>
        <time>2022-09-04T13:56:57Z</time>
      </trkpt>
      <trkpt lat="46.74514" lon="5.68205">
        <ele>531.1</ele>
        <time>2022-09-04T13:57:03Z</time>
      </trkpt>
      <trkpt lat="46.7451" lon="5.68208">
        <ele>532</ele>
        <time>2022-09-04T13:57:11Z</time>
      </trkpt>
      <trkpt lat="46.74505" lon="5.6821">
        <ele>531.1</ele>
        <time>2022-09-04T13:57:17Z</time>
      </trkpt>
      <trkpt lat="46.745" lon="5.68214">
        <ele>529.5</ele>
        <time>2022-09-04T13:57:22Z</time>
      </trkpt>
      <trkpt lat="46.74496" lon="5.68218">
        <ele>527</ele>
        <time>2022-09-04T13:57:28Z</time>
      </trkpt>
      <trkpt lat="46.74492" lon="5.68222">
        <ele>525.7</ele>
        <time>2022-09-04T13:57:33Z</time>
      </trkpt>
      <trkpt lat="46.74488" lon="5.68227">
        <ele>525.1</ele>
        <time>2022-09-04T13:57:37Z</time>
      </trkpt>
      <trkpt lat="46.74483" lon="5.68231">
        <ele>524.6</ele>
        <time>2022-09-04T13:57:42Z</time>
      </trkpt>
      <trkpt lat="46.74479" lon="5.68233">
        <ele>524.1</ele>
        <time>2022-09-04T13:57:46Z</time>
      </trkpt>
      <trkpt lat="46.74474" lon="5.68235">
        <ele>523.7</ele>
        <time>2022-09-04T13:57:50Z</time>
      </trkpt>
      <trkpt lat="46.74469" lon="5.68236">
        <ele>523.9</ele>
        <time>2022-09-04T13:57:54Z</time>
      </trkpt>
      <trkpt lat="46.74464" lon="5.68239">
        <ele>525.2</ele>
        <time>2022-09-04T13:57:59Z</time>
      </trkpt>
      <trkpt lat="46.74461" lon="5.68242">
        <ele>527</ele>
        <time>2022-09-04T13:58:09Z</time>
      </trkpt>
      <trkpt lat="46.74456" lon="5.68246">
        <ele>526.5</ele>
        <time>2022-09-04T13:58:16Z</time>
      </trkpt>
      <trkpt lat="46.74451" lon="5.68248">
        <ele>526.6</ele>
        <time>2022-09-04T13:58:21Z</time>
      </trkpt>
      <trkpt lat="46.74446" lon="5.68246">
        <ele>526.9</ele>
        <time>2022-09-04T13:58:25Z</time>
      </trkpt>
      <trkpt lat="46.74441" lon="5.68244">
        <ele>527.2</ele>
        <time>2022-09-04T13:58:29Z</time>
      </trkpt>
      <trkpt lat="46.74437" lon="5.68246">
        <ele>528</ele>
        <time>2022-09-04T13:58:36Z</time>
      </trkpt>
      <trkpt lat="46.74435" lon="5.68252">
        <ele>525.8</ele>
        <time>2022-09-04T13:58:47Z</time>
      </trkpt>
      <trkpt lat="46.74433" lon="5.68259">
        <ele>523</ele>
        <time>2022-09-04T13:58:52Z</time>
      </trkpt>
      <trkpt lat="46.74431" lon="5.68267">
        <ele>521.1</ele>
        <time>2022-09-04T13:58:58Z</time>
      </trkpt>
      <trkpt lat="46.74431" lon="5.68275">
        <ele>519.2</ele>
        <time>2022-09-04T13:59:04Z</time>
      </trkpt>
      <trkpt lat="46.74427" lon="5.68279">
        <ele>517.3</ele>
        <time>2022-09-04T13:59:09Z</time>
      </trkpt>
      <trkpt lat="46.74432" lon="5.68278">
        <ele>518</ele>
        <time>2022-09-04T14:00:20Z</time>
      </trkpt>
      <trkpt lat="46.74428" lon="5.6828">
        <ele>514.5</ele>
        <time>2022-09-04T14:00:58Z</time>
      </trkpt>
      <trkpt lat="46.74422" lon="5.68281">
        <ele>513.6</ele>
        <time>2022-09-04T14:01:04Z</time>
      </trkpt>
      <trkpt lat="46.74426" lon="5.68284">
        <ele>513</ele>
        <time>2022-09-04T14:01:14Z</time>
      </trkpt>
      <trkpt lat="46.74431" lon="5.68285">
        <ele>513.9</ele>
        <time>2022-09-04T14:01:27Z</time>
      </trkpt>
      <trkpt lat="46.74431" lon="5.68292">
        <ele>516.1</ele>
        <time>2022-09-04T14:01:39Z</time>
      </trkpt>
      <trkpt lat="46.7443" lon="5.68298">
        <ele>516.2</ele>
        <time>2022-09-04T14:01:44Z</time>
      </trkpt>
      <trkpt lat="46.74428" lon="5.68305">
        <ele>518.5</ele>
        <time>2022-09-04T14:01:49Z</time>
      </trkpt>
      <trkpt lat="46.74426" lon="5.68312">
        <ele>520.1</ele>
        <time>2022-09-04T14:01:54Z</time>
      </trkpt>
      <trkpt lat="46.74426" lon="5.6832">
        <ele>521.3</ele>
        <time>2022-09-04T14:01:59Z</time>
      </trkpt>
      <trkpt lat="46.74426" lon="5.68327">
        <ele>521.5</ele>
        <time>2022-09-04T14:02:03Z</time>
      </trkpt>
      <trkpt lat="46.74426" lon="5.68334">
        <ele>522.8</ele>
        <time>2022-09-04T14:02:08Z</time>
      </trkpt>
      <trkpt lat="46.74426" lon="5.68341">
        <ele>524.1</ele>
        <time>2022-09-04T14:02:12Z</time>
      </trkpt>
      <trkpt lat="46.74429" lon="5.68347">
        <ele>524.6</ele>
        <time>2022-09-04T14:02:18Z</time>
      </trkpt>
      <trkpt lat="46.7443" lon="5.68354">
        <ele>524.9</ele>
        <time>2022-09-04T14:02:25Z</time>
      </trkpt>
      <trkpt lat="46.74431" lon="5.68361">
        <ele>525.5</ele>
        <time>2022-09-04T14:02:31Z</time>
      </trkpt>
      <trkpt lat="46.74433" lon="5.68367">
        <ele>525.5</ele>
        <time>2022-09-04T14:02:40Z</time>
      </trkpt>
      <trkpt lat="46.74434" lon="5.68374">
        <ele>526.6</ele>
        <time>2022-09-04T14:02:50Z</time>
      </trkpt>
      <trkpt lat="46.74438" lon="5.68371">
        <ele>526.1</ele>
        <time>2022-09-04T14:03:01Z</time>
      </trkpt>
      <trkpt lat="46.74433" lon="5.68371">
        <ele>524.1</ele>
        <time>2022-09-04T14:03:34Z</time>
      </trkpt>
      <trkpt lat="46.74428" lon="5.6837">
        <ele>524</ele>
        <time>2022-09-04T14:03:38Z</time>
      </trkpt>
      <trkpt lat="46.74423" lon="5.68369">
        <ele>524.4</ele>
        <time>2022-09-04T14:03:43Z</time>
      </trkpt>
      <trkpt lat="46.74419" lon="5.68366">
        <ele>524.1</ele>
        <time>2022-09-04T14:03:50Z</time>
      </trkpt>
      <trkpt lat="46.74416" lon="5.6836">
        <ele>523.6</ele>
        <time>2022-09-04T14:03:55Z</time>
      </trkpt>
      <trkpt lat="46.74413" lon="5.68354">
        <ele>522.9</ele>
        <time>2022-09-04T14:04:01Z</time>
      </trkpt>
      <trkpt lat="46.7441" lon="5.68349">
        <ele>523.1</ele>
        <time>2022-09-04T14:04:08Z</time>
      </trkpt>
      <trkpt lat="46.74407" lon="5.68344">
        <ele>523.7</ele>
        <time>2022-09-04T14:04:13Z</time>
      </trkpt>
      <trkpt lat="46.74402" lon="5.6834">
        <ele>524.3</ele>
        <time>2022-09-04T14:04:19Z</time>
      </trkpt>
      <trkpt lat="46.74398" lon="5.68336">
        <ele>524.3</ele>
        <time>2022-09-04T14:04:24Z</time>
      </trkpt>
      <trkpt lat="46.74394" lon="5.68332">
        <ele>524.1</ele>
        <time>2022-09-04T14:04:28Z</time>
      </trkpt>
      <trkpt lat="46.7439" lon="5.68329">
        <ele>523.7</ele>
        <time>2022-09-04T14:04:32Z</time>
      </trkpt>
      <trkpt lat="46.74386" lon="5.68327">
        <ele>523.1</ele>
        <time>2022-09-04T14:04:36Z</time>
      </trkpt>
      <trkpt lat="46.74381" lon="5.68323">
        <ele>522.1</ele>
        <time>2022-09-04T14:04:40Z</time>
      </trkpt>
      <trkpt lat="46.74376" lon="5.68319">
        <ele>520.3</ele>
        <time>2022-09-04T14:04:46Z</time>
      </trkpt>
      <trkpt lat="46.74372" lon="5.68316">
        <ele>519.3</ele>
        <time>2022-09-04T14:04:50Z</time>
      </trkpt>
      <trkpt lat="46.74367" lon="5.68313">
        <ele>518.7</ele>
        <time>2022-09-04T14:04:54Z</time>
      </trkpt>
      <trkpt lat="46.74362" lon="5.6831">
        <ele>518.1</ele>
        <time>2022-09-04T14:04:58Z</time>
      </trkpt>
      <trkpt lat="46.74358" lon="5.68306">
        <ele>517.5</ele>
        <time>2022-09-04T14:05:03Z</time>
      </trkpt>
      <trkpt lat="46.74353" lon="5.68302">
        <ele>516.2</ele>
        <time>2022-09-04T14:05:10Z</time>
      </trkpt>
      <trkpt lat="46.74349" lon="5.68299">
        <ele>515</ele>
        <time>2022-09-04T14:05:16Z</time>
      </trkpt>
      <trkpt lat="46.74344" lon="5.68296">
        <ele>513.9</ele>
        <time>2022-09-04T14:05:21Z</time>
      </trkpt>
      <trkpt lat="46.7434" lon="5.68295">
        <ele>513.3</ele>
        <time>2022-09-04T14:05:26Z</time>
      </trkpt>
      <trkpt lat="46.74335" lon="5.68292">
        <ele>513</ele>
        <time>2022-09-04T14:05:33Z</time>
      </trkpt>
      <trkpt lat="46.74331" lon="5.68289">
        <ele>513.3</ele>
        <time>2022-09-04T14:05:40Z</time>
      </trkpt>
      <trkpt lat="46.74326" lon="5.6829">
        <ele>513.9</ele>
        <time>2022-09-04T14:05:45Z</time>
      </trkpt>
      <trkpt lat="46.74321" lon="5.6829">
        <ele>514.3</ele>
        <time>2022-09-04T14:05:49Z</time>
      </trkpt>
      <trkpt lat="46.74316" lon="5.68289">
        <ele>514.6</ele>
        <time>2022-09-04T14:05:55Z</time>
      </trkpt>
      <trkpt lat="46.74311" lon="5.6829">
        <ele>514.2</ele>
        <time>2022-09-04T14:06:00Z</time>
      </trkpt>
      <trkpt lat="46.74307" lon="5.68289">
        <ele>513.5</ele>
        <time>2022-09-04T14:06:04Z</time>
      </trkpt>
      <trkpt lat="46.74302" lon="5.68291">
        <ele>514.3</ele>
        <time>2022-09-04T14:06:14Z</time>
      </trkpt>
      <trkpt lat="46.74297" lon="5.68289">
        <ele>516.8</ele>
        <time>2022-09-04T14:07:19Z</time>
      </trkpt>
      <trkpt lat="46.74293" lon="5.68294">
        <ele>514.3</ele>
        <time>2022-09-04T14:07:33Z</time>
      </trkpt>
      <trkpt lat="46.74288" lon="5.68294">
        <ele>513.3</ele>
        <time>2022-09-04T14:07:38Z</time>
      </trkpt>
      <trkpt lat="46.74282" lon="5.68296">
        <ele>512.7</ele>
        <time>2022-09-04T14:07:44Z</time>
      </trkpt>
      <trkpt lat="46.74278" lon="5.68299">
        <ele>512.9</ele>
        <time>2022-09-04T14:07:48Z</time>
      </trkpt>
      <trkpt lat="46.74273" lon="5.68301">
        <ele>513.3</ele>
        <time>2022-09-04T14:07:52Z</time>
      </trkpt>
      <trkpt lat="46.74269" lon="5.68304">
        <ele>514.2</ele>
        <time>2022-09-04T14:07:57Z</time>
      </trkpt>
      <trkpt lat="46.74264" lon="5.68305">
        <ele>515.3</ele>
        <time>2022-09-04T14:08:02Z</time>
      </trkpt>
      <trkpt lat="46.74259" lon="5.68306">
        <ele>515.7</ele>
        <time>2022-09-04T14:08:07Z</time>
      </trkpt>
      <trkpt lat="46.74254" lon="5.6831">
        <ele>516.1</ele>
        <time>2022-09-04T14:08:13Z</time>
      </trkpt>
      <trkpt lat="46.7425" lon="5.68314">
        <ele>515.9</ele>
        <time>2022-09-04T14:08:18Z</time>
      </trkpt>
      <trkpt lat="46.74246" lon="5.68318">
        <ele>515.5</ele>
        <time>2022-09-04T14:08:23Z</time>
      </trkpt>
      <trkpt lat="46.74241" lon="5.68322">
        <ele>515.1</ele>
        <time>2022-09-04T14:08:28Z</time>
      </trkpt>
      <trkpt lat="46.74236" lon="5.68322">
        <ele>516.1</ele>
        <time>2022-09-04T14:08:34Z</time>
      </trkpt>
      <trkpt lat="46.74231" lon="5.68322">
        <ele>517.7</ele>
        <time>2022-09-04T14:08:41Z</time>
      </trkpt>
      <trkpt lat="46.74227" lon="5.68324">
        <ele>518.9</ele>
        <time>2022-09-04T14:08:47Z</time>
      </trkpt>
      <trkpt lat="46.74222" lon="5.68325">
        <ele>518.9</ele>
        <time>2022-09-04T14:08:53Z</time>
      </trkpt>
      <trkpt lat="46.74217" lon="5.68326">
        <ele>518.2</ele>
        <time>2022-09-04T14:08:58Z</time>
      </trkpt>
      <trkpt lat="46.74212" lon="5.68326">
        <ele>518</ele>
        <time>2022-09-04T14:09:03Z</time>
      </trkpt>
      <trkpt lat="46.74207" lon="5.68326">
        <ele>518</ele>
        <time>2022-09-04T14:09:07Z</time>
      </trkpt>
      <trkpt lat="46.74202" lon="5.68326">
        <ele>517.8</ele>
        <time>2022-09-04T14:09:12Z</time>
      </trkpt>
      <trkpt lat="46.74197" lon="5.68326">
        <ele>518.1</ele>
        <time>2022-09-04T14:09:18Z</time>
      </trkpt>
      <trkpt lat="46.74192" lon="5.68326">
        <ele>518.6</ele>
        <time>2022-09-04T14:09:24Z</time>
      </trkpt>
      <trkpt lat="46.74187" lon="5.68326">
        <ele>518.8</ele>
        <time>2022-09-04T14:09:30Z</time>
      </trkpt>
      <trkpt lat="46.74182" lon="5.68328">
        <ele>519.4</ele>
        <time>2022-09-04T14:09:35Z</time>
      </trkpt>
      <trkpt lat="46.74178" lon="5.6833">
        <ele>520.3</ele>
        <time>2022-09-04T14:09:40Z</time>
      </trkpt>
      <trkpt lat="46.74173" lon="5.68329">
        <ele>521.1</ele>
        <time>2022-09-04T14:09:45Z</time>
      </trkpt>
      <trkpt lat="46.74168" lon="5.68329">
        <ele>522.4</ele>
        <time>2022-09-04T14:09:50Z</time>
      </trkpt>
      <trkpt lat="46.74164" lon="5.6833">
        <ele>523.3</ele>
        <time>2022-09-04T14:09:56Z</time>
      </trkpt>
      <trkpt lat="46.74159" lon="5.68333">
        <ele>523.3</ele>
        <time>2022-09-04T14:10:01Z</time>
      </trkpt>
      <trkpt lat="46.74153" lon="5.68333">
        <ele>522.9</ele>
        <time>2022-09-04T14:10:06Z</time>
      </trkpt>
      <trkpt lat="46.74148" lon="5.68332">
        <ele>521.7</ele>
        <time>2022-09-04T14:10:12Z</time>
      </trkpt>
      <trkpt lat="46.74144" lon="5.68332">
        <ele>520.4</ele>
        <time>2022-09-04T14:10:17Z</time>
      </trkpt>
      <trkpt lat="46.74138" lon="5.68332">
        <ele>519.3</ele>
        <time>2022-09-04T14:10:22Z</time>
      </trkpt>
      <trkpt lat="46.74133" lon="5.68332">
        <ele>518.5</ele>
        <time>2022-09-04T14:10:27Z</time>
      </trkpt>
      <trkpt lat="46.74128" lon="5.68331">
        <ele>518.9</ele>
        <time>2022-09-04T14:10:31Z</time>
      </trkpt>
      <trkpt lat="46.74123" lon="5.68329">
        <ele>519.8</ele>
        <time>2022-09-04T14:10:35Z</time>
      </trkpt>
      <trkpt lat="46.74118" lon="5.68329">
        <ele>520.9</ele>
        <time>2022-09-04T14:10:39Z</time>
      </trkpt>
      <trkpt lat="46.74113" lon="5.68329">
        <ele>522.8</ele>
        <time>2022-09-04T14:10:44Z</time>
      </trkpt>
      <trkpt lat="46.74108" lon="5.68327">
        <ele>524.4</ele>
        <time>2022-09-04T14:10:49Z</time>
      </trkpt>
      <trkpt lat="46.74102" lon="5.68327">
        <ele>525.8</ele>
        <time>2022-09-04T14:10:54Z</time>
      </trkpt>
      <trkpt lat="46.74097" lon="5.68326">
        <ele>526.8</ele>
        <time>2022-09-04T14:10:59Z</time>
      </trkpt>
      <trkpt lat="46.74092" lon="5.68325">
        <ele>527.6</ele>
        <time>2022-09-04T14:11:04Z</time>
      </trkpt>
      <trkpt lat="46.74087" lon="5.68324">
        <ele>528.2</ele>
        <time>2022-09-04T14:11:09Z</time>
      </trkpt>
      <trkpt lat="46.74082" lon="5.68323">
        <ele>528.8</ele>
        <time>2022-09-04T14:11:13Z</time>
      </trkpt>
      <trkpt lat="46.74077" lon="5.68321">
        <ele>529.1</ele>
        <time>2022-09-04T14:11:18Z</time>
      </trkpt>
      <trkpt lat="46.74072" lon="5.68318">
        <ele>529.1</ele>
        <time>2022-09-04T14:11:23Z</time>
      </trkpt>
      <trkpt lat="46.74067" lon="5.68315">
        <ele>528.5</ele>
        <time>2022-09-04T14:11:28Z</time>
      </trkpt>
      <trkpt lat="46.74063" lon="5.68313">
        <ele>528.2</ele>
        <time>2022-09-04T14:11:32Z</time>
      </trkpt>
      <trkpt lat="46.74058" lon="5.68309">
        <ele>527.9</ele>
        <time>2022-09-04T14:11:37Z</time>
      </trkpt>
      <trkpt lat="46.74054" lon="5.68306">
        <ele>527.4</ele>
        <time>2022-09-04T14:11:42Z</time>
      </trkpt>
      <trkpt lat="46.74049" lon="5.68303">
        <ele>526.6</ele>
        <time>2022-09-04T14:11:47Z</time>
      </trkpt>
      <trkpt lat="46.74044" lon="5.68299">
        <ele>526.2</ele>
        <time>2022-09-04T14:11:52Z</time>
      </trkpt>
      <trkpt lat="46.7404" lon="5.68296">
        <ele>525.6</ele>
        <time>2022-09-04T14:11:57Z</time>
      </trkpt>
      <trkpt lat="46.74036" lon="5.68291">
        <ele>525.1</ele>
        <time>2022-09-04T14:12:02Z</time>
      </trkpt>
      <trkpt lat="46.74033" lon="5.68286">
        <ele>524.7</ele>
        <time>2022-09-04T14:12:06Z</time>
      </trkpt>
      <trkpt lat="46.74029" lon="5.68281">
        <ele>523.7</ele>
        <time>2022-09-04T14:12:11Z</time>
      </trkpt>
      <trkpt lat="46.74026" lon="5.68276">
        <ele>522.3</ele>
        <time>2022-09-04T14:12:16Z</time>
      </trkpt>
      <trkpt lat="46.74022" lon="5.68271">
        <ele>520.7</ele>
        <time>2022-09-04T14:12:21Z</time>
      </trkpt>
      <trkpt lat="46.74019" lon="5.68265">
        <ele>519</ele>
        <time>2022-09-04T14:12:26Z</time>
      </trkpt>
      <trkpt lat="46.74015" lon="5.68259">
        <ele>517.5</ele>
        <time>2022-09-04T14:12:31Z</time>
      </trkpt>
      <trkpt lat="46.74012" lon="5.68255">
        <ele>516.7</ele>
        <time>2022-09-04T14:12:35Z</time>
      </trkpt>
      <trkpt lat="46.74008" lon="5.68251">
        <ele>516.8</ele>
        <time>2022-09-04T14:12:40Z</time>
      </trkpt>
      <trkpt lat="46.74003" lon="5.68246">
        <ele>517.5</ele>
        <time>2022-09-04T14:12:45Z</time>
      </trkpt>
      <trkpt lat="46.73998" lon="5.68242">
        <ele>518.1</ele>
        <time>2022-09-04T14:12:50Z</time>
      </trkpt>
      <trkpt lat="46.73993" lon="5.68239">
        <ele>518.4</ele>
        <time>2022-09-04T14:12:55Z</time>
      </trkpt>
      <trkpt lat="46.73989" lon="5.68237">
        <ele>519.8</ele>
        <time>2022-09-04T14:13:05Z</time>
      </trkpt>
      <trkpt lat="46.73984" lon="5.68236">
        <ele>520.7</ele>
        <time>2022-09-04T14:13:11Z</time>
      </trkpt>
      <trkpt lat="46.73979" lon="5.68236">
        <ele>521.7</ele>
        <time>2022-09-04T14:13:16Z</time>
      </trkpt>
      <trkpt lat="46.73974" lon="5.68237">
        <ele>522.9</ele>
        <time>2022-09-04T14:13:20Z</time>
      </trkpt>
      <trkpt lat="46.73969" lon="5.68236">
        <ele>524.3</ele>
        <time>2022-09-04T14:13:25Z</time>
      </trkpt>
      <trkpt lat="46.73964" lon="5.68237">
        <ele>525.6</ele>
        <time>2022-09-04T14:13:29Z</time>
      </trkpt>
      <trkpt lat="46.7396" lon="5.68238">
        <ele>526.7</ele>
        <time>2022-09-04T14:13:33Z</time>
      </trkpt>
      <trkpt lat="46.73955" lon="5.68238">
        <ele>527.6</ele>
        <time>2022-09-04T14:13:37Z</time>
      </trkpt>
      <trkpt lat="46.7395" lon="5.68237">
        <ele>528.3</ele>
        <time>2022-09-04T14:13:42Z</time>
      </trkpt>
      <trkpt lat="46.73945" lon="5.68235">
        <ele>528.2</ele>
        <time>2022-09-04T14:13:47Z</time>
      </trkpt>
      <trkpt lat="46.7394" lon="5.68231">
        <ele>527.4</ele>
        <time>2022-09-04T14:13:52Z</time>
      </trkpt>
      <trkpt lat="46.73936" lon="5.68227">
        <ele>525.8</ele>
        <time>2022-09-04T14:13:57Z</time>
      </trkpt>
      <trkpt lat="46.73932" lon="5.68222">
        <ele>524.4</ele>
        <time>2022-09-04T14:14:02Z</time>
      </trkpt>
      <trkpt lat="46.73929" lon="5.68216">
        <ele>522.9</ele>
        <time>2022-09-04T14:14:07Z</time>
      </trkpt>
      <trkpt lat="46.73926" lon="5.68211">
        <ele>521.9</ele>
        <time>2022-09-04T14:14:12Z</time>
      </trkpt>
      <trkpt lat="46.73923" lon="5.68205">
        <ele>521.2</ele>
        <time>2022-09-04T14:14:17Z</time>
      </trkpt>
      <trkpt lat="46.7392" lon="5.68199">
        <ele>520.4</ele>
        <time>2022-09-04T14:14:22Z</time>
      </trkpt>
      <trkpt lat="46.73917" lon="5.68193">
        <ele>519.6</ele>
        <time>2022-09-04T14:14:27Z</time>
      </trkpt>
      <trkpt lat="46.73914" lon="5.68187">
        <ele>519.2</ele>
        <time>2022-09-04T14:14:32Z</time>
      </trkpt>
      <trkpt lat="46.73912" lon="5.68181">
        <ele>518.9</ele>
        <time>2022-09-04T14:14:37Z</time>
      </trkpt>
      <trkpt lat="46.73911" lon="5.68174">
        <ele>518.4</ele>
        <time>2022-09-04T14:14:43Z</time>
      </trkpt>
      <trkpt lat="46.73908" lon="5.68168">
        <ele>517.9</ele>
        <time>2022-09-04T14:14:48Z</time>
      </trkpt>
      <trkpt lat="46.73904" lon="5.68164">
        <ele>517.7</ele>
        <time>2022-09-04T14:14:52Z</time>
      </trkpt>
      <trkpt lat="46.73901" lon="5.68159">
        <ele>517.7</ele>
        <time>2022-09-04T14:14:56Z</time>
      </trkpt>
      <trkpt lat="46.73898" lon="5.68153">
        <ele>517.5</ele>
        <time>2022-09-04T14:15:01Z</time>
      </trkpt>
      <trkpt lat="46.73894" lon="5.68148">
        <ele>517.5</ele>
        <time>2022-09-04T14:15:06Z</time>
      </trkpt>
      <trkpt lat="46.7389" lon="5.68145">
        <ele>517.6</ele>
        <time>2022-09-04T14:15:10Z</time>
      </trkpt>
      <trkpt lat="46.73885" lon="5.68142">
        <ele>518</ele>
        <time>2022-09-04T14:15:15Z</time>
      </trkpt>
      <trkpt lat="46.73881" lon="5.68138">
        <ele>518.9</ele>
        <time>2022-09-04T14:15:24Z</time>
      </trkpt>
      <trkpt lat="46.73876" lon="5.68141">
        <ele>521.6</ele>
        <time>2022-09-04T14:15:44Z</time>
      </trkpt>
      <trkpt lat="46.73872" lon="5.68138">
        <ele>522.4</ele>
        <time>2022-09-04T14:15:49Z</time>
      </trkpt>
      <trkpt lat="46.73868" lon="5.68133">
        <ele>523</ele>
        <time>2022-09-04T14:15:54Z</time>
      </trkpt>
      <trkpt lat="46.73864" lon="5.68128">
        <ele>523.6</ele>
        <time>2022-09-04T14:15:59Z</time>
      </trkpt>
      <trkpt lat="46.73861" lon="5.68123">
        <ele>525.1</ele>
        <time>2022-09-04T14:16:06Z</time>
      </trkpt>
      <trkpt lat="46.73858" lon="5.68118">
        <ele>526.1</ele>
        <time>2022-09-04T14:16:12Z</time>
      </trkpt>
      <trkpt lat="46.73854" lon="5.68112">
        <ele>527</ele>
        <time>2022-09-04T14:16:17Z</time>
      </trkpt>
      <trkpt lat="46.73853" lon="5.68106">
        <ele>527.8</ele>
        <time>2022-09-04T14:16:22Z</time>
      </trkpt>
      <trkpt lat="46.73851" lon="5.68099">
        <ele>528</ele>
        <time>2022-09-04T14:16:27Z</time>
      </trkpt>
      <trkpt lat="46.73852" lon="5.68092">
        <ele>527.7</ele>
        <time>2022-09-04T14:16:33Z</time>
      </trkpt>
      <trkpt lat="46.73851" lon="5.68085">
        <ele>527.2</ele>
        <time>2022-09-04T14:16:37Z</time>
      </trkpt>
      <trkpt lat="46.7385" lon="5.68078">
        <ele>527.1</ele>
        <time>2022-09-04T14:16:41Z</time>
      </trkpt>
      <trkpt lat="46.73849" lon="5.6807">
        <ele>527</ele>
        <time>2022-09-04T14:16:46Z</time>
      </trkpt>
      <trkpt lat="46.73849" lon="5.68062">
        <ele>526.8</ele>
        <time>2022-09-04T14:16:50Z</time>
      </trkpt>
      <trkpt lat="46.73849" lon="5.68055">
        <ele>526.8</ele>
        <time>2022-09-04T14:16:54Z</time>
      </trkpt>
      <trkpt lat="46.73849" lon="5.68048">
        <ele>526.9</ele>
        <time>2022-09-04T14:16:58Z</time>
      </trkpt>
      <trkpt lat="46.73849" lon="5.68041">
        <ele>526.9</ele>
        <time>2022-09-04T14:17:04Z</time>
      </trkpt>
      <trkpt lat="46.7385" lon="5.68034">
        <ele>526.5</ele>
        <time>2022-09-04T14:17:10Z</time>
      </trkpt>
      <trkpt lat="46.7385" lon="5.68026">
        <ele>526.1</ele>
        <time>2022-09-04T14:17:15Z</time>
      </trkpt>
      <trkpt lat="46.73851" lon="5.68019">
        <ele>525.6</ele>
        <time>2022-09-04T14:17:21Z</time>
      </trkpt>
      <trkpt lat="46.73851" lon="5.68012">
        <ele>525.5</ele>
        <time>2022-09-04T14:17:25Z</time>
      </trkpt>
      <trkpt lat="46.7385" lon="5.68005">
        <ele>525.4</ele>
        <time>2022-09-04T14:17:29Z</time>
      </trkpt>
      <trkpt lat="46.73851" lon="5.67998">
        <ele>525.1</ele>
        <time>2022-09-04T14:17:34Z</time>
      </trkpt>
      <trkpt lat="46.73849" lon="5.67992">
        <ele>523.7</ele>
        <time>2022-09-04T14:17:46Z</time>
      </trkpt>
      <trkpt lat="46.7385" lon="5.67984">
        <ele>523</ele>
        <time>2022-09-04T14:17:52Z</time>
      </trkpt>
      <trkpt lat="46.73852" lon="5.67978">
        <ele>522.6</ele>
        <time>2022-09-04T14:17:56Z</time>
      </trkpt>
      <trkpt lat="46.73853" lon="5.67971">
        <ele>522.5</ele>
        <time>2022-09-04T14:18:00Z</time>
      </trkpt>
      <trkpt lat="46.73855" lon="5.67964">
        <ele>522.5</ele>
        <time>2022-09-04T14:18:05Z</time>
      </trkpt>
      <trkpt lat="46.73856" lon="5.67958">
        <ele>522.7</ele>
        <time>2022-09-04T14:18:09Z</time>
      </trkpt>
      <trkpt lat="46.73857" lon="5.67951">
        <ele>522.8</ele>
        <time>2022-09-04T14:18:14Z</time>
      </trkpt>
      <trkpt lat="46.73859" lon="5.67944">
        <ele>522.6</ele>
        <time>2022-09-04T14:18:19Z</time>
      </trkpt>
      <trkpt lat="46.73861" lon="5.67937">
        <ele>522.7</ele>
        <time>2022-09-04T14:18:25Z</time>
      </trkpt>
      <trkpt lat="46.73863" lon="5.67932">
        <ele>522.8</ele>
        <time>2022-09-04T14:18:30Z</time>
      </trkpt>
      <trkpt lat="46.73865" lon="5.67926">
        <ele>522.7</ele>
        <time>2022-09-04T14:18:34Z</time>
      </trkpt>
      <trkpt lat="46.73867" lon="5.67917">
        <ele>522.2</ele>
        <time>2022-09-04T14:18:38Z</time>
      </trkpt>
      <trkpt lat="46.73867" lon="5.6791">
        <ele>521.7</ele>
        <time>2022-09-04T14:18:41Z</time>
      </trkpt>
      <trkpt lat="46.73868" lon="5.67902">
        <ele>521.3</ele>
        <time>2022-09-04T14:18:45Z</time>
      </trkpt>
      <trkpt lat="46.73869" lon="5.67896">
        <ele>521.1</ele>
        <time>2022-09-04T14:18:49Z</time>
      </trkpt>
      <trkpt lat="46.73871" lon="5.67888">
        <ele>521</ele>
        <time>2022-09-04T14:18:53Z</time>
      </trkpt>
      <trkpt lat="46.73872" lon="5.6788">
        <ele>521.1</ele>
        <time>2022-09-04T14:18:57Z</time>
      </trkpt>
      <trkpt lat="46.73873" lon="5.67873">
        <ele>521.8</ele>
        <time>2022-09-04T14:19:01Z</time>
      </trkpt>
      <trkpt lat="46.73875" lon="5.67865">
        <ele>523.2</ele>
        <time>2022-09-04T14:19:05Z</time>
      </trkpt>
      <trkpt lat="46.73878" lon="5.67859">
        <ele>524.9</ele>
        <time>2022-09-04T14:19:11Z</time>
      </trkpt>
      <trkpt lat="46.73879" lon="5.67853">
        <ele>525.6</ele>
        <time>2022-09-04T14:19:15Z</time>
      </trkpt>
      <trkpt lat="46.7388" lon="5.67845">
        <ele>525.6</ele>
        <time>2022-09-04T14:19:19Z</time>
      </trkpt>
      <trkpt lat="46.73881" lon="5.67838">
        <ele>525.7</ele>
        <time>2022-09-04T14:19:23Z</time>
      </trkpt>
      <trkpt lat="46.73881" lon="5.6783">
        <ele>525.8</ele>
        <time>2022-09-04T14:19:27Z</time>
      </trkpt>
      <trkpt lat="46.73883" lon="5.67824">
        <ele>526</ele>
        <time>2022-09-04T14:19:33Z</time>
      </trkpt>
      <trkpt lat="46.73885" lon="5.67818">
        <ele>525.8</ele>
        <time>2022-09-04T14:19:39Z</time>
      </trkpt>
      <trkpt lat="46.73888" lon="5.67812">
        <ele>525.1</ele>
        <time>2022-09-04T14:19:45Z</time>
      </trkpt>
      <trkpt lat="46.73891" lon="5.67805">
        <ele>523.9</ele>
        <time>2022-09-04T14:19:51Z</time>
      </trkpt>
      <trkpt lat="46.73893" lon="5.67798">
        <ele>523.2</ele>
        <time>2022-09-04T14:19:56Z</time>
      </trkpt>
      <trkpt lat="46.73894" lon="5.67792">
        <ele>522.7</ele>
        <time>2022-09-04T14:20:00Z</time>
      </trkpt>
      <trkpt lat="46.73896" lon="5.67785">
        <ele>522.4</ele>
        <time>2022-09-04T14:20:05Z</time>
      </trkpt>
      <trkpt lat="46.73898" lon="5.67779">
        <ele>522.3</ele>
        <time>2022-09-04T14:20:10Z</time>
      </trkpt>
      <trkpt lat="46.73898" lon="5.67772">
        <ele>522.4</ele>
        <time>2022-09-04T14:20:15Z</time>
      </trkpt>
      <trkpt lat="46.73901" lon="5.67766">
        <ele>522.8</ele>
        <time>2022-09-04T14:20:44Z</time>
      </trkpt>
      <trkpt lat="46.73902" lon="5.6776">
        <ele>523.2</ele>
        <time>2022-09-04T14:20:50Z</time>
      </trkpt>
      <trkpt lat="46.73905" lon="5.67753">
        <ele>523.8</ele>
        <time>2022-09-04T14:20:56Z</time>
      </trkpt>
      <trkpt lat="46.73908" lon="5.67747">
        <ele>524.3</ele>
        <time>2022-09-04T14:21:01Z</time>
      </trkpt>
      <trkpt lat="46.7391" lon="5.67741">
        <ele>524.9</ele>
        <time>2022-09-04T14:21:05Z</time>
      </trkpt>
      <trkpt lat="46.73913" lon="5.67734">
        <ele>525.3</ele>
        <time>2022-09-04T14:21:10Z</time>
      </trkpt>
      <trkpt lat="46.73914" lon="5.67725">
        <ele>525.7</ele>
        <time>2022-09-04T14:21:14Z</time>
      </trkpt>
      <trkpt lat="46.73914" lon="5.67718">
        <ele>526.2</ele>
        <time>2022-09-04T14:21:18Z</time>
      </trkpt>
      <trkpt lat="46.73913" lon="5.67711">
        <ele>526.8</ele>
        <time>2022-09-04T14:21:22Z</time>
      </trkpt>
      <trkpt lat="46.73914" lon="5.67703">
        <ele>527.3</ele>
        <time>2022-09-04T14:21:26Z</time>
      </trkpt>
      <trkpt lat="46.73914" lon="5.67695">
        <ele>527.7</ele>
        <time>2022-09-04T14:21:31Z</time>
      </trkpt>
      <trkpt lat="46.73916" lon="5.67688">
        <ele>527.5</ele>
        <time>2022-09-04T14:21:36Z</time>
      </trkpt>
      <trkpt lat="46.73916" lon="5.6768">
        <ele>526.8</ele>
        <time>2022-09-04T14:21:41Z</time>
      </trkpt>
      <trkpt lat="46.73917" lon="5.67672">
        <ele>526.6</ele>
        <time>2022-09-04T14:21:45Z</time>
      </trkpt>
      <trkpt lat="46.73919" lon="5.67666">
        <ele>526.8</ele>
        <time>2022-09-04T14:21:49Z</time>
      </trkpt>
      <trkpt lat="46.73921" lon="5.67659">
        <ele>527.6</ele>
        <time>2022-09-04T14:21:54Z</time>
      </trkpt>
      <trkpt lat="46.73922" lon="5.67652">
        <ele>528.3</ele>
        <time>2022-09-04T14:22:00Z</time>
      </trkpt>
      <trkpt lat="46.73923" lon="5.67645">
        <ele>528.8</ele>
        <time>2022-09-04T14:22:05Z</time>
      </trkpt>
      <trkpt lat="46.73924" lon="5.67638">
        <ele>528.8</ele>
        <time>2022-09-04T14:22:10Z</time>
      </trkpt>
      <trkpt lat="46.73924" lon="5.67631">
        <ele>528.2</ele>
        <time>2022-09-04T14:22:15Z</time>
      </trkpt>
      <trkpt lat="46.73926" lon="5.67623">
        <ele>527.7</ele>
        <time>2022-09-04T14:22:19Z</time>
      </trkpt>
      <trkpt lat="46.73928" lon="5.67616">
        <ele>527.2</ele>
        <time>2022-09-04T14:22:23Z</time>
      </trkpt>
      <trkpt lat="46.7393" lon="5.67609">
        <ele>526.8</ele>
        <time>2022-09-04T14:22:28Z</time>
      </trkpt>
      <trkpt lat="46.7393" lon="5.67602">
        <ele>526.3</ele>
        <time>2022-09-04T14:22:33Z</time>
      </trkpt>
      <trkpt lat="46.73931" lon="5.67596">
        <ele>525.9</ele>
        <time>2022-09-04T14:22:38Z</time>
      </trkpt>
      <trkpt lat="46.73933" lon="5.67589">
        <ele>525</ele>
        <time>2022-09-04T14:22:43Z</time>
      </trkpt>
      <trkpt lat="46.73937" lon="5.67583">
        <ele>523.8</ele>
        <time>2022-09-04T14:22:49Z</time>
      </trkpt>
      <trkpt lat="46.73938" lon="5.67576">
        <ele>522.9</ele>
        <time>2022-09-04T14:22:54Z</time>
      </trkpt>
      <trkpt lat="46.7394" lon="5.67568">
        <ele>522.1</ele>
        <time>2022-09-04T14:22:58Z</time>
      </trkpt>
      <trkpt lat="46.73941" lon="5.67561">
        <ele>521.3</ele>
        <time>2022-09-04T14:23:02Z</time>
      </trkpt>
      <trkpt lat="46.73944" lon="5.67554">
        <ele>520.9</ele>
        <time>2022-09-04T14:23:07Z</time>
      </trkpt>
      <trkpt lat="46.73947" lon="5.67548">
        <ele>520.6</ele>
        <time>2022-09-04T14:23:11Z</time>
      </trkpt>
      <trkpt lat="46.73949" lon="5.67542">
        <ele>520.5</ele>
        <time>2022-09-04T14:23:15Z</time>
      </trkpt>
      <trkpt lat="46.73951" lon="5.67536">
        <ele>520.3</ele>
        <time>2022-09-04T14:23:20Z</time>
      </trkpt>
      <trkpt lat="46.73952" lon="5.67528">
        <ele>520.2</ele>
        <time>2022-09-04T14:23:25Z</time>
      </trkpt>
      <trkpt lat="46.73954" lon="5.67521">
        <ele>519.7</ele>
        <time>2022-09-04T14:23:30Z</time>
      </trkpt>
      <trkpt lat="46.73957" lon="5.67516">
        <ele>519.4</ele>
        <time>2022-09-04T14:23:36Z</time>
      </trkpt>
      <trkpt lat="46.7396" lon="5.6751">
        <ele>519.3</ele>
        <time>2022-09-04T14:23:43Z</time>
      </trkpt>
      <trkpt lat="46.73963" lon="5.67503">
        <ele>519.2</ele>
        <time>2022-09-04T14:23:48Z</time>
      </trkpt>
      <trkpt lat="46.73967" lon="5.675">
        <ele>518.5</ele>
        <time>2022-09-04T14:23:52Z</time>
      </trkpt>
      <trkpt lat="46.7397" lon="5.67495">
        <ele>516.2</ele>
        <time>2022-09-04T14:23:57Z</time>
      </trkpt>
      <trkpt lat="46.73974" lon="5.67489">
        <ele>513.2</ele>
        <time>2022-09-04T14:24:02Z</time>
      </trkpt>
      <trkpt lat="46.73978" lon="5.67487">
        <ele>511.3</ele>
        <time>2022-09-04T14:24:08Z</time>
      </trkpt>
      <trkpt lat="46.73983" lon="5.67483">
        <ele>510.6</ele>
        <time>2022-09-04T14:24:13Z</time>
      </trkpt>
      <trkpt lat="46.73987" lon="5.67479">
        <ele>510</ele>
        <time>2022-09-04T14:24:17Z</time>
      </trkpt>
      <trkpt lat="46.73991" lon="5.67473">
        <ele>509.9</ele>
        <time>2022-09-04T14:24:21Z</time>
      </trkpt>
      <trkpt lat="46.73994" lon="5.67467">
        <ele>510.3</ele>
        <time>2022-09-04T14:24:26Z</time>
      </trkpt>
      <trkpt lat="46.73998" lon="5.67462">
        <ele>510.5</ele>
        <time>2022-09-04T14:24:31Z</time>
      </trkpt>
      <trkpt lat="46.74002" lon="5.67458">
        <ele>510.6</ele>
        <time>2022-09-04T14:24:36Z</time>
      </trkpt>
      <trkpt lat="46.74006" lon="5.67453">
        <ele>511</ele>
        <time>2022-09-04T14:24:41Z</time>
      </trkpt>
      <trkpt lat="46.74009" lon="5.67449">
        <ele>511.5</ele>
        <time>2022-09-04T14:24:46Z</time>
      </trkpt>
      <trkpt lat="46.74012" lon="5.67444">
        <ele>511.7</ele>
        <time>2022-09-04T14:24:52Z</time>
      </trkpt>
      <trkpt lat="46.74016" lon="5.67439">
        <ele>511.4</ele>
        <time>2022-09-04T14:24:58Z</time>
      </trkpt>
      <trkpt lat="46.74019" lon="5.67434">
        <ele>510.9</ele>
        <time>2022-09-04T14:25:03Z</time>
      </trkpt>
      <trkpt lat="46.74024" lon="5.67431">
        <ele>510.1</ele>
        <time>2022-09-04T14:25:07Z</time>
      </trkpt>
      <trkpt lat="46.74029" lon="5.67429">
        <ele>509.2</ele>
        <time>2022-09-04T14:25:11Z</time>
      </trkpt>
      <trkpt lat="46.74034" lon="5.67428">
        <ele>508.7</ele>
        <time>2022-09-04T14:25:15Z</time>
      </trkpt>
      <trkpt lat="46.74038" lon="5.67428">
        <ele>508.5</ele>
        <time>2022-09-04T14:25:19Z</time>
      </trkpt>
      <trkpt lat="46.74044" lon="5.67429">
        <ele>508.1</ele>
        <time>2022-09-04T14:25:24Z</time>
      </trkpt>
      <trkpt lat="46.74049" lon="5.6743">
        <ele>508.1</ele>
        <time>2022-09-04T14:25:28Z</time>
      </trkpt>
      <trkpt lat="46.74055" lon="5.67429">
        <ele>508.7</ele>
        <time>2022-09-04T14:25:32Z</time>
      </trkpt>
      <trkpt lat="46.7406" lon="5.67429">
        <ele>509.2</ele>
        <time>2022-09-04T14:25:36Z</time>
      </trkpt>
      <trkpt lat="46.74065" lon="5.6743">
        <ele>509.8</ele>
        <time>2022-09-04T14:25:40Z</time>
      </trkpt>
      <trkpt lat="46.7407" lon="5.6743">
        <ele>510.8</ele>
        <time>2022-09-04T14:25:48Z</time>
      </trkpt>
      <trkpt lat="46.74075" lon="5.67429">
        <ele>511</ele>
        <time>2022-09-04T14:25:54Z</time>
      </trkpt>
      <trkpt lat="46.7408" lon="5.67426">
        <ele>511.2</ele>
        <time>2022-09-04T14:25:58Z</time>
      </trkpt>
      <trkpt lat="46.74085" lon="5.67425">
        <ele>509.9</ele>
        <time>2022-09-04T14:26:04Z</time>
      </trkpt>
      <trkpt lat="46.74089" lon="5.67425">
        <ele>508.9</ele>
        <time>2022-09-04T14:26:08Z</time>
      </trkpt>
      <trkpt lat="46.74094" lon="5.67426">
        <ele>508.1</ele>
        <time>2022-09-04T14:26:14Z</time>
      </trkpt>
      <trkpt lat="46.741" lon="5.67424">
        <ele>508.2</ele>
        <time>2022-09-04T14:26:19Z</time>
      </trkpt>
      <trkpt lat="46.74105" lon="5.67422">
        <ele>508.2</ele>
        <time>2022-09-04T14:26:23Z</time>
      </trkpt>
      <trkpt lat="46.74111" lon="5.67421">
        <ele>508.4</ele>
        <time>2022-09-04T14:26:28Z</time>
      </trkpt>
      <trkpt lat="46.74115" lon="5.67419">
        <ele>508.6</ele>
        <time>2022-09-04T14:26:32Z</time>
      </trkpt>
      <trkpt lat="46.74119" lon="5.67417">
        <ele>508.9</ele>
        <time>2022-09-04T14:26:35Z</time>
      </trkpt>
      <trkpt lat="46.74124" lon="5.67414">
        <ele>509.1</ele>
        <time>2022-09-04T14:26:39Z</time>
      </trkpt>
      <trkpt lat="46.74128" lon="5.67408">
        <ele>509.5</ele>
        <time>2022-09-04T14:26:43Z</time>
      </trkpt>
      <trkpt lat="46.74131" lon="5.67402">
        <ele>510.3</ele>
        <time>2022-09-04T14:26:47Z</time>
      </trkpt>
      <trkpt lat="46.74135" lon="5.67398">
        <ele>511.5</ele>
        <time>2022-09-04T14:26:51Z</time>
      </trkpt>
      <trkpt lat="46.74139" lon="5.67393">
        <ele>512.9</ele>
        <time>2022-09-04T14:26:56Z</time>
      </trkpt>
      <trkpt lat="46.74142" lon="5.67388">
        <ele>513.7</ele>
        <time>2022-09-04T14:27:01Z</time>
      </trkpt>
      <trkpt lat="46.74146" lon="5.67384">
        <ele>513.7</ele>
        <time>2022-09-04T14:27:07Z</time>
      </trkpt>
      <trkpt lat="46.7415" lon="5.67379">
        <ele>513.6</ele>
        <time>2022-09-04T14:27:11Z</time>
      </trkpt>
      <trkpt lat="46.74153" lon="5.67374">
        <ele>513.4</ele>
        <time>2022-09-04T14:27:15Z</time>
      </trkpt>
      <trkpt lat="46.74157" lon="5.6737">
        <ele>513.2</ele>
        <time>2022-09-04T14:27:19Z</time>
      </trkpt>
      <trkpt lat="46.74162" lon="5.67369">
        <ele>512.9</ele>
        <time>2022-09-04T14:27:26Z</time>
      </trkpt>
      <trkpt lat="46.74166" lon="5.67367">
        <ele>513.1</ele>
        <time>2022-09-04T14:27:32Z</time>
      </trkpt>
      <trkpt lat="46.74171" lon="5.67367">
        <ele>512.7</ele>
        <time>2022-09-04T14:27:38Z</time>
      </trkpt>
      <trkpt lat="46.74175" lon="5.67363">
        <ele>512.4</ele>
        <time>2022-09-04T14:27:42Z</time>
      </trkpt>
      <trkpt lat="46.74179" lon="5.67357">
        <ele>512.3</ele>
        <time>2022-09-04T14:27:46Z</time>
      </trkpt>
      <trkpt lat="46.74183" lon="5.67353">
        <ele>512.2</ele>
        <time>2022-09-04T14:27:50Z</time>
      </trkpt>
      <trkpt lat="46.74188" lon="5.6735">
        <ele>512.1</ele>
        <time>2022-09-04T14:27:54Z</time>
      </trkpt>
      <trkpt lat="46.74193" lon="5.67347">
        <ele>512.1</ele>
        <time>2022-09-04T14:27:58Z</time>
      </trkpt>
      <trkpt lat="46.74197" lon="5.67343">
        <ele>512.2</ele>
        <time>2022-09-04T14:28:01Z</time>
      </trkpt>
      <trkpt lat="46.74201" lon="5.6734">
        <ele>512.4</ele>
        <time>2022-09-04T14:28:05Z</time>
      </trkpt>
      <trkpt lat="46.74206" lon="5.67337">
        <ele>513</ele>
        <time>2022-09-04T14:28:10Z</time>
      </trkpt>
      <trkpt lat="46.74211" lon="5.67338">
        <ele>513.6</ele>
        <time>2022-09-04T14:28:16Z</time>
      </trkpt>
      <trkpt lat="46.74216" lon="5.6734">
        <ele>513.5</ele>
        <time>2022-09-04T14:28:21Z</time>
      </trkpt>
      <trkpt lat="46.74221" lon="5.67341">
        <ele>512.7</ele>
        <time>2022-09-04T14:28:26Z</time>
      </trkpt>
      <trkpt lat="46.74226" lon="5.67341">
        <ele>511.9</ele>
        <time>2022-09-04T14:28:32Z</time>
      </trkpt>
      <trkpt lat="46.7423" lon="5.67345">
        <ele>511</ele>
        <time>2022-09-04T14:28:39Z</time>
      </trkpt>
      <trkpt lat="46.74234" lon="5.67349">
        <ele>510.5</ele>
        <time>2022-09-04T14:28:45Z</time>
      </trkpt>
      <trkpt lat="46.7424" lon="5.67348">
        <ele>511.2</ele>
        <time>2022-09-04T14:28:49Z</time>
      </trkpt>
      <trkpt lat="46.74245" lon="5.67347">
        <ele>512.2</ele>
        <time>2022-09-04T14:28:52Z</time>
      </trkpt>
      <trkpt lat="46.7425" lon="5.67349">
        <ele>513.3</ele>
        <time>2022-09-04T14:28:55Z</time>
      </trkpt>
      <trkpt lat="46.74256" lon="5.67351">
        <ele>514</ele>
        <time>2022-09-04T14:28:59Z</time>
      </trkpt>
      <trkpt lat="46.7426" lon="5.67351">
        <ele>514.5</ele>
        <time>2022-09-04T14:29:04Z</time>
      </trkpt>
      <trkpt lat="46.74265" lon="5.67351">
        <ele>514.6</ele>
        <time>2022-09-04T14:29:10Z</time>
      </trkpt>
      <trkpt lat="46.7427" lon="5.67351">
        <ele>514.3</ele>
        <time>2022-09-04T14:29:15Z</time>
      </trkpt>
      <trkpt lat="46.74275" lon="5.67351">
        <ele>513.9</ele>
        <time>2022-09-04T14:29:20Z</time>
      </trkpt>
      <trkpt lat="46.7428" lon="5.6735">
        <ele>513.8</ele>
        <time>2022-09-04T14:29:24Z</time>
      </trkpt>
      <trkpt lat="46.74285" lon="5.67348">
        <ele>513.6</ele>
        <time>2022-09-04T14:29:29Z</time>
      </trkpt>
      <trkpt lat="46.7429" lon="5.67346">
        <ele>512.8</ele>
        <time>2022-09-04T14:29:35Z</time>
      </trkpt>
      <trkpt lat="46.74295" lon="5.67344">
        <ele>511.9</ele>
        <time>2022-09-04T14:29:40Z</time>
      </trkpt>
      <trkpt lat="46.743" lon="5.67344">
        <ele>511.8</ele>
        <time>2022-09-04T14:29:44Z</time>
      </trkpt>
      <trkpt lat="46.74304" lon="5.67343">
        <ele>511.9</ele>
        <time>2022-09-04T14:29:49Z</time>
      </trkpt>
      <trkpt lat="46.74309" lon="5.67342">
        <ele>511.9</ele>
        <time>2022-09-04T14:29:54Z</time>
      </trkpt>
      <trkpt lat="46.74314" lon="5.67341">
        <ele>511.5</ele>
        <time>2022-09-04T14:29:59Z</time>
      </trkpt>
      <trkpt lat="46.7432" lon="5.6734">
        <ele>510.9</ele>
        <time>2022-09-04T14:30:04Z</time>
      </trkpt>
      <trkpt lat="46.74324" lon="5.67336">
        <ele>510.5</ele>
        <time>2022-09-04T14:30:08Z</time>
      </trkpt>
      <trkpt lat="46.74329" lon="5.67332">
        <ele>510</ele>
        <time>2022-09-04T14:30:12Z</time>
      </trkpt>
      <trkpt lat="46.74334" lon="5.6733">
        <ele>510.8</ele>
        <time>2022-09-04T14:30:16Z</time>
      </trkpt>
      <trkpt lat="46.74338" lon="5.67325">
        <ele>513</ele>
        <time>2022-09-04T14:30:21Z</time>
      </trkpt>
      <trkpt lat="46.74341" lon="5.6732">
        <ele>514.5</ele>
        <time>2022-09-04T14:30:27Z</time>
      </trkpt>
      <trkpt lat="46.74345" lon="5.67317">
        <ele>515.2</ele>
        <time>2022-09-04T14:30:33Z</time>
      </trkpt>
      <trkpt lat="46.7435" lon="5.67319">
        <ele>515.9</ele>
        <time>2022-09-04T14:30:40Z</time>
      </trkpt>
      <trkpt lat="46.74354" lon="5.67323">
        <ele>515.8</ele>
        <time>2022-09-04T14:30:45Z</time>
      </trkpt>
      <trkpt lat="46.74358" lon="5.67327">
        <ele>515.4</ele>
        <time>2022-09-04T14:30:49Z</time>
      </trkpt>
      <trkpt lat="46.74362" lon="5.67331">
        <ele>515.1</ele>
        <time>2022-09-04T14:30:54Z</time>
      </trkpt>
      <trkpt lat="46.74367" lon="5.67334">
        <ele>514.5</ele>
        <time>2022-09-04T14:30:59Z</time>
      </trkpt>
      <trkpt lat="46.74371" lon="5.67337">
        <ele>511.7</ele>
        <time>2022-09-04T14:31:07Z</time>
      </trkpt>
      <trkpt lat="46.74377" lon="5.67336">
        <ele>511</ele>
        <time>2022-09-04T14:31:12Z</time>
      </trkpt>
      <trkpt lat="46.74382" lon="5.67333">
        <ele>510.8</ele>
        <time>2022-09-04T14:31:16Z</time>
      </trkpt>
      <trkpt lat="46.74386" lon="5.67329">
        <ele>511.4</ele>
        <time>2022-09-04T14:31:22Z</time>
      </trkpt>
      <trkpt lat="46.7439" lon="5.67324">
        <ele>511.6</ele>
        <time>2022-09-04T14:31:27Z</time>
      </trkpt>
      <trkpt lat="46.74394" lon="5.6732">
        <ele>511.7</ele>
        <time>2022-09-04T14:31:31Z</time>
      </trkpt>
      <trkpt lat="46.74397" lon="5.67315">
        <ele>511.8</ele>
        <time>2022-09-04T14:31:36Z</time>
      </trkpt>
      <trkpt lat="46.74401" lon="5.67311">
        <ele>511.5</ele>
        <time>2022-09-04T14:31:40Z</time>
      </trkpt>
      <trkpt lat="46.74405" lon="5.67306">
        <ele>511.3</ele>
        <time>2022-09-04T14:31:44Z</time>
      </trkpt>
      <trkpt lat="46.74409" lon="5.67301">
        <ele>511</ele>
        <time>2022-09-04T14:31:48Z</time>
      </trkpt>
      <trkpt lat="46.74412" lon="5.67296">
        <ele>510.5</ele>
        <time>2022-09-04T14:31:55Z</time>
      </trkpt>
      <trkpt lat="46.74415" lon="5.6729">
        <ele>510.3</ele>
        <time>2022-09-04T14:32:03Z</time>
      </trkpt>
      <trkpt lat="46.74418" lon="5.67285">
        <ele>510.3</ele>
        <time>2022-09-04T14:32:08Z</time>
      </trkpt>
      <trkpt lat="46.74421" lon="5.67278">
        <ele>510.2</ele>
        <time>2022-09-04T14:32:13Z</time>
      </trkpt>
      <trkpt lat="46.74423" lon="5.67272">
        <ele>510.1</ele>
        <time>2022-09-04T14:32:17Z</time>
      </trkpt>
      <trkpt lat="46.74426" lon="5.67265">
        <ele>509.7</ele>
        <time>2022-09-04T14:32:22Z</time>
      </trkpt>
      <trkpt lat="46.74428" lon="5.67258">
        <ele>509.1</ele>
        <time>2022-09-04T14:32:27Z</time>
      </trkpt>
      <trkpt lat="46.7443" lon="5.6725">
        <ele>508.3</ele>
        <time>2022-09-04T14:32:32Z</time>
      </trkpt>
      <trkpt lat="46.74432" lon="5.67244">
        <ele>507.6</ele>
        <time>2022-09-04T14:32:37Z</time>
      </trkpt>
      <trkpt lat="46.74434" lon="5.67237">
        <ele>507</ele>
        <time>2022-09-04T14:32:41Z</time>
      </trkpt>
      <trkpt lat="46.74436" lon="5.67231">
        <ele>506.2</ele>
        <time>2022-09-04T14:32:45Z</time>
      </trkpt>
      <trkpt lat="46.74439" lon="5.67225">
        <ele>505.1</ele>
        <time>2022-09-04T14:32:50Z</time>
      </trkpt>
      <trkpt lat="46.74443" lon="5.67221">
        <ele>503.6</ele>
        <time>2022-09-04T14:32:56Z</time>
      </trkpt>
      <trkpt lat="46.74448" lon="5.67219">
        <ele>502.4</ele>
        <time>2022-09-04T14:33:02Z</time>
      </trkpt>
      <trkpt lat="46.74451" lon="5.67213">
        <ele>501.8</ele>
        <time>2022-09-04T14:33:08Z</time>
      </trkpt>
      <trkpt lat="46.74451" lon="5.67206">
        <ele>501.3</ele>
        <time>2022-09-04T14:33:14Z</time>
      </trkpt>
      <trkpt lat="46.74451" lon="5.67198">
        <ele>501.1</ele>
        <time>2022-09-04T14:33:20Z</time>
      </trkpt>
      <trkpt lat="46.74449" lon="5.67191">
        <ele>501.2</ele>
        <time>2022-09-04T14:33:25Z</time>
      </trkpt>
      <trkpt lat="46.74447" lon="5.67184">
        <ele>500.9</ele>
        <time>2022-09-04T14:33:31Z</time>
      </trkpt>
      <trkpt lat="46.74444" lon="5.67179">
        <ele>502.7</ele>
        <time>2022-09-04T14:33:54Z</time>
      </trkpt>
      <trkpt lat="46.74442" lon="5.67173">
        <ele>503.3</ele>
        <time>2022-09-04T14:34:03Z</time>
      </trkpt>
      <trkpt lat="46.7444" lon="5.67166">
        <ele>505.1</ele>
        <time>2022-09-04T14:34:09Z</time>
      </trkpt>
      <trkpt lat="46.7444" lon="5.67158">
        <ele>506.4</ele>
        <time>2022-09-04T14:34:15Z</time>
      </trkpt>
      <trkpt lat="46.74438" lon="5.67152">
        <ele>508</ele>
        <time>2022-09-04T14:34:22Z</time>
      </trkpt>
      <trkpt lat="46.74437" lon="5.67146">
        <ele>511.2</ele>
        <time>2022-09-04T14:34:32Z</time>
      </trkpt>
      <trkpt lat="46.74437" lon="5.67139">
        <ele>513.4</ele>
        <time>2022-09-04T14:34:39Z</time>
      </trkpt>
      <trkpt lat="46.74442" lon="5.67137">
        <ele>515.6</ele>
        <time>2022-09-04T14:35:15Z</time>
      </trkpt>
      <trkpt lat="46.7444" lon="5.67143">
        <ele>515.3</ele>
        <time>2022-09-04T14:35:41Z</time>
      </trkpt>
      <trkpt lat="46.74439" lon="5.6715">
        <ele>514.6</ele>
        <time>2022-09-04T14:35:47Z</time>
      </trkpt>
      <trkpt lat="46.74437" lon="5.67156">
        <ele>513.6</ele>
        <time>2022-09-04T14:35:54Z</time>
      </trkpt>
      <trkpt lat="46.7444" lon="5.67162">
        <ele>513.3</ele>
        <time>2022-09-04T14:35:59Z</time>
      </trkpt>
      <trkpt lat="46.74443" lon="5.67168">
        <ele>512.4</ele>
        <time>2022-09-04T14:36:07Z</time>
      </trkpt>
      <trkpt lat="46.74445" lon="5.67174">
        <ele>511.6</ele>
        <time>2022-09-04T14:36:12Z</time>
      </trkpt>
      <trkpt lat="46.74448" lon="5.6718">
        <ele>511.5</ele>
        <time>2022-09-04T14:36:17Z</time>
      </trkpt>
      <trkpt lat="46.74451" lon="5.67185">
        <ele>511.1</ele>
        <time>2022-09-04T14:36:24Z</time>
      </trkpt>
      <trkpt lat="46.74453" lon="5.67191">
        <ele>509.2</ele>
        <time>2022-09-04T14:38:02Z</time>
      </trkpt>
      <trkpt lat="46.74451" lon="5.67197">
        <ele>502.9</ele>
        <time>2022-09-04T14:39:00Z</time>
      </trkpt>
      <trkpt lat="46.74452" lon="5.67204">
        <ele>502.1</ele>
        <time>2022-09-04T14:39:09Z</time>
      </trkpt>
      <trkpt lat="46.74451" lon="5.67211">
        <ele>501.7</ele>
        <time>2022-09-04T14:39:16Z</time>
      </trkpt>
      <trkpt lat="46.74449" lon="5.67218">
        <ele>501.9</ele>
        <time>2022-09-04T14:39:21Z</time>
      </trkpt>
      <trkpt lat="46.74446" lon="5.67224">
        <ele>502.2</ele>
        <time>2022-09-04T14:39:26Z</time>
      </trkpt>
      <trkpt lat="46.74451" lon="5.67225">
        <ele>503.6</ele>
        <time>2022-09-04T14:39:55Z</time>
      </trkpt>
      <trkpt lat="46.74454" lon="5.6723">
        <ele>503.4</ele>
        <time>2022-09-04T14:40:00Z</time>
      </trkpt>
      <trkpt lat="46.74457" lon="5.67235">
        <ele>503.1</ele>
        <time>2022-09-04T14:40:05Z</time>
      </trkpt>
      <trkpt lat="46.74461" lon="5.67241">
        <ele>502.4</ele>
        <time>2022-09-04T14:40:11Z</time>
      </trkpt>
      <trkpt lat="46.74464" lon="5.67247">
        <ele>501.6</ele>
        <time>2022-09-04T14:40:17Z</time>
      </trkpt>
      <trkpt lat="46.74467" lon="5.67252">
        <ele>500.6</ele>
        <time>2022-09-04T14:40:27Z</time>
      </trkpt>
      <trkpt lat="46.74469" lon="5.67259">
        <ele>500</ele>
        <time>2022-09-04T14:40:33Z</time>
      </trkpt>
      <trkpt lat="46.74473" lon="5.67262">
        <ele>499.1</ele>
        <time>2022-09-04T14:40:38Z</time>
      </trkpt>
      <trkpt lat="46.74477" lon="5.67267">
        <ele>498</ele>
        <time>2022-09-04T14:40:44Z</time>
      </trkpt>
      <trkpt lat="46.74481" lon="5.6727">
        <ele>497.3</ele>
        <time>2022-09-04T14:40:49Z</time>
      </trkpt>
      <trkpt lat="46.74485" lon="5.67275">
        <ele>496.5</ele>
        <time>2022-09-04T14:40:57Z</time>
      </trkpt>
      <trkpt lat="46.74489" lon="5.6728">
        <ele>495.7</ele>
        <time>2022-09-04T14:41:03Z</time>
      </trkpt>
      <trkpt lat="46.74492" lon="5.67286">
        <ele>494.3</ele>
        <time>2022-09-04T14:41:09Z</time>
      </trkpt>
      <trkpt lat="46.74491" lon="5.67293">
        <ele>492</ele>
        <time>2022-09-04T14:41:17Z</time>
      </trkpt>
      <trkpt lat="46.74495" lon="5.67299">
        <ele>490.5</ele>
        <time>2022-09-04T14:41:24Z</time>
      </trkpt>
      <trkpt lat="46.745" lon="5.67302">
        <ele>489.5</ele>
        <time>2022-09-04T14:41:28Z</time>
      </trkpt>
      <trkpt lat="46.74504" lon="5.67305">
        <ele>488.6</ele>
        <time>2022-09-04T14:41:32Z</time>
      </trkpt>
      <trkpt lat="46.74509" lon="5.67307">
        <ele>488.2</ele>
        <time>2022-09-04T14:41:36Z</time>
      </trkpt>
      <trkpt lat="46.74513" lon="5.67311">
        <ele>488.2</ele>
        <time>2022-09-04T14:41:44Z</time>
      </trkpt>
      <trkpt lat="46.74517" lon="5.67316">
        <ele>488.2</ele>
        <time>2022-09-04T14:41:49Z</time>
      </trkpt>
      <trkpt lat="46.7452" lon="5.6732">
        <ele>488.3</ele>
        <time>2022-09-04T14:41:54Z</time>
      </trkpt>
      <trkpt lat="46.74524" lon="5.67325">
        <ele>488.1</ele>
        <time>2022-09-04T14:41:58Z</time>
      </trkpt>
      <trkpt lat="46.74527" lon="5.6733">
        <ele>487.9</ele>
        <time>2022-09-04T14:42:03Z</time>
      </trkpt>
      <trkpt lat="46.74531" lon="5.67334">
        <ele>487.6</ele>
        <time>2022-09-04T14:42:08Z</time>
      </trkpt>
      <trkpt lat="46.74534" lon="5.67338">
        <ele>487.2</ele>
        <time>2022-09-04T14:42:13Z</time>
      </trkpt>
      <trkpt lat="46.7454" lon="5.67341">
        <ele>486.9</ele>
        <time>2022-09-04T14:42:17Z</time>
      </trkpt>
      <trkpt lat="46.74545" lon="5.67342">
        <ele>486.8</ele>
        <time>2022-09-04T14:42:22Z</time>
      </trkpt>
      <trkpt lat="46.7455" lon="5.67344">
        <ele>487.1</ele>
        <time>2022-09-04T14:42:26Z</time>
      </trkpt>
      <trkpt lat="46.74555" lon="5.67348">
        <ele>487</ele>
        <time>2022-09-04T14:42:32Z</time>
      </trkpt>
      <trkpt lat="46.74559" lon="5.67352">
        <ele>486.5</ele>
        <time>2022-09-04T14:42:38Z</time>
      </trkpt>
      <trkpt lat="46.74563" lon="5.67356">
        <ele>486.1</ele>
        <time>2022-09-04T14:42:45Z</time>
      </trkpt>
      <trkpt lat="46.74568" lon="5.67359">
        <ele>485.8</ele>
        <time>2022-09-04T14:42:50Z</time>
      </trkpt>
      <trkpt lat="46.74573" lon="5.67361">
        <ele>485.5</ele>
        <time>2022-09-04T14:42:55Z</time>
      </trkpt>
      <trkpt lat="46.74578" lon="5.67362">
        <ele>485.1</ele>
        <time>2022-09-04T14:43:00Z</time>
      </trkpt>
      <trkpt lat="46.74583" lon="5.67363">
        <ele>484.1</ele>
        <time>2022-09-04T14:43:07Z</time>
      </trkpt>
      <trkpt lat="46.74586" lon="5.67368">
        <ele>482</ele>
        <time>2022-09-04T14:43:14Z</time>
      </trkpt>
      <trkpt lat="46.74591" lon="5.67371">
        <ele>480.6</ele>
        <time>2022-09-04T14:43:20Z</time>
      </trkpt>
      <trkpt lat="46.74595" lon="5.67374">
        <ele>478.7</ele>
        <time>2022-09-04T14:43:30Z</time>
      </trkpt>
      <trkpt lat="46.746" lon="5.67376">
        <ele>477.5</ele>
        <time>2022-09-04T14:43:38Z</time>
      </trkpt>
      <trkpt lat="46.74604" lon="5.67377">
        <ele>477</ele>
        <time>2022-09-04T14:43:44Z</time>
      </trkpt>
      <trkpt lat="46.74609" lon="5.67376">
        <ele>476.8</ele>
        <time>2022-09-04T14:43:49Z</time>
      </trkpt>
      <trkpt lat="46.74614" lon="5.67376">
        <ele>476.4</ele>
        <time>2022-09-04T14:43:57Z</time>
      </trkpt>
      <trkpt lat="46.74617" lon="5.67371">
        <ele>475.2</ele>
        <time>2022-09-04T14:44:05Z</time>
      </trkpt>
      <trkpt lat="46.74616" lon="5.67365">
        <ele>474.7</ele>
        <time>2022-09-04T14:44:10Z</time>
      </trkpt>
      <trkpt lat="46.74612" lon="5.6736">
        <ele>473.3</ele>
        <time>2022-09-04T14:44:20Z</time>
      </trkpt>
      <trkpt lat="46.74607" lon="5.67361">
        <ele>472.4</ele>
        <time>2022-09-04T14:44:26Z</time>
      </trkpt>
      <trkpt lat="46.74603" lon="5.67358">
        <ele>471.9</ele>
        <time>2022-09-04T14:44:32Z</time>
      </trkpt>
      <trkpt lat="46.74598" lon="5.67355">
        <ele>472.1</ele>
        <time>2022-09-04T14:44:39Z</time>
      </trkpt>
      <trkpt lat="46.74594" lon="5.67351">
        <ele>473</ele>
        <time>2022-09-04T14:44:45Z</time>
      </trkpt>
      <trkpt lat="46.74591" lon="5.67346">
        <ele>474.2</ele>
        <time>2022-09-04T14:44:53Z</time>
      </trkpt>
      <trkpt lat="46.74588" lon="5.67338">
        <ele>475.1</ele>
        <time>2022-09-04T14:45:03Z</time>
      </trkpt>
      <trkpt lat="46.74586" lon="5.67332">
        <ele>474.9</ele>
        <time>2022-09-04T14:45:08Z</time>
      </trkpt>
      <trkpt lat="46.74583" lon="5.67325">
        <ele>474.4</ele>
        <time>2022-09-04T14:45:15Z</time>
      </trkpt>
      <trkpt lat="46.7458" lon="5.67319">
        <ele>474.7</ele>
        <time>2022-09-04T14:45:19Z</time>
      </trkpt>
      <trkpt lat="46.74578" lon="5.67313">
        <ele>475.1</ele>
        <time>2022-09-04T14:45:23Z</time>
      </trkpt>
      <trkpt lat="46.74575" lon="5.67307">
        <ele>475.4</ele>
        <time>2022-09-04T14:45:28Z</time>
      </trkpt>
      <trkpt lat="46.74573" lon="5.67301">
        <ele>475.4</ele>
        <time>2022-09-04T14:45:33Z</time>
      </trkpt>
      <trkpt lat="46.7457" lon="5.67295">
        <ele>474.7</ele>
        <time>2022-09-04T14:45:39Z</time>
      </trkpt>
      <trkpt lat="46.74566" lon="5.67289">
        <ele>474</ele>
        <time>2022-09-04T14:45:44Z</time>
      </trkpt>
      <trkpt lat="46.74564" lon="5.67283">
        <ele>472.6</ele>
        <time>2022-09-04T14:45:51Z</time>
      </trkpt>
      <trkpt lat="46.74562" lon="5.67276">
        <ele>470.9</ele>
        <time>2022-09-04T14:45:58Z</time>
      </trkpt>
      <trkpt lat="46.74562" lon="5.67269">
        <ele>468.8</ele>
        <time>2022-09-04T14:46:05Z</time>
      </trkpt>
      <trkpt lat="46.74561" lon="5.67263">
        <ele>466.3</ele>
        <time>2022-09-04T14:46:13Z</time>
      </trkpt>
      <trkpt lat="46.7456" lon="5.67256">
        <ele>465</ele>
        <time>2022-09-04T14:46:19Z</time>
      </trkpt>
      <trkpt lat="46.74556" lon="5.67251">
        <ele>464.4</ele>
        <time>2022-09-04T14:46:24Z</time>
      </trkpt>
      <trkpt lat="46.74554" lon="5.67244">
        <ele>463.2</ele>
        <time>2022-09-04T14:46:31Z</time>
      </trkpt>
      <trkpt lat="46.74551" lon="5.67239">
        <ele>461.5</ele>
        <time>2022-09-04T14:46:37Z</time>
      </trkpt>
      <trkpt lat="46.74549" lon="5.67233">
        <ele>460.8</ele>
        <time>2022-09-04T14:46:42Z</time>
      </trkpt>
      <trkpt lat="46.74548" lon="5.67226">
        <ele>460.3</ele>
        <time>2022-09-04T14:46:49Z</time>
      </trkpt>
      <trkpt lat="46.74545" lon="5.6722">
        <ele>459.7</ele>
        <time>2022-09-04T14:46:59Z</time>
      </trkpt>
      <trkpt lat="46.74542" lon="5.67215">
        <ele>458.7</ele>
        <time>2022-09-04T14:47:07Z</time>
      </trkpt>
      <trkpt lat="46.7454" lon="5.67208">
        <ele>457.3</ele>
        <time>2022-09-04T14:47:14Z</time>
      </trkpt>
      <trkpt lat="46.7454" lon="5.67201">
        <ele>456.6</ele>
        <time>2022-09-04T14:47:21Z</time>
      </trkpt>
      <trkpt lat="46.74539" lon="5.67195">
        <ele>455.4</ele>
        <time>2022-09-04T14:47:28Z</time>
      </trkpt>
      <trkpt lat="46.74541" lon="5.67188">
        <ele>453.4</ele>
        <time>2022-09-04T14:47:35Z</time>
      </trkpt>
      <trkpt lat="46.74542" lon="5.6718">
        <ele>450.3</ele>
        <time>2022-09-04T14:47:43Z</time>
      </trkpt>
      <trkpt lat="46.74542" lon="5.67173">
        <ele>447.5</ele>
        <time>2022-09-04T14:47:50Z</time>
      </trkpt>
      <trkpt lat="46.74542" lon="5.67167">
        <ele>444.8</ele>
        <time>2022-09-04T14:47:58Z</time>
      </trkpt>
      <trkpt lat="46.74544" lon="5.67161">
        <ele>442.4</ele>
        <time>2022-09-04T14:48:07Z</time>
      </trkpt>
      <trkpt lat="46.74545" lon="5.67154">
        <ele>441.2</ele>
        <time>2022-09-04T14:48:15Z</time>
      </trkpt>
      <trkpt lat="46.74545" lon="5.67147">
        <ele>439.9</ele>
        <time>2022-09-04T14:48:22Z</time>
      </trkpt>
      <trkpt lat="46.74543" lon="5.67141">
        <ele>437.5</ele>
        <time>2022-09-04T14:48:32Z</time>
      </trkpt>
      <trkpt lat="46.74539" lon="5.67136">
        <ele>436.3</ele>
        <time>2022-09-04T14:48:44Z</time>
      </trkpt>
      <trkpt lat="46.74536" lon="5.6713">
        <ele>436.2</ele>
        <time>2022-09-04T14:48:49Z</time>
      </trkpt>
      <trkpt lat="46.74535" lon="5.67124">
        <ele>435.5</ele>
        <time>2022-09-04T14:48:58Z</time>
      </trkpt>
      <trkpt lat="46.74535" lon="5.67117">
        <ele>435.2</ele>
        <time>2022-09-04T14:49:02Z</time>
      </trkpt>
      <trkpt lat="46.74536" lon="5.67109">
        <ele>434.7</ele>
        <time>2022-09-04T14:49:07Z</time>
      </trkpt>
      <trkpt lat="46.74539" lon="5.67103">
        <ele>433.5</ele>
        <time>2022-09-04T14:49:14Z</time>
      </trkpt>
      <trkpt lat="46.74545" lon="5.67103">
        <ele>431.1</ele>
        <time>2022-09-04T14:49:38Z</time>
      </trkpt>
      <trkpt lat="46.74549" lon="5.67107">
        <ele>430.6</ele>
        <time>2022-09-04T14:49:42Z</time>
      </trkpt>
      <trkpt lat="46.74554" lon="5.6711">
        <ele>430</ele>
        <time>2022-09-04T14:49:46Z</time>
      </trkpt>
      <trkpt lat="46.74559" lon="5.67112">
        <ele>429.5</ele>
        <time>2022-09-04T14:49:51Z</time>
      </trkpt>
      <trkpt lat="46.74563" lon="5.67116">
        <ele>428.6</ele>
        <time>2022-09-04T14:49:57Z</time>
      </trkpt>
      <trkpt lat="46.74564" lon="5.67123">
        <ele>427.6</ele>
        <time>2022-09-04T14:50:05Z</time>
      </trkpt>
      <trkpt lat="46.74567" lon="5.67128">
        <ele>427.3</ele>
        <time>2022-09-04T14:50:13Z</time>
      </trkpt>
      <trkpt lat="46.74571" lon="5.67132">
        <ele>427.3</ele>
        <time>2022-09-04T14:50:18Z</time>
      </trkpt>
      <trkpt lat="46.74575" lon="5.67135">
        <ele>426.9</ele>
        <time>2022-09-04T14:50:27Z</time>
      </trkpt>
      <trkpt lat="46.74578" lon="5.6714">
        <ele>424.2</ele>
        <time>2022-09-04T14:50:49Z</time>
      </trkpt>
      <trkpt lat="46.74581" lon="5.67146">
        <ele>423.1</ele>
        <time>2022-09-04T14:50:55Z</time>
      </trkpt>
      <trkpt lat="46.74584" lon="5.67152">
        <ele>421.9</ele>
        <time>2022-09-04T14:51:01Z</time>
      </trkpt>
      <trkpt lat="46.74587" lon="5.67157">
        <ele>421.2</ele>
        <time>2022-09-04T14:51:07Z</time>
      </trkpt>
      <trkpt lat="46.7459" lon="5.67162">
        <ele>420.4</ele>
        <time>2022-09-04T14:51:13Z</time>
      </trkpt>
      <trkpt lat="46.74593" lon="5.67167">
        <ele>420</ele>
        <time>2022-09-04T14:51:18Z</time>
      </trkpt>
      <trkpt lat="46.74597" lon="5.67174">
        <ele>419.1</ele>
        <time>2022-09-04T14:51:30Z</time>
      </trkpt>
      <trkpt lat="46.74602" lon="5.67178">
        <ele>418.3</ele>
        <time>2022-09-04T14:51:34Z</time>
      </trkpt>
      <trkpt lat="46.74606" lon="5.67181">
        <ele>417.1</ele>
        <time>2022-09-04T14:51:39Z</time>
      </trkpt>
      <trkpt lat="46.7461" lon="5.67185">
        <ele>415.7</ele>
        <time>2022-09-04T14:51:45Z</time>
      </trkpt>
      <trkpt lat="46.74614" lon="5.67189">
        <ele>414.4</ele>
        <time>2022-09-04T14:51:51Z</time>
      </trkpt>
      <trkpt lat="46.74618" lon="5.67192">
        <ele>413.1</ele>
        <time>2022-09-04T14:51:57Z</time>
      </trkpt>
      <trkpt lat="46.74623" lon="5.67196">
        <ele>412.5</ele>
        <time>2022-09-04T14:52:03Z</time>
      </trkpt>
      <trkpt lat="46.74627" lon="5.672">
        <ele>411</ele>
        <time>2022-09-04T14:52:14Z</time>
      </trkpt>
      <trkpt lat="46.74631" lon="5.67202">
        <ele>411.3</ele>
        <time>2022-09-04T14:52:31Z</time>
      </trkpt>
      <trkpt lat="46.74636" lon="5.67202">
        <ele>411.5</ele>
        <time>2022-09-04T14:52:34Z</time>
      </trkpt>
      <trkpt lat="46.74641" lon="5.67201">
        <ele>411.3</ele>
        <time>2022-09-04T14:52:39Z</time>
      </trkpt>
      <trkpt lat="46.74646" lon="5.67201">
        <ele>407.9</ele>
        <time>2022-09-04T14:53:00Z</time>
      </trkpt>
      <trkpt lat="46.74652" lon="5.67199">
        <ele>405.3</ele>
        <time>2022-09-04T14:53:15Z</time>
      </trkpt>
      <trkpt lat="46.74658" lon="5.67199">
        <ele>404</ele>
        <time>2022-09-04T14:53:19Z</time>
      </trkpt>
      <trkpt lat="46.74663" lon="5.67199">
        <ele>403</ele>
        <time>2022-09-04T14:53:23Z</time>
      </trkpt>
      <trkpt lat="46.74667" lon="5.67202">
        <ele>402.1</ele>
        <time>2022-09-04T14:53:29Z</time>
      </trkpt>
      <trkpt lat="46.74671" lon="5.67206">
        <ele>400.9</ele>
        <time>2022-09-04T14:53:37Z</time>
      </trkpt>
      <trkpt lat="46.74676" lon="5.67208">
        <ele>399.9</ele>
        <time>2022-09-04T14:53:45Z</time>
      </trkpt>
      <trkpt lat="46.74681" lon="5.67206">
        <ele>398.9</ele>
        <time>2022-09-04T14:53:56Z</time>
      </trkpt>
      <trkpt lat="46.74686" lon="5.67203">
        <ele>397.7</ele>
        <time>2022-09-04T14:54:11Z</time>
      </trkpt>
      <trkpt lat="46.7469" lon="5.67201">
        <ele>397.1</ele>
        <time>2022-09-04T14:54:15Z</time>
      </trkpt>
      <trkpt lat="46.74696" lon="5.67202">
        <ele>396.4</ele>
        <time>2022-09-04T14:54:21Z</time>
      </trkpt>
      <trkpt lat="46.747" lon="5.67202">
        <ele>395.7</ele>
        <time>2022-09-04T14:54:29Z</time>
      </trkpt>
      <trkpt lat="46.74705" lon="5.67203">
        <ele>395.4</ele>
        <time>2022-09-04T14:54:36Z</time>
      </trkpt>
      <trkpt lat="46.74708" lon="5.67209">
        <ele>395.6</ele>
        <time>2022-09-04T14:54:44Z</time>
      </trkpt>
      <trkpt lat="46.74709" lon="5.67216">
        <ele>394.8</ele>
        <time>2022-09-04T14:54:50Z</time>
      </trkpt>
      <trkpt lat="46.74713" lon="5.67221">
        <ele>394.3</ele>
        <time>2022-09-04T14:54:55Z</time>
      </trkpt>
      <trkpt lat="46.74716" lon="5.67227">
        <ele>393.2</ele>
        <time>2022-09-04T14:55:01Z</time>
      </trkpt>
      <trkpt lat="46.74719" lon="5.67232">
        <ele>391.4</ele>
        <time>2022-09-04T14:55:09Z</time>
      </trkpt>
      <trkpt lat="46.74723" lon="5.67237">
        <ele>390.3</ele>
        <time>2022-09-04T14:55:14Z</time>
      </trkpt>
      <trkpt lat="46.74728" lon="5.6724">
        <ele>389.8</ele>
        <time>2022-09-04T14:55:19Z</time>
      </trkpt>
      <trkpt lat="46.74731" lon="5.67244">
        <ele>389</ele>
        <time>2022-09-04T14:55:38Z</time>
      </trkpt>
      <trkpt lat="46.74736" lon="5.67243">
        <ele>387.9</ele>
        <time>2022-09-04T14:55:45Z</time>
      </trkpt>
      <trkpt lat="46.7474" lon="5.67241">
        <ele>387.7</ele>
        <time>2022-09-04T14:55:52Z</time>
      </trkpt>
      <trkpt lat="46.74744" lon="5.67236">
        <ele>388.3</ele>
        <time>2022-09-04T14:55:57Z</time>
      </trkpt>
      <trkpt lat="46.74747" lon="5.6723">
        <ele>389</ele>
        <time>2022-09-04T14:56:04Z</time>
      </trkpt>
      <trkpt lat="46.74745" lon="5.6722">
        <ele>387.2</ele>
        <time>2022-09-04T14:56:23Z</time>
      </trkpt>
      <trkpt lat="46.74745" lon="5.67213">
        <ele>386</ele>
        <time>2022-09-04T14:56:27Z</time>
      </trkpt>
      <trkpt lat="46.74748" lon="5.67206">
        <ele>383.8</ele>
        <time>2022-09-04T14:56:50Z</time>
      </trkpt>
      <trkpt lat="46.7475" lon="5.672">
        <ele>383</ele>
        <time>2022-09-04T14:56:54Z</time>
      </trkpt>
      <trkpt lat="46.74756" lon="5.67198">
        <ele>379.7</ele>
        <time>2022-09-04T14:57:14Z</time>
      </trkpt>
      <trkpt lat="46.7476" lon="5.672">
        <ele>378</ele>
        <time>2022-09-04T14:57:17Z</time>
      </trkpt>
      <trkpt lat="46.74762" lon="5.67206">
        <ele>374.2</ele>
        <time>2022-09-04T14:57:28Z</time>
      </trkpt>
      <trkpt lat="46.74766" lon="5.67211">
        <ele>371.4</ele>
        <time>2022-09-04T14:57:35Z</time>
      </trkpt>
      <trkpt lat="46.7477" lon="5.67215">
        <ele>369.1</ele>
        <time>2022-09-04T14:57:40Z</time>
      </trkpt>
      <trkpt lat="46.74773" lon="5.6722">
        <ele>367.5</ele>
        <time>2022-09-04T14:57:45Z</time>
      </trkpt>
      <trkpt lat="46.74775" lon="5.67226">
        <ele>365.5</ele>
        <time>2022-09-04T14:57:53Z</time>
      </trkpt>
      <trkpt lat="46.74776" lon="5.67234">
        <ele>364.9</ele>
        <time>2022-09-04T14:57:59Z</time>
      </trkpt>
      <trkpt lat="46.74777" lon="5.6724">
        <ele>364.3</ele>
        <time>2022-09-04T14:58:06Z</time>
      </trkpt>
      <trkpt lat="46.74778" lon="5.67247">
        <ele>362.2</ele>
        <time>2022-09-04T14:58:19Z</time>
      </trkpt>
      <trkpt lat="46.7478" lon="5.67253">
        <ele>361.6</ele>
        <time>2022-09-04T14:58:26Z</time>
      </trkpt>
      <trkpt lat="46.74783" lon="5.67259">
        <ele>360.9</ele>
        <time>2022-09-04T14:58:34Z</time>
      </trkpt>
      <trkpt lat="46.74786" lon="5.67266">
        <ele>358.7</ele>
        <time>2022-09-04T14:58:55Z</time>
      </trkpt>
      <trkpt lat="46.74788" lon="5.67272">
        <ele>356.4</ele>
        <time>2022-09-04T14:59:02Z</time>
      </trkpt>
      <trkpt lat="46.74791" lon="5.67277">
        <ele>353.5</ele>
        <time>2022-09-04T14:59:13Z</time>
      </trkpt>
      <trkpt lat="46.74796" lon="5.67281">
        <ele>350.9</ele>
        <time>2022-09-04T14:59:23Z</time>
      </trkpt>
      <trkpt lat="46.748" lon="5.67283">
        <ele>349.4</ele>
        <time>2022-09-04T14:59:30Z</time>
      </trkpt>
      <trkpt lat="46.74804" lon="5.67286">
        <ele>346.6</ele>
        <time>2022-09-04T14:59:43Z</time>
      </trkpt>
      <trkpt lat="46.74809" lon="5.67285">
        <ele>343.1</ele>
        <time>2022-09-04T15:00:02Z</time>
      </trkpt>
      <trkpt lat="46.74811" lon="5.67279">
        <ele>341.7</ele>
        <time>2022-09-04T15:00:12Z</time>
      </trkpt>
      <trkpt lat="46.74814" lon="5.67273">
        <ele>340</ele>
        <time>2022-09-04T15:00:21Z</time>
      </trkpt>
      <trkpt lat="46.74818" lon="5.67268">
        <ele>338.4</ele>
        <time>2022-09-04T15:00:30Z</time>
      </trkpt>
      <trkpt lat="46.7482" lon="5.67262">
        <ele>337.4</ele>
        <time>2022-09-04T15:00:40Z</time>
      </trkpt>
      <trkpt lat="46.74823" lon="5.67256">
        <ele>334.5</ele>
        <time>2022-09-04T15:01:24Z</time>
      </trkpt>
      <trkpt lat="46.74824" lon="5.67249">
        <ele>333.1</ele>
        <time>2022-09-04T15:01:34Z</time>
      </trkpt>
      <trkpt lat="46.74826" lon="5.67242">
        <ele>331.9</ele>
        <time>2022-09-04T15:01:40Z</time>
      </trkpt>
      <trkpt lat="46.74826" lon="5.67235">
        <ele>331.4</ele>
        <time>2022-09-04T15:01:48Z</time>
      </trkpt>
      <trkpt lat="46.74829" lon="5.67228">
        <ele>331.7</ele>
        <time>2022-09-04T15:01:56Z</time>
      </trkpt>
      <trkpt lat="46.74829" lon="5.67221">
        <ele>331.5</ele>
        <time>2022-09-04T15:02:02Z</time>
      </trkpt>
      <trkpt lat="46.7483" lon="5.67214">
        <ele>331.3</ele>
        <time>2022-09-04T15:02:08Z</time>
      </trkpt>
      <trkpt lat="46.74834" lon="5.67209">
        <ele>330.6</ele>
        <time>2022-09-04T15:02:14Z</time>
      </trkpt>
      <trkpt lat="46.74837" lon="5.67204">
        <ele>329.9</ele>
        <time>2022-09-04T15:02:20Z</time>
      </trkpt>
      <trkpt lat="46.7484" lon="5.67199">
        <ele>329</ele>
        <time>2022-09-04T15:02:27Z</time>
      </trkpt>
      <trkpt lat="46.74841" lon="5.67192">
        <ele>328.5</ele>
        <time>2022-09-04T15:02:32Z</time>
      </trkpt>
      <trkpt lat="46.74842" lon="5.67185">
        <ele>328.1</ele>
        <time>2022-09-04T15:02:37Z</time>
      </trkpt>
      <trkpt lat="46.74843" lon="5.67179">
        <ele>327</ele>
        <time>2022-09-04T15:02:45Z</time>
      </trkpt>
      <trkpt lat="46.74845" lon="5.67172">
        <ele>325.5</ele>
        <time>2022-09-04T15:02:53Z</time>
      </trkpt>
      <trkpt lat="46.74848" lon="5.67166">
        <ele>324.8</ele>
        <time>2022-09-04T15:02:59Z</time>
      </trkpt>
      <trkpt lat="46.74849" lon="5.67159">
        <ele>324.9</ele>
        <time>2022-09-04T15:03:03Z</time>
      </trkpt>
      <trkpt lat="46.74851" lon="5.67152">
        <ele>324.8</ele>
        <time>2022-09-04T15:03:08Z</time>
      </trkpt>
      <trkpt lat="46.74853" lon="5.67147">
        <ele>324</ele>
        <time>2022-09-04T15:03:15Z</time>
      </trkpt>
      <trkpt lat="46.74855" lon="5.6714">
        <ele>322.8</ele>
        <time>2022-09-04T15:03:21Z</time>
      </trkpt>
      <trkpt lat="46.74853" lon="5.67134">
        <ele>320.5</ele>
        <time>2022-09-04T15:03:30Z</time>
      </trkpt>
      <trkpt lat="46.74854" lon="5.67126">
        <ele>319.3</ele>
        <time>2022-09-04T15:03:36Z</time>
      </trkpt>
      <trkpt lat="46.74856" lon="5.67118">
        <ele>318.3</ele>
        <time>2022-09-04T15:03:40Z</time>
      </trkpt>
      <trkpt lat="46.74856" lon="5.67111">
        <ele>317.5</ele>
        <time>2022-09-04T15:03:43Z</time>
      </trkpt>
      <trkpt lat="46.74857" lon="5.67104">
        <ele>317</ele>
        <time>2022-09-04T15:03:46Z</time>
      </trkpt>
      <trkpt lat="46.74858" lon="5.67096">
        <ele>316.6</ele>
        <time>2022-09-04T15:03:50Z</time>
      </trkpt>
      <trkpt lat="46.74858" lon="5.67088">
        <ele>316.4</ele>
        <time>2022-09-04T15:03:55Z</time>
      </trkpt>
      <trkpt lat="46.74857" lon="5.67081">
        <ele>316.4</ele>
        <time>2022-09-04T15:03:59Z</time>
      </trkpt>
      <trkpt lat="46.74857" lon="5.67074">
        <ele>316</ele>
        <time>2022-09-04T15:04:04Z</time>
      </trkpt>
      <trkpt lat="46.74857" lon="5.67067">
        <ele>315.6</ele>
        <time>2022-09-04T15:04:10Z</time>
      </trkpt>
      <trkpt lat="46.74855" lon="5.6706">
        <ele>315.9</ele>
        <time>2022-09-04T15:04:15Z</time>
      </trkpt>
      <trkpt lat="46.74853" lon="5.67052">
        <ele>316</ele>
        <time>2022-09-04T15:04:20Z</time>
      </trkpt>
      <trkpt lat="46.74851" lon="5.67045">
        <ele>316.1</ele>
        <time>2022-09-04T15:04:25Z</time>
      </trkpt>
      <trkpt lat="46.7485" lon="5.67039">
        <ele>316.2</ele>
        <time>2022-09-04T15:04:30Z</time>
      </trkpt>
      <trkpt lat="46.74849" lon="5.67031">
        <ele>316.4</ele>
        <time>2022-09-04T15:04:35Z</time>
      </trkpt>
      <trkpt lat="46.7485" lon="5.67025">
        <ele>316.2</ele>
        <time>2022-09-04T15:04:39Z</time>
      </trkpt>
      <trkpt lat="46.74852" lon="5.67017">
        <ele>316.3</ele>
        <time>2022-09-04T15:04:44Z</time>
      </trkpt>
      <trkpt lat="46.74854" lon="5.6701">
        <ele>316.2</ele>
        <time>2022-09-04T15:04:50Z</time>
      </trkpt>
      <trkpt lat="46.74853" lon="5.67003">
        <ele>316.1</ele>
        <time>2022-09-04T15:04:56Z</time>
      </trkpt>
      <trkpt lat="46.74854" lon="5.66996">
        <ele>317.6</ele>
        <time>2022-09-04T15:05:34Z</time>
      </trkpt>
      <trkpt lat="46.74853" lon="5.66988">
        <ele>319.1</ele>
        <time>2022-09-04T15:05:39Z</time>
      </trkpt>
      <trkpt lat="46.74849" lon="5.66992">
        <ele>320.5</ele>
        <time>2022-09-04T15:05:48Z</time>
      </trkpt>
      <trkpt lat="46.7485" lon="5.66999">
        <ele>320.3</ele>
        <time>2022-09-04T15:05:52Z</time>
      </trkpt>
      <trkpt lat="46.7485" lon="5.67005">
        <ele>317.3</ele>
        <time>2022-09-04T15:06:01Z</time>
      </trkpt>
      <trkpt lat="46.74851" lon="5.66999">
        <ele>315.4</ele>
        <time>2022-09-04T15:07:04Z</time>
      </trkpt>
      <trkpt lat="46.74851" lon="5.66992">
        <ele>314.2</ele>
        <time>2022-09-04T15:07:08Z</time>
      </trkpt>
      <trkpt lat="46.7485" lon="5.66986">
        <ele>312.8</ele>
        <time>2022-09-04T15:07:22Z</time>
      </trkpt>
      <trkpt lat="46.74848" lon="5.66979">
        <ele>313.4</ele>
        <time>2022-09-04T15:07:27Z</time>
      </trkpt>
      <trkpt lat="46.74845" lon="5.66973">
        <ele>314.1</ele>
        <time>2022-09-04T15:07:34Z</time>
      </trkpt>
      <trkpt lat="46.74841" lon="5.6697">
        <ele>314.3</ele>
        <time>2022-09-04T15:07:39Z</time>
      </trkpt>
      <trkpt lat="46.74838" lon="5.66963">
        <ele>313.3</ele>
        <time>2022-09-04T15:07:54Z</time>
      </trkpt>
      <trkpt lat="46.74838" lon="5.66956">
        <ele>311.7</ele>
        <time>2022-09-04T15:08:04Z</time>
      </trkpt>
      <trkpt lat="46.74838" lon="5.66949">
        <ele>312.9</ele>
        <time>2022-09-04T15:08:39Z</time>
      </trkpt>
      <trkpt lat="46.74841" lon="5.66956">
        <ele>308.1</ele>
        <time>2022-09-04T15:15:28Z</time>
      </trkpt>
    </trkseg>
  </trk>
</gpx>